PWSweather.com
Personal Weather Stations
Station Observations
283002842
28300 Mainvilliers, France, MainvilliersFR 28300

28300 Mainvilliers, FranceMainvilliersFR 28300

Lat: 48.4504566, Lon: 1.4527078

Elevation: 156

Station Type: Station météorologique PCE-FWS20

http://meteo28300.fr

High Low Average
Temperature 47.1°F8.4°C 34.2°F1.2°C 39.6°F4.2°C
Dew Point 41.8°F5.4°C 28.9°F-1.7°C 35.4°F1.9°C
Winds 11.4 mph 18.3 kmh Calm Calm 4.0 mph WSW6.4 kmh WSW
Wind Gusts 14.5 mph23.3 kmh -- 7.0 mph11.3 kmh
Humidity 92% 74% 85%
Pressure 29.22 in989.5 mb 29.08 in984.8 mb -
Precipitation 0.01 in0.3 mm - -
Hour Temp Dew Point Humidity Winds Wind Gusts Pressure Precip Precip Rate Daily Precip Total
12:00 AM 43.0°F6.1°C 38.5°F3.6°C 84% 3.1 mph ESE5.0 kmh ESE 6.0 mph9.7 kmh 29.22 in989.5 mb 0.00 in0.0 mm 0.00 in0.0 mm 0.00 in0.0 mm
12:01 AM 43.0°F6.1°C 38.5°F3.6°C 84% 2.2 mph ESE3.5 kmh ESE 6.0 mph9.7 kmh 29.22 in989.5 mb 0.00 in0.0 mm 0.00 in0.0 mm 0.00 in0.0 mm
12:02 AM 43.0°F6.1°C 38.5°F3.6°C 84% 2.2 mph ESE3.5 kmh ESE 6.0 mph9.7 kmh 29.22 in989.5 mb 0.00 in0.0 mm 0.00 in0.0 mm 0.00 in0.0 mm
12:03 AM 43.0°F6.1°C 38.5°F3.6°C 84% 2.2 mph E3.5 kmh E 6.0 mph9.7 kmh 29.22 in989.5 mb 0.00 in0.0 mm 0.00 in0.0 mm 0.00 in0.0 mm
12:04 AM 43.0°F6.1°C 38.5°F3.6°C 84% 2.2 mph ESE3.5 kmh ESE 6.0 mph9.7 kmh 29.22 in989.5 mb 0.00 in0.0 mm 0.00 in0.0 mm 0.00 in0.0 mm
12:05 AM 43.0°F6.1°C 38.5°F3.6°C 84% 2.2 mph ESE3.5 kmh ESE 6.0 mph9.7 kmh 29.22 in989.5 mb 0.00 in0.0 mm 0.00 in0.0 mm 0.00 in0.0 mm
12:06 AM 43.0°F6.1°C 38.5°F3.6°C 84% 2.2 mph ESE3.5 kmh ESE 6.0 mph9.7 kmh 29.22 in989.5 mb 0.00 in0.0 mm 0.00 in0.0 mm 0.00 in0.0 mm
12:07 AM 43.0°F6.1°C 38.5°F3.6°C 84% 3.1 mph ESE5.0 kmh ESE 6.0 mph9.7 kmh 29.21 in989.2 mb 0.00 in0.0 mm 0.00 in0.0 mm 0.00 in0.0 mm
12:08 AM 43.0°F6.1°C 38.5°F3.6°C 84% 1.6 mph ESE2.6 kmh ESE 6.0 mph9.7 kmh 29.22 in989.5 mb 0.00 in0.0 mm 0.00 in0.0 mm 0.00 in0.0 mm
12:09 AM 42.8°F6.0°C 38.3°F3.5°C 84% 0.7 mph ESE1.1 kmh ESE 6.0 mph9.7 kmh 29.21 in989.2 mb 0.00 in0.0 mm 0.00 in0.0 mm 0.00 in0.0 mm
12:10 AM 42.8°F6.0°C 38.3°F3.5°C 84% 0.7 mph E1.1 kmh E 4.5 mph7.2 kmh 29.22 in989.5 mb 0.00 in0.0 mm 0.00 in0.0 mm 0.00 in0.0 mm
12:11 AM 42.8°F6.0°C 38.3°F3.5°C 84% 0.7 mph E1.1 kmh E 4.5 mph7.2 kmh 29.22 in989.5 mb 0.00 in0.0 mm 0.00 in0.0 mm 0.00 in0.0 mm
12:12 AM 42.8°F6.0°C 38.3°F3.5°C 84% 1.6 mph E2.6 kmh E 4.5 mph7.2 kmh 29.22 in989.5 mb 0.00 in0.0 mm 0.00 in0.0 mm 0.00 in0.0 mm
12:13 AM 42.8°F6.0°C 38.3°F3.5°C 84% 1.6 mph E2.6 kmh E 4.5 mph7.2 kmh 29.22 in989.5 mb 0.00 in0.0 mm 0.00 in0.0 mm 0.00 in0.0 mm
12:14 AM 42.8°F6.0°C 38.3°F3.5°C 84% 1.6 mph E2.6 kmh E 4.5 mph7.2 kmh 29.22 in989.5 mb 0.00 in0.0 mm 0.00 in0.0 mm 0.00 in0.0 mm
12:15 AM 42.8°F6.0°C 38.3°F3.5°C 84% 1.6 mph E2.6 kmh E 4.5 mph7.2 kmh 29.22 in989.5 mb 0.00 in0.0 mm 0.00 in0.0 mm 0.00 in0.0 mm
12:16 AM 42.6°F5.9°C 38.1°F3.4°C 84% 2.2 mph E3.5 kmh E 4.5 mph7.2 kmh 29.21 in989.2 mb 0.00 in0.0 mm 0.00 in0.0 mm 0.00 in0.0 mm
12:17 AM 42.8°F6.0°C 38.3°F3.5°C 84% 2.2 mph E3.5 kmh E 4.5 mph7.2 kmh 29.22 in989.5 mb 0.00 in0.0 mm 0.00 in0.0 mm 0.00 in0.0 mm
12:18 AM 42.6°F5.9°C 38.1°F3.4°C 84% 1.6 mph E2.6 kmh E 3.1 mph5.0 kmh 29.21 in989.2 mb 0.00 in0.0 mm 0.00 in0.0 mm 0.00 in0.0 mm
12:19 AM 42.6°F5.9°C 38.1°F3.4°C 84% 1.6 mph E2.6 kmh E 3.1 mph5.0 kmh 29.22 in989.5 mb 0.00 in0.0 mm 0.00 in0.0 mm 0.00 in0.0 mm
12:20 AM 42.6°F5.9°C 38.1°F3.4°C 84% 0.7 mph ESE1.1 kmh ESE 3.1 mph5.0 kmh 29.22 in989.5 mb 0.00 in0.0 mm 0.00 in0.0 mm 0.00 in0.0 mm
12:21 AM 42.6°F5.9°C 38.1°F3.4°C 84% 0.7 mph ESE1.1 kmh ESE 3.1 mph5.0 kmh 29.21 in989.2 mb 0.00 in0.0 mm 0.00 in0.0 mm 0.00 in0.0 mm
12:22 AM 42.6°F5.9°C 38.1°F3.4°C 84% 1.6 mph ESE2.6 kmh ESE 3.1 mph5.0 kmh 29.21 in989.2 mb 0.00 in0.0 mm 0.00 in0.0 mm 0.00 in0.0 mm
12:23 AM 42.6°F5.9°C 38.1°F3.4°C 84% 1.6 mph SE2.6 kmh SE 3.1 mph5.0 kmh 29.21 in989.2 mb 0.00 in0.0 mm 0.00 in0.0 mm 0.00 in0.0 mm
12:24 AM 42.6°F5.9°C 38.1°F3.4°C 84% 1.6 mph ESE2.6 kmh ESE 3.1 mph5.0 kmh 29.21 in989.2 mb 0.00 in0.0 mm 0.00 in0.0 mm 0.00 in0.0 mm
12:25 AM 42.6°F5.9°C 38.1°F3.4°C 84% 1.6 mph SE2.6 kmh SE 3.1 mph5.0 kmh 29.21 in989.2 mb 0.00 in0.0 mm 0.00 in0.0 mm 0.00 in0.0 mm
12:26 AM 42.6°F5.9°C 38.1°F3.4°C 84% 1.6 mph SE2.6 kmh SE 3.1 mph5.0 kmh 29.21 in989.2 mb 0.00 in0.0 mm 0.00 in0.0 mm 0.00 in0.0 mm
12:27 AM 42.6°F5.9°C 38.1°F3.4°C 84% 1.6 mph SE2.6 kmh SE 3.1 mph5.0 kmh 29.21 in989.2 mb 0.00 in0.0 mm 0.00 in0.0 mm 0.00 in0.0 mm
12:28 AM 42.6°F5.9°C 38.4°F3.6°C 85% 3.1 mph SE5.0 kmh SE 3.8 mph6.1 kmh 29.21 in989.2 mb 0.00 in0.0 mm 0.00 in0.0 mm 0.00 in0.0 mm
12:29 AM 42.6°F5.9°C 38.4°F3.6°C 85% 2.2 mph SE3.5 kmh SE 3.8 mph6.1 kmh 29.21 in989.2 mb 0.00 in0.0 mm 0.00 in0.0 mm 0.00 in0.0 mm
12:30 AM 42.6°F5.9°C 38.4°F3.6°C 85% 1.6 mph SE2.6 kmh SE 3.8 mph6.1 kmh 29.21 in989.2 mb 0.00 in0.0 mm 0.00 in0.0 mm 0.00 in0.0 mm
12:31 AM 42.6°F5.9°C 38.4°F3.6°C 85% 2.2 mph SE3.5 kmh SE 3.8 mph6.1 kmh 29.21 in989.2 mb 0.00 in0.0 mm 0.00 in0.0 mm 0.00 in0.0 mm
12:32 AM 42.6°F5.9°C 38.4°F3.6°C 85% 1.6 mph SE2.6 kmh SE 3.8 mph6.1 kmh 29.21 in989.2 mb 0.00 in0.0 mm 0.00 in0.0 mm 0.00 in0.0 mm
12:33 AM 42.6°F5.9°C 38.4°F3.6°C 85% 1.6 mph SE2.6 kmh SE 3.8 mph6.1 kmh 29.21 in989.2 mb 0.00 in0.0 mm 0.00 in0.0 mm 0.00 in0.0 mm
12:34 AM 42.6°F5.9°C 38.4°F3.6°C 85% 1.6 mph SE2.6 kmh SE 3.8 mph6.1 kmh 29.21 in989.2 mb 0.00 in0.0 mm 0.00 in0.0 mm 0.00 in0.0 mm
12:35 AM 42.6°F5.9°C 38.4°F3.6°C 85% 0.7 mph SE1.1 kmh SE 3.8 mph6.1 kmh 29.21 in989.2 mb 0.00 in0.0 mm 0.00 in0.0 mm 0.00 in0.0 mm
12:36 AM 42.6°F5.9°C 38.4°F3.6°C 85% 0.7 mph SE1.1 kmh SE 3.8 mph6.1 kmh 29.21 in989.2 mb 0.00 in0.0 mm 0.00 in0.0 mm 0.00 in0.0 mm
12:37 AM 42.6°F5.9°C 38.4°F3.6°C 85% 0.7 mph SE1.1 kmh SE 3.8 mph6.1 kmh 29.21 in989.2 mb 0.00 in0.0 mm 0.00 in0.0 mm 0.00 in0.0 mm
12:38 AM 42.4°F5.8°C 38.2°F3.4°C 85% 0.7 mph ESE1.1 kmh ESE 3.8 mph6.1 kmh 29.21 in989.2 mb 0.00 in0.0 mm 0.00 in0.0 mm 0.00 in0.0 mm
12:39 AM 42.4°F5.8°C 38.2°F3.4°C 85% Calm Calm 3.1 mph5.0 kmh 29.21 in989.2 mb 0.00 in0.0 mm 0.00 in0.0 mm 0.00 in0.0 mm
12:40 AM 42.4°F5.8°C 38.2°F3.4°C 85% 0.7 mph ESE1.1 kmh ESE 3.1 mph5.0 kmh 29.21 in989.2 mb 0.00 in0.0 mm 0.00 in0.0 mm 0.00 in0.0 mm
12:41 AM 42.4°F5.8°C 38.2°F3.4°C 85% 0.7 mph ESE1.1 kmh ESE 3.1 mph5.0 kmh 29.21 in989.2 mb 0.00 in0.0 mm 0.00 in0.0 mm 0.00 in0.0 mm
12:42 AM 42.4°F5.8°C 38.2°F3.4°C 85% 0.7 mph ESE1.1 kmh ESE 3.1 mph5.0 kmh 29.21 in989.2 mb 0.00 in0.0 mm 0.00 in0.0 mm 0.00 in0.0 mm
12:43 AM 42.3°F5.7°C 38.1°F3.4°C 85% 0.7 mph ESE1.1 kmh ESE 2.2 mph3.5 kmh 29.21 in989.2 mb 0.00 in0.0 mm 0.00 in0.0 mm 0.00 in0.0 mm
12:44 AM 42.3°F5.7°C 38.1°F3.4°C 85% Calm Calm 2.2 mph3.5 kmh 29.21 in989.2 mb 0.00 in0.0 mm 0.00 in0.0 mm 0.00 in0.0 mm
12:45 AM 42.3°F5.7°C 38.1°F3.4°C 85% 0.7 mph ESE1.1 kmh ESE 1.6 mph2.6 kmh 29.21 in989.2 mb 0.00 in0.0 mm 0.00 in0.0 mm 0.00 in0.0 mm
12:46 AM 42.3°F5.7°C 38.1°F3.4°C 85% 0.7 mph SE1.1 kmh SE 1.6 mph2.6 kmh 29.21 in989.2 mb 0.00 in0.0 mm 0.00 in0.0 mm 0.00 in0.0 mm
12:47 AM 42.3°F5.7°C 38.1°F3.4°C 85% Calm Calm 1.6 mph2.6 kmh 29.21 in989.2 mb 0.00 in0.0 mm 0.00 in0.0 mm 0.00 in0.0 mm
12:48 AM 42.3°F5.7°C 38.1°F3.4°C 85% 0.7 mph SE1.1 kmh SE 1.6 mph2.6 kmh 29.21 in989.2 mb 0.00 in0.0 mm 0.00 in0.0 mm 0.00 in0.0 mm
12:49 AM 42.3°F5.7°C 38.1°F3.4°C 85% 1.6 mph SE2.6 kmh SE 1.6 mph2.6 kmh 29.21 in989.2 mb 0.00 in0.0 mm 0.00 in0.0 mm 0.00 in0.0 mm
12:50 AM 42.3°F5.7°C 38.1°F3.4°C 85% 0.7 mph SE1.1 kmh SE 1.6 mph2.6 kmh 29.21 in989.2 mb 0.00 in0.0 mm 0.00 in0.0 mm 0.00 in0.0 mm
12:51 AM 42.3°F5.7°C 38.1°F3.4°C 85% 0.7 mph SE1.1 kmh SE 1.6 mph2.6 kmh 29.21 in989.2 mb 0.00 in0.0 mm 0.00 in0.0 mm 0.00 in0.0 mm
12:52 AM 42.3°F5.7°C 38.1°F3.4°C 85% Calm Calm 1.6 mph2.6 kmh 29.21 in989.2 mb 0.00 in0.0 mm 0.00 in0.0 mm 0.00 in0.0 mm
12:53 AM 42.3°F5.7°C 38.1°F3.4°C 85% 1.6 mph SE2.6 kmh SE 2.2 mph3.5 kmh 29.21 in989.2 mb 0.00 in0.0 mm 0.00 in0.0 mm 0.00 in0.0 mm
12:54 AM 42.3°F5.7°C 38.1°F3.4°C 85% 0.7 mph SE1.1 kmh SE 2.2 mph3.5 kmh 29.21 in989.2 mb 0.00 in0.0 mm 0.00 in0.0 mm 0.00 in0.0 mm
12:55 AM 42.3°F5.7°C 38.1°F3.4°C 85% 0.7 mph SE1.1 kmh SE 2.2 mph3.5 kmh 29.21 in989.2 mb 0.00 in0.0 mm 0.00 in0.0 mm 0.00 in0.0 mm
12:56 AM 42.3°F5.7°C 38.1°F3.4°C 85% 0.7 mph SE1.1 kmh SE 2.2 mph3.5 kmh 29.21 in989.2 mb 0.00 in0.0 mm 0.00 in0.0 mm 0.00 in0.0 mm
12:57 AM 42.3°F5.7°C 38.1°F3.4°C 85% Calm Calm 2.2 mph3.5 kmh 29.21 in989.2 mb 0.00 in0.0 mm 0.00 in0.0 mm 0.00 in0.0 mm
12:58 AM 42.1°F5.6°C 37.9°F3.3°C 85% Calm Calm 2.2 mph3.5 kmh 29.21 in989.2 mb 0.00 in0.0 mm 0.00 in0.0 mm 0.00 in0.0 mm
12:59 AM 42.1°F5.6°C 37.9°F3.3°C 85% Calm Calm 2.2 mph3.5 kmh 29.21 in989.2 mb 0.00 in0.0 mm 0.00 in0.0 mm 0.00 in0.0 mm
01:00 AM 42.1°F5.6°C 37.9°F3.3°C 85% Calm Calm 2.2 mph3.5 kmh 29.21 in989.2 mb 0.00 in0.0 mm 0.00 in0.0 mm 0.00 in0.0 mm
01:01 AM 42.1°F5.6°C 37.9°F3.3°C 85% Calm Calm 2.2 mph3.5 kmh 29.21 in989.2 mb 0.00 in0.0 mm 0.00 in0.0 mm 0.00 in0.0 mm
01:02 AM 41.9°F5.5°C 37.7°F3.2°C 85% Calm Calm 2.2 mph3.5 kmh 29.21 in989.2 mb 0.00 in0.0 mm 0.00 in0.0 mm 0.00 in0.0 mm
01:03 AM 41.9°F5.5°C 37.7°F3.2°C 85% Calm Calm 2.2 mph3.5 kmh 29.21 in989.2 mb 0.00 in0.0 mm 0.00 in0.0 mm 0.00 in0.0 mm
01:04 AM 41.9°F5.5°C 37.7°F3.2°C 85% Calm Calm 1.6 mph2.6 kmh 29.21 in989.2 mb 0.00 in0.0 mm 0.00 in0.0 mm 0.00 in0.0 mm
01:05 AM 41.7°F5.4°C 37.5°F3.1°C 85% Calm Calm 1.6 mph2.6 kmh 29.21 in989.2 mb 0.00 in0.0 mm 0.00 in0.0 mm 0.00 in0.0 mm
01:06 AM 41.7°F5.4°C 37.5°F3.1°C 85% Calm Calm 1.6 mph2.6 kmh 29.21 in989.2 mb 0.00 in0.0 mm 0.00 in0.0 mm 0.00 in0.0 mm
01:07 AM 41.7°F5.4°C 37.5°F3.1°C 85% Calm Calm 0.7 mph1.1 kmh 29.21 in989.2 mb 0.00 in0.0 mm 0.00 in0.0 mm 0.00 in0.0 mm
01:08 AM 41.7°F5.4°C 37.5°F3.1°C 85% Calm Calm 0.7 mph1.1 kmh 29.21 in989.2 mb 0.00 in0.0 mm 0.00 in0.0 mm 0.00 in0.0 mm
01:09 AM 41.7°F5.4°C 37.5°F3.1°C 85% Calm Calm 0.7 mph1.1 kmh 29.21 in989.2 mb 0.00 in0.0 mm 0.00 in0.0 mm 0.00 in0.0 mm
01:10 AM 41.5°F5.3°C 37.4°F3.0°C 85% 0.7 mph NNE1.1 kmh NNE 1.6 mph2.6 kmh 29.21 in989.2 mb 0.00 in0.0 mm 0.00 in0.0 mm 0.00 in0.0 mm
01:11 AM 41.5°F5.3°C 37.4°F3.0°C 85% Calm Calm 1.6 mph2.6 kmh 29.21 in989.2 mb 0.00 in0.0 mm 0.00 in0.0 mm 0.00 in0.0 mm
01:12 AM 41.5°F5.3°C 37.4°F3.0°C 85% Calm Calm 1.6 mph2.6 kmh 29.21 in989.2 mb 0.00 in0.0 mm 0.00 in0.0 mm 0.00 in0.0 mm
01:13 AM 41.5°F5.3°C 37.4°F3.0°C 85% 0.7 mph NE1.1 kmh NE 1.6 mph2.6 kmh 29.21 in989.2 mb 0.00 in0.0 mm 0.00 in0.0 mm 0.00 in0.0 mm
01:14 AM 41.4°F5.2°C 37.2°F2.9°C 85% Calm Calm 1.6 mph2.6 kmh 29.21 in989.2 mb 0.00 in0.0 mm 0.00 in0.0 mm 0.00 in0.0 mm
01:15 AM 41.4°F5.2°C 37.2°F2.9°C 85% Calm Calm 1.6 mph2.6 kmh 29.21 in989.2 mb 0.00 in0.0 mm 0.00 in0.0 mm 0.00 in0.0 mm
01:16 AM 41.4°F5.2°C 37.2°F2.9°C 85% Calm Calm 1.6 mph2.6 kmh 29.21 in989.2 mb 0.00 in0.0 mm 0.00 in0.0 mm 0.00 in0.0 mm
01:17 AM 41.4°F5.2°C 37.2°F2.9°C 85% Calm Calm 1.6 mph2.6 kmh 29.21 in989.2 mb 0.00 in0.0 mm 0.00 in0.0 mm 0.00 in0.0 mm
01:18 AM 41.2°F5.1°C 37.0°F2.8°C 85% 0.7 mph ENE1.1 kmh ENE 2.2 mph3.5 kmh 29.21 in989.2 mb 0.00 in0.0 mm 0.00 in0.0 mm 0.00 in0.0 mm
01:19 AM 41.2°F5.1°C 37.0°F2.8°C 85% 0.7 mph ENE1.1 kmh ENE 2.2 mph3.5 kmh 29.21 in989.2 mb 0.00 in0.0 mm 0.00 in0.0 mm 0.00 in0.0 mm
01:20 AM 41.2°F5.1°C 37.0°F2.8°C 85% 0.7 mph ENE1.1 kmh ENE 2.2 mph3.5 kmh 29.21 in989.2 mb 0.00 in0.0 mm 0.00 in0.0 mm 0.00 in0.0 mm
01:21 AM 41.2°F5.1°C 37.0°F2.8°C 85% Calm Calm 2.2 mph3.5 kmh 29.21 in989.2 mb 0.00 in0.0 mm 0.00 in0.0 mm 0.00 in0.0 mm
01:22 AM 41.2°F5.1°C 37.0°F2.8°C 85% Calm Calm 2.2 mph3.5 kmh 29.21 in989.2 mb 0.00 in0.0 mm 0.00 in0.0 mm 0.00 in0.0 mm
01:23 AM 41.2°F5.1°C 37.0°F2.8°C 85% 0.7 mph E1.1 kmh E 2.2 mph3.5 kmh 29.21 in989.2 mb 0.00 in0.0 mm 0.00 in0.0 mm 0.00 in0.0 mm
01:24 AM 41.2°F5.1°C 37.0°F2.8°C 85% 1.6 mph E2.6 kmh E 2.2 mph3.5 kmh 29.21 in989.2 mb 0.00 in0.0 mm 0.00 in0.0 mm 0.00 in0.0 mm
01:25 AM 41.2°F5.1°C 37.0°F2.8°C 85% 0.7 mph ENE1.1 kmh ENE 2.2 mph3.5 kmh 29.21 in989.2 mb 0.00 in0.0 mm 0.00 in0.0 mm 0.00 in0.0 mm
01:26 AM 41.2°F5.1°C 37.0°F2.8°C 85% 0.7 mph ENE1.1 kmh ENE 2.2 mph3.5 kmh 29.21 in989.2 mb 0.00 in0.0 mm 0.00 in0.0 mm 0.00 in0.0 mm
01:27 AM 41.2°F5.1°C 37.0°F2.8°C 85% 0.7 mph ENE1.1 kmh ENE 2.2 mph3.5 kmh 29.21 in989.2 mb 0.00 in0.0 mm 0.00 in0.0 mm 0.00 in0.0 mm
01:28 AM 41.2°F5.1°C 37.0°F2.8°C 85% 0.7 mph ENE1.1 kmh ENE 2.2 mph3.5 kmh 29.21 in989.2 mb 0.00 in0.0 mm 0.00 in0.0 mm 0.00 in0.0 mm
01:29 AM 41.2°F5.1°C 37.0°F2.8°C 85% 0.7 mph NE1.1 kmh NE 1.6 mph2.6 kmh 29.21 in989.2 mb 0.00 in0.0 mm 0.00 in0.0 mm 0.00 in0.0 mm
01:30 AM 41.2°F5.1°C 37.0°F2.8°C 85% 0.7 mph NE1.1 kmh NE 1.6 mph2.6 kmh 29.21 in989.2 mb 0.00 in0.0 mm 0.00 in0.0 mm 0.00 in0.0 mm
01:31 AM 41.2°F5.1°C 37.0°F2.8°C 85% 1.6 mph NE2.6 kmh NE 2.2 mph3.5 kmh 29.21 in989.2 mb 0.00 in0.0 mm 0.00 in0.0 mm 0.00 in0.0 mm
01:32 AM 41.2°F5.1°C 37.0°F2.8°C 85% 1.6 mph ENE2.6 kmh ENE 2.2 mph3.5 kmh 29.21 in989.2 mb 0.00 in0.0 mm 0.00 in0.0 mm 0.00 in0.0 mm
01:33 AM 41.4°F5.2°C 37.2°F2.9°C 85% 1.6 mph E2.6 kmh E 2.2 mph3.5 kmh 29.21 in989.2 mb 0.00 in0.0 mm 0.00 in0.0 mm 0.00 in0.0 mm
01:34 AM 41.4°F5.2°C 37.2°F2.9°C 85% 1.6 mph E2.6 kmh E 2.2 mph3.5 kmh 29.21 in989.2 mb 0.00 in0.0 mm 0.00 in0.0 mm 0.00 in0.0 mm
01:35 AM 41.4°F5.2°C 37.2°F2.9°C 85% 1.6 mph E2.6 kmh E 2.2 mph3.5 kmh 29.21 in989.2 mb 0.00 in0.0 mm 0.00 in0.0 mm 0.00 in0.0 mm
01:36 AM 41.4°F5.2°C 37.2°F2.9°C 85% 1.6 mph E2.6 kmh E 2.2 mph3.5 kmh 29.21 in989.2 mb 0.00 in0.0 mm 0.00 in0.0 mm 0.00 in0.0 mm
01:37 AM 41.4°F5.2°C 37.5°F3.1°C 86% Calm Calm 2.2 mph3.5 kmh 29.21 in989.2 mb 0.00 in0.0 mm 0.00 in0.0 mm 0.00 in0.0 mm
01:38 AM 41.4°F5.2°C 37.5°F3.1°C 86% 0.7 mph ESE1.1 kmh ESE 2.2 mph3.5 kmh 29.21 in989.2 mb 0.00 in0.0 mm 0.00 in0.0 mm 0.00 in0.0 mm
01:39 AM 41.4°F5.2°C 37.5°F3.1°C 86% 0.7 mph ESE1.1 kmh ESE 2.2 mph3.5 kmh 29.21 in989.2 mb 0.00 in0.0 mm 0.00 in0.0 mm 0.00 in0.0 mm
01:40 AM 41.4°F5.2°C 37.5°F3.1°C 86% Calm Calm 2.2 mph3.5 kmh 29.21 in989.2 mb 0.00 in0.0 mm 0.00 in0.0 mm 0.00 in0.0 mm
01:41 AM 41.2°F5.1°C 37.3°F2.9°C 86% Calm Calm 2.2 mph3.5 kmh 29.21 in989.2 mb 0.00 in0.0 mm 0.00 in0.0 mm 0.00 in0.0 mm
01:42 AM 41.2°F5.1°C 37.3°F2.9°C 86% Calm Calm 2.2 mph3.5 kmh 29.21 in989.2 mb 0.00 in0.0 mm 0.00 in0.0 mm 0.00 in0.0 mm
01:43 AM 41.2°F5.1°C 37.3°F2.9°C 86% Calm Calm 2.2 mph3.5 kmh 29.21 in989.2 mb 0.00 in0.0 mm 0.00 in0.0 mm 0.00 in0.0 mm
01:44 AM 41.2°F5.1°C 37.3°F2.9°C 86% Calm Calm 2.2 mph3.5 kmh 29.21 in989.2 mb 0.00 in0.0 mm 0.00 in0.0 mm 0.00 in0.0 mm
01:45 AM 41.2°F5.1°C 37.3°F2.9°C 86% 0.7 mph E1.1 kmh E 2.2 mph3.5 kmh 29.21 in989.2 mb 0.00 in0.0 mm 0.00 in0.0 mm 0.00 in0.0 mm
01:46 AM 41.2°F5.1°C 37.3°F2.9°C 86% Calm Calm 2.2 mph3.5 kmh 29.21 in989.2 mb 0.00 in0.0 mm 0.00 in0.0 mm 0.00 in0.0 mm
01:47 AM 41.0°F5.0°C 37.1°F2.8°C 86% Calm Calm 1.6 mph2.6 kmh 29.21 in989.2 mb 0.00 in0.0 mm 0.00 in0.0 mm 0.00 in0.0 mm
01:48 AM 41.0°F5.0°C 37.1°F2.8°C 86% Calm Calm 1.6 mph2.6 kmh 29.21 in989.2 mb 0.00 in0.0 mm 0.00 in0.0 mm 0.00 in0.0 mm
01:49 AM 41.0°F5.0°C 37.1°F2.8°C 86% Calm Calm 1.6 mph2.6 kmh 29.21 in989.2 mb 0.00 in0.0 mm 0.00 in0.0 mm 0.00 in0.0 mm
01:50 AM 41.0°F5.0°C 37.1°F2.8°C 86% Calm Calm 0.7 mph1.1 kmh 29.21 in989.2 mb 0.00 in0.0 mm 0.00 in0.0 mm 0.00 in0.0 mm
01:51 AM 41.0°F5.0°C 37.1°F2.8°C 86% Calm Calm 0.7 mph1.1 kmh 29.21 in989.2 mb 0.00 in0.0 mm 0.00 in0.0 mm 0.00 in0.0 mm
01:52 AM 41.0°F5.0°C 37.1°F2.8°C 86% Calm Calm 0.7 mph1.1 kmh 29.21 in989.2 mb 0.00 in0.0 mm 0.00 in0.0 mm 0.00 in0.0 mm
01:53 AM 41.0°F5.0°C 37.1°F2.8°C 86% Calm Calm 0.7 mph1.1 kmh 29.21 in989.2 mb 0.00 in0.0 mm 0.00 in0.0 mm 0.00 in0.0 mm
01:54 AM 41.0°F5.0°C 37.1°F2.8°C 86% Calm Calm 0.7 mph1.1 kmh 29.21 in989.2 mb 0.00 in0.0 mm 0.00 in0.0 mm 0.00 in0.0 mm
01:55 AM 40.8°F4.9°C 37.0°F2.8°C 86% Calm Calm 0.7 mph1.1 kmh 29.21 in989.2 mb 0.00 in0.0 mm 0.00 in0.0 mm 0.00 in0.0 mm
01:56 AM 40.8°F4.9°C 37.0°F2.8°C 86% Calm Calm 0.7 mph1.1 kmh 29.21 in989.2 mb 0.00 in0.0 mm 0.00 in0.0 mm 0.00 in0.0 mm
01:57 AM 40.8°F4.9°C 37.0°F2.8°C 86% Calm Calm 0.7 mph1.1 kmh 29.21 in989.2 mb 0.00 in0.0 mm 0.00 in0.0 mm 0.00 in0.0 mm
01:58 AM 40.8°F4.9°C 37.0°F2.8°C 86% Calm Calm 0.7 mph1.1 kmh 29.21 in989.2 mb 0.00 in0.0 mm 0.00 in0.0 mm 0.00 in0.0 mm
01:59 AM 40.8°F4.9°C 37.0°F2.8°C 86% Calm Calm 0.7 mph1.1 kmh 29.21 in989.2 mb 0.00 in0.0 mm 0.00 in0.0 mm 0.00 in0.0 mm
02:00 AM 40.8°F4.9°C 37.0°F2.8°C 86% Calm Calm -- 29.21 in989.2 mb 0.00 in0.0 mm 0.00 in0.0 mm 0.00 in0.0 mm
02:01 AM 40.8°F4.9°C 37.0°F2.8°C 86% Calm Calm -- 29.21 in989.2 mb 0.00 in0.0 mm 0.00 in0.0 mm 0.00 in0.0 mm
02:02 AM 40.8°F4.9°C 37.0°F2.8°C 86% Calm Calm -- 29.21 in989.2 mb 0.00 in0.0 mm 0.00 in0.0 mm 0.00 in0.0 mm
02:03 AM 40.8°F4.9°C 37.0°F2.8°C 86% Calm Calm -- 29.20 in988.8 mb 0.00 in0.0 mm 0.00 in0.0 mm 0.00 in0.0 mm
02:04 AM 40.8°F4.9°C 37.0°F2.8°C 86% Calm Calm -- 29.21 in989.2 mb 0.00 in0.0 mm 0.00 in0.0 mm 0.00 in0.0 mm
02:05 AM 40.8°F4.9°C 37.0°F2.8°C 86% Calm Calm -- 29.20 in988.8 mb 0.00 in0.0 mm 0.00 in0.0 mm 0.00 in0.0 mm
02:06 AM 40.8°F4.9°C 37.0°F2.8°C 86% Calm Calm -- 29.21 in989.2 mb 0.00 in0.0 mm 0.00 in0.0 mm 0.00 in0.0 mm
02:07 AM 40.6°F4.8°C 36.8°F2.7°C 86% Calm Calm -- 29.21 in989.2 mb 0.00 in0.0 mm 0.00 in0.0 mm 0.00 in0.0 mm
02:08 AM 40.6°F4.8°C 36.8°F2.7°C 86% Calm Calm -- 29.21 in989.2 mb 0.00 in0.0 mm 0.00 in0.0 mm 0.00 in0.0 mm
02:09 AM 40.6°F4.8°C 36.8°F2.7°C 86% Calm Calm -- 29.21 in989.2 mb 0.00 in0.0 mm 0.00 in0.0 mm 0.00 in0.0 mm
02:10 AM 40.5°F4.7°C 36.6°F2.6°C 86% Calm Calm -- 29.21 in989.2 mb 0.00 in0.0 mm 0.00 in0.0 mm 0.00 in0.0 mm
02:11 AM 40.5°F4.7°C 36.6°F2.6°C 86% Calm Calm -- 29.21 in989.2 mb 0.00 in0.0 mm 0.00 in0.0 mm 0.00 in0.0 mm
02:12 AM 40.5°F4.7°C 36.6°F2.6°C 86% Calm Calm -- 29.21 in989.2 mb 0.00 in0.0 mm 0.00 in0.0 mm 0.00 in0.0 mm
02:13 AM 40.3°F4.6°C 36.4°F2.4°C 86% Calm Calm -- 29.21 in989.2 mb 0.00 in0.0 mm 0.00 in0.0 mm 0.00 in0.0 mm
02:14 AM 40.3°F4.6°C 36.4°F2.4°C 86% Calm Calm -- 29.20 in988.8 mb 0.00 in0.0 mm 0.00 in0.0 mm 0.00 in0.0 mm
02:15 AM 40.3°F4.6°C 36.4°F2.4°C 86% Calm Calm -- 29.21 in989.2 mb 0.00 in0.0 mm 0.00 in0.0 mm 0.00 in0.0 mm
02:16 AM 40.3°F4.6°C 36.4°F2.4°C 86% Calm Calm -- 29.20 in988.8 mb 0.00 in0.0 mm 0.00 in0.0 mm 0.00 in0.0 mm
02:17 AM 40.3°F4.6°C 36.4°F2.4°C 86% Calm Calm -- 29.20 in988.8 mb 0.00 in0.0 mm 0.00 in0.0 mm 0.00 in0.0 mm
02:18 AM 40.3°F4.6°C 36.4°F2.4°C 86% Calm Calm -- 29.20 in988.8 mb 0.00 in0.0 mm 0.00 in0.0 mm 0.00 in0.0 mm
02:19 AM 40.3°F4.6°C 36.4°F2.4°C 86% Calm Calm -- 29.20 in988.8 mb 0.00 in0.0 mm 0.00 in0.0 mm 0.00 in0.0 mm
02:20 AM 40.1°F4.5°C 36.2°F2.3°C 86% Calm Calm -- 29.20 in988.8 mb 0.00 in0.0 mm 0.00 in0.0 mm 0.00 in0.0 mm
02:21 AM 40.1°F4.5°C 36.2°F2.3°C 86% Calm Calm -- 29.20 in988.8 mb 0.00 in0.0 mm 0.00 in0.0 mm 0.00 in0.0 mm
02:22 AM 40.1°F4.5°C 36.2°F2.3°C 86% Calm Calm -- 29.20 in988.8 mb 0.00 in0.0 mm 0.00 in0.0 mm 0.00 in0.0 mm
02:23 AM 40.1°F4.5°C 36.2°F2.3°C 86% Calm Calm -- 29.20 in988.8 mb 0.00 in0.0 mm 0.00 in0.0 mm 0.00 in0.0 mm
02:24 AM 40.1°F4.5°C 36.2°F2.3°C 86% Calm Calm -- 29.20 in988.8 mb 0.00 in0.0 mm 0.00 in0.0 mm 0.00 in0.0 mm
02:25 AM 40.1°F4.5°C 36.2°F2.3°C 86% Calm Calm -- 29.20 in988.8 mb 0.00 in0.0 mm 0.00 in0.0 mm 0.00 in0.0 mm
02:26 AM 40.1°F4.5°C 36.2°F2.3°C 86% Calm Calm -- 29.20 in988.8 mb 0.00 in0.0 mm 0.00 in0.0 mm 0.00 in0.0 mm
02:27 AM 40.1°F4.5°C 36.2°F2.3°C 86% Calm Calm -- 29.20 in988.8 mb 0.00 in0.0 mm 0.00 in0.0 mm 0.00 in0.0 mm
02:28 AM 40.1°F4.5°C 36.2°F2.3°C 86% Calm Calm -- 29.20 in988.8 mb 0.00 in0.0 mm 0.00 in0.0 mm 0.00 in0.0 mm
02:29 AM 40.1°F4.5°C 36.2°F2.3°C 86% Calm Calm -- 29.20 in988.8 mb 0.00 in0.0 mm 0.00 in0.0 mm 0.00 in0.0 mm
02:30 AM 40.1°F4.5°C 36.2°F2.3°C 86% Calm Calm -- 29.20 in988.8 mb 0.00 in0.0 mm 0.00 in0.0 mm 0.00 in0.0 mm
02:31 AM 40.1°F4.5°C 36.2°F2.3°C 86% Calm Calm -- 29.20 in988.8 mb 0.00 in0.0 mm 0.00 in0.0 mm 0.00 in0.0 mm
02:32 AM 40.3°F4.6°C 36.4°F2.4°C 86% Calm Calm -- 29.20 in988.8 mb 0.00 in0.0 mm 0.00 in0.0 mm 0.00 in0.0 mm
02:33 AM 40.1°F4.5°C 36.2°F2.3°C 86% Calm Calm -- 29.20 in988.8 mb 0.00 in0.0 mm 0.00 in0.0 mm 0.00 in0.0 mm
02:34 AM 40.1°F4.5°C 36.2°F2.3°C 86% Calm Calm -- 29.20 in988.8 mb 0.00 in0.0 mm 0.00 in0.0 mm 0.00 in0.0 mm
02:35 AM 40.1°F4.5°C 36.2°F2.3°C 86% Calm Calm -- 29.20 in988.8 mb 0.00 in0.0 mm 0.00 in0.0 mm 0.00 in0.0 mm
02:36 AM 40.1°F4.5°C 36.2°F2.3°C 86% Calm Calm -- 29.20 in988.8 mb 0.00 in0.0 mm 0.00 in0.0 mm 0.00 in0.0 mm
02:37 AM 40.1°F4.5°C 36.2°F2.3°C 86% Calm Calm -- 29.20 in988.8 mb 0.00 in0.0 mm 0.00 in0.0 mm 0.00 in0.0 mm
02:38 AM 40.3°F4.6°C 36.4°F2.4°C 86% 0.7 mph S1.1 kmh S 1.6 mph2.6 kmh 29.20 in988.8 mb 0.00 in0.0 mm 0.00 in0.0 mm 0.00 in0.0 mm
02:39 AM 40.5°F4.7°C 36.6°F2.6°C 86% 0.7 mph S1.1 kmh S 1.6 mph2.6 kmh 29.20 in988.8 mb 0.00 in0.0 mm 0.00 in0.0 mm 0.00 in0.0 mm
02:40 AM 40.5°F4.7°C 36.6°F2.6°C 86% 0.7 mph S1.1 kmh S 1.6 mph2.6 kmh 29.20 in988.8 mb 0.00 in0.0 mm 0.00 in0.0 mm 0.00 in0.0 mm
02:41 AM 40.5°F4.7°C 36.6°F2.6°C 86% 0.7 mph SSE1.1 kmh SSE 1.6 mph2.6 kmh 29.20 in988.8 mb 0.00 in0.0 mm 0.00 in0.0 mm 0.00 in0.0 mm
02:42 AM 40.5°F4.7°C 36.6°F2.6°C 86% 0.7 mph SSE1.1 kmh SSE 1.6 mph2.6 kmh 29.20 in988.8 mb 0.00 in0.0 mm 0.00 in0.0 mm 0.00 in0.0 mm
02:43 AM 40.6°F4.8°C 36.8°F2.7°C 86% 0.7 mph SE1.1 kmh SE 1.6 mph2.6 kmh 29.20 in988.8 mb 0.00 in0.0 mm 0.00 in0.0 mm 0.00 in0.0 mm
02:44 AM 40.6°F4.8°C 36.8°F2.7°C 86% 1.6 mph SE2.6 kmh SE 2.2 mph3.5 kmh 29.20 in988.8 mb 0.00 in0.0 mm 0.00 in0.0 mm 0.00 in0.0 mm
02:45 AM 40.6°F4.8°C 36.8°F2.7°C 86% 1.6 mph SE2.6 kmh SE 2.2 mph3.5 kmh 29.20 in988.8 mb 0.00 in0.0 mm 0.00 in0.0 mm 0.00 in0.0 mm
02:46 AM 40.6°F4.8°C 36.8°F2.7°C 86% 0.7 mph SE1.1 kmh SE 2.2 mph3.5 kmh 29.20 in988.8 mb 0.00 in0.0 mm 0.00 in0.0 mm 0.00 in0.0 mm
02:47 AM 40.6°F4.8°C 36.8°F2.7°C 86% 1.6 mph SE2.6 kmh SE 2.2 mph3.5 kmh 29.20 in988.8 mb 0.00 in0.0 mm 0.00 in0.0 mm 0.00 in0.0 mm
02:48 AM 40.6°F4.8°C 37.1°F2.8°C 87% 1.6 mph SE2.6 kmh SE 2.2 mph3.5 kmh 29.20 in988.8 mb 0.00 in0.0 mm 0.00 in0.0 mm 0.00 in0.0 mm
02:49 AM 40.6°F4.8°C 37.1°F2.8°C 87% 1.6 mph SE2.6 kmh SE 2.2 mph3.5 kmh 29.20 in988.8 mb 0.00 in0.0 mm 0.00 in0.0 mm 0.00 in0.0 mm
02:50 AM 40.6°F4.8°C 37.1°F2.8°C 87% 0.7 mph SE1.1 kmh SE 2.2 mph3.5 kmh 29.19 in988.5 mb 0.00 in0.0 mm 0.00 in0.0 mm 0.00 in0.0 mm
02:51 AM 40.6°F4.8°C 37.1°F2.8°C 87% 0.7 mph SE1.1 kmh SE 2.2 mph3.5 kmh 29.20 in988.8 mb 0.00 in0.0 mm 0.00 in0.0 mm 0.00 in0.0 mm
02:52 AM 40.5°F4.7°C 36.9°F2.7°C 87% 0.7 mph SE1.1 kmh SE 2.2 mph3.5 kmh 29.20 in988.8 mb 0.00 in0.0 mm 0.00 in0.0 mm 0.00 in0.0 mm
02:53 AM 40.5°F4.7°C 36.9°F2.7°C 87% 0.7 mph SE1.1 kmh SE 2.2 mph3.5 kmh 29.19 in988.5 mb 0.00 in0.0 mm 0.00 in0.0 mm 0.00 in0.0 mm
02:54 AM 40.5°F4.7°C 36.9°F2.7°C 87% 0.7 mph SE1.1 kmh SE 2.2 mph3.5 kmh 29.19 in988.5 mb 0.00 in0.0 mm 0.00 in0.0 mm 0.00 in0.0 mm
02:55 AM 40.6°F4.8°C 37.1°F2.8°C 87% 0.7 mph SE1.1 kmh SE 2.2 mph3.5 kmh 29.19 in988.5 mb 0.00 in0.0 mm 0.00 in0.0 mm 0.00 in0.0 mm
02:56 AM 40.6°F4.8°C 37.1°F2.8°C 87% Calm Calm 2.2 mph3.5 kmh 29.19 in988.5 mb 0.00 in0.0 mm 0.00 in0.0 mm 0.00 in0.0 mm
02:57 AM 40.6°F4.8°C 37.1°F2.8°C 87% Calm Calm 2.2 mph3.5 kmh 29.19 in988.5 mb 0.00 in0.0 mm 0.00 in0.0 mm 0.00 in0.0 mm
02:58 AM 40.6°F4.8°C 37.1°F2.8°C 87% Calm Calm 2.2 mph3.5 kmh 29.19 in988.5 mb 0.00 in0.0 mm 0.00 in0.0 mm 0.00 in0.0 mm
02:59 AM 40.5°F4.7°C 36.9°F2.7°C 87% Calm Calm 2.2 mph3.5 kmh 29.19 in988.5 mb 0.00 in0.0 mm 0.00 in0.0 mm 0.00 in0.0 mm
03:00 AM 40.5°F4.7°C 36.9°F2.7°C 87% Calm Calm 1.6 mph2.6 kmh 29.19 in988.5 mb 0.00 in0.0 mm 0.00 in0.0 mm 0.00 in0.0 mm
03:01 AM 40.5°F4.7°C 36.9°F2.7°C 87% Calm Calm 1.6 mph2.6 kmh 29.19 in988.5 mb 0.00 in0.0 mm 0.00 in0.0 mm 0.00 in0.0 mm
03:02 AM 40.3°F4.6°C 36.7°F2.6°C 87% Calm Calm 1.6 mph2.6 kmh 29.19 in988.5 mb 0.00 in0.0 mm 0.00 in0.0 mm 0.00 in0.0 mm
03:03 AM 40.3°F4.6°C 36.7°F2.6°C 87% Calm Calm 1.6 mph2.6 kmh 29.19 in988.5 mb 0.00 in0.0 mm 0.00 in0.0 mm 0.00 in0.0 mm
03:04 AM 40.3°F4.6°C 36.7°F2.6°C 87% Calm Calm 1.6 mph2.6 kmh 29.19 in988.5 mb 0.00 in0.0 mm 0.00 in0.0 mm 0.00 in0.0 mm
03:05 AM 40.3°F4.6°C 36.7°F2.6°C 87% Calm Calm 1.6 mph2.6 kmh 29.19 in988.5 mb 0.00 in0.0 mm 0.00 in0.0 mm 0.00 in0.0 mm
03:06 AM 40.3°F4.6°C 36.7°F2.6°C 87% Calm Calm 0.7 mph1.1 kmh 29.19 in988.5 mb 0.00 in0.0 mm 0.00 in0.0 mm 0.00 in0.0 mm
03:07 AM 40.1°F4.5°C 36.5°F2.5°C 87% Calm Calm 0.7 mph1.1 kmh 29.18 in988.1 mb 0.00 in0.0 mm 0.00 in0.0 mm 0.00 in0.0 mm
03:08 AM 40.1°F4.5°C 36.5°F2.5°C 87% Calm Calm 0.7 mph1.1 kmh 29.19 in988.5 mb 0.00 in0.0 mm 0.00 in0.0 mm 0.00 in0.0 mm
03:09 AM 40.1°F4.5°C 36.5°F2.5°C 87% Calm Calm 0.7 mph1.1 kmh 29.19 in988.5 mb 0.00 in0.0 mm 0.00 in0.0 mm 0.00 in0.0 mm
03:10 AM 40.1°F4.5°C 36.5°F2.5°C 87% Calm Calm 0.7 mph1.1 kmh 29.18 in988.1 mb 0.00 in0.0 mm 0.00 in0.0 mm 0.00 in0.0 mm
03:11 AM 39.9°F4.4°C 36.4°F2.4°C 87% Calm Calm 0.7 mph1.1 kmh 29.19 in988.5 mb 0.00 in0.0 mm 0.00 in0.0 mm 0.00 in0.0 mm
03:12 AM 39.9°F4.4°C 36.4°F2.4°C 87% Calm Calm 0.7 mph1.1 kmh 29.19 in988.5 mb 0.00 in0.0 mm 0.00 in0.0 mm 0.00 in0.0 mm
03:13 AM 40.1°F4.5°C 36.5°F2.5°C 87% Calm Calm 0.7 mph1.1 kmh 29.18 in988.1 mb 0.00 in0.0 mm 0.00 in0.0 mm 0.00 in0.0 mm
03:14 AM 40.1°F4.5°C 36.5°F2.5°C 87% Calm Calm 0.7 mph1.1 kmh 29.18 in988.1 mb 0.00 in0.0 mm 0.00 in0.0 mm 0.00 in0.0 mm
03:15 AM 40.1°F4.5°C 36.5°F2.5°C 87% Calm Calm 0.7 mph1.1 kmh 29.18 in988.1 mb 0.00 in0.0 mm 0.00 in0.0 mm 0.00 in0.0 mm
03:16 AM 40.1°F4.5°C 36.5°F2.5°C 87% Calm Calm 0.7 mph1.1 kmh 29.18 in988.1 mb 0.00 in0.0 mm 0.00 in0.0 mm 0.00 in0.0 mm
03:17 AM 40.1°F4.5°C 36.5°F2.5°C 87% Calm Calm 0.7 mph1.1 kmh 29.18 in988.1 mb 0.00 in0.0 mm 0.00 in0.0 mm 0.00 in0.0 mm
03:18 AM 39.9°F4.4°C 36.4°F2.4°C 87% Calm Calm 0.7 mph1.1 kmh 29.18 in988.1 mb 0.00 in0.0 mm 0.00 in0.0 mm 0.00 in0.0 mm
03:19 AM 39.9°F4.4°C 36.4°F2.4°C 87% Calm Calm 0.7 mph1.1 kmh 29.18 in988.1 mb 0.00 in0.0 mm 0.00 in0.0 mm 0.00 in0.0 mm
03:20 AM 39.9°F4.4°C 36.4°F2.4°C 87% Calm Calm 0.7 mph1.1 kmh 29.18 in988.1 mb 0.00 in0.0 mm 0.00 in0.0 mm 0.00 in0.0 mm
03:21 AM 39.9°F4.4°C 36.4°F2.4°C 87% Calm Calm 0.7 mph1.1 kmh 29.18 in988.1 mb 0.00 in0.0 mm 0.00 in0.0 mm 0.00 in0.0 mm
03:22 AM 39.7°F4.3°C 36.5°F2.5°C 88% Calm Calm 0.7 mph1.1 kmh 29.18 in988.1 mb 0.00 in0.0 mm 0.00 in0.0 mm 0.00 in0.0 mm
03:23 AM 39.7°F4.3°C 36.5°F2.5°C 88% Calm Calm 0.7 mph1.1 kmh 29.18 in988.1 mb 0.00 in0.0 mm 0.00 in0.0 mm 0.00 in0.0 mm
03:24 AM 39.7°F4.3°C 36.5°F2.5°C 88% Calm Calm 0.7 mph1.1 kmh 29.18 in988.1 mb 0.00 in0.0 mm 0.00 in0.0 mm 0.00 in0.0 mm
03:25 AM 39.7°F4.3°C 36.5°F2.5°C 88% 0.7 mph S1.1 kmh S 1.6 mph2.6 kmh 29.18 in988.1 mb 0.00 in0.0 mm 0.00 in0.0 mm 0.00 in0.0 mm
03:26 AM 39.7°F4.3°C 36.5°F2.5°C 88% 0.7 mph SSE1.1 kmh SSE 1.6 mph2.6 kmh 29.18 in988.1 mb 0.00 in0.0 mm 0.00 in0.0 mm 0.00 in0.0 mm
03:27 AM 39.7°F4.3°C 36.5°F2.5°C 88% Calm Calm 1.6 mph2.6 kmh 29.18 in988.1 mb 0.00 in0.0 mm 0.00 in0.0 mm 0.00 in0.0 mm
03:28 AM 39.7°F4.3°C 36.5°F2.5°C 88% Calm Calm 1.6 mph2.6 kmh 29.18 in988.1 mb 0.00 in0.0 mm 0.00 in0.0 mm 0.00 in0.0 mm
03:29 AM 39.7°F4.3°C 36.5°F2.5°C 88% Calm Calm 1.6 mph2.6 kmh 29.18 in988.1 mb 0.00 in0.0 mm 0.00 in0.0 mm 0.00 in0.0 mm
03:30 AM 39.7°F4.3°C 36.5°F2.5°C 88% Calm Calm 1.6 mph2.6 kmh 29.18 in988.1 mb 0.00 in0.0 mm 0.00 in0.0 mm 0.00 in0.0 mm
03:31 AM 39.7°F4.3°C 36.5°F2.5°C 88% Calm Calm 1.6 mph2.6 kmh 29.18 in988.1 mb 0.00 in0.0 mm 0.00 in0.0 mm 0.00 in0.0 mm
03:32 AM 39.7°F4.3°C 36.5°F2.5°C 88% 0.7 mph SE1.1 kmh SE 1.6 mph2.6 kmh 29.18 in988.1 mb 0.00 in0.0 mm 0.00 in0.0 mm 0.00 in0.0 mm
03:33 AM 39.7°F4.3°C 36.5°F2.5°C 88% 0.7 mph SE1.1 kmh SE 1.6 mph2.6 kmh 29.18 in988.1 mb 0.00 in0.0 mm 0.00 in0.0 mm 0.00 in0.0 mm
03:34 AM 39.7°F4.3°C 36.5°F2.5°C 88% 0.7 mph SE1.1 kmh SE 1.6 mph2.6 kmh 29.18 in988.1 mb 0.00 in0.0 mm 0.00 in0.0 mm 0.00 in0.0 mm
03:35 AM 39.7°F4.3°C 36.5°F2.5°C 88% Calm Calm 1.6 mph2.6 kmh 29.18 in988.1 mb 0.00 in0.0 mm 0.00 in0.0 mm 0.00 in0.0 mm
03:36 AM 39.7°F4.3°C 36.5°F2.5°C 88% Calm Calm 1.6 mph2.6 kmh 29.18 in988.1 mb 0.00 in0.0 mm 0.00 in0.0 mm 0.00 in0.0 mm
03:37 AM 39.7°F4.3°C 36.5°F2.5°C 88% Calm Calm 1.6 mph2.6 kmh 29.18 in988.1 mb 0.00 in0.0 mm 0.00 in0.0 mm 0.00 in0.0 mm
03:38 AM 39.7°F4.3°C 36.5°F2.5°C 88% Calm Calm 1.6 mph2.6 kmh 29.18 in988.1 mb 0.00 in0.0 mm 0.00 in0.0 mm 0.00 in0.0 mm
03:39 AM 39.6°F4.2°C 36.3°F2.4°C 88% Calm Calm 1.6 mph2.6 kmh 29.18 in988.1 mb 0.00 in0.0 mm 0.00 in0.0 mm 0.00 in0.0 mm
03:40 AM 39.7°F4.3°C 36.5°F2.5°C 88% Calm Calm 1.6 mph2.6 kmh 29.18 in988.1 mb 0.00 in0.0 mm 0.00 in0.0 mm 0.00 in0.0 mm
03:41 AM 39.7°F4.3°C 36.5°F2.5°C 88% Calm Calm 1.6 mph2.6 kmh 29.18 in988.1 mb 0.00 in0.0 mm 0.00 in0.0 mm 0.00 in0.0 mm
03:42 AM 39.7°F4.3°C 36.5°F2.5°C 88% Calm Calm 1.6 mph2.6 kmh 29.18 in988.1 mb 0.00 in0.0 mm 0.00 in0.0 mm 0.00 in0.0 mm
03:43 AM 39.7°F4.3°C 36.5°F2.5°C 88% Calm Calm 1.6 mph2.6 kmh 29.18 in988.1 mb 0.00 in0.0 mm 0.00 in0.0 mm 0.00 in0.0 mm
03:44 AM 39.7°F4.3°C 36.5°F2.5°C 88% Calm Calm 1.6 mph2.6 kmh 29.18 in988.1 mb 0.00 in0.0 mm 0.00 in0.0 mm 0.00 in0.0 mm
03:45 AM 39.7°F4.3°C 36.5°F2.5°C 88% Calm Calm 0.7 mph1.1 kmh 29.18 in988.1 mb 0.00 in0.0 mm 0.00 in0.0 mm 0.00 in0.0 mm
03:46 AM 39.6°F4.2°C 36.3°F2.4°C 88% Calm Calm -- 29.18 in988.1 mb 0.00 in0.0 mm 0.00 in0.0 mm 0.00 in0.0 mm
03:47 AM 39.6°F4.2°C 36.3°F2.4°C 88% Calm Calm 0.7 mph1.1 kmh 29.18 in988.1 mb 0.00 in0.0 mm 0.00 in0.0 mm 0.00 in0.0 mm
03:48 AM 39.7°F4.3°C 36.5°F2.5°C 88% Calm Calm 0.7 mph1.1 kmh 29.18 in988.1 mb 0.00 in0.0 mm 0.00 in0.0 mm 0.00 in0.0 mm
03:49 AM 39.7°F4.3°C 36.5°F2.5°C 88% 0.7 mph WSW1.1 kmh WSW 0.7 mph1.1 kmh 29.18 in988.1 mb 0.00 in0.0 mm 0.00 in0.0 mm 0.00 in0.0 mm
03:50 AM 39.9°F4.4°C 36.7°F2.6°C 88% Calm Calm 0.7 mph1.1 kmh 29.18 in988.1 mb 0.00 in0.0 mm 0.00 in0.0 mm 0.00 in0.0 mm
03:51 AM 40.1°F4.5°C 36.8°F2.7°C 88% Calm Calm 0.7 mph1.1 kmh 29.18 in988.1 mb 0.00 in0.0 mm 0.00 in0.0 mm 0.00 in0.0 mm
03:52 AM 40.3°F4.6°C 37.3°F2.9°C 89% Calm Calm 0.7 mph1.1 kmh 29.18 in988.1 mb 0.00 in0.0 mm 0.00 in0.0 mm 0.00 in0.0 mm
03:53 AM 40.3°F4.6°C 37.3°F2.9°C 89% Calm Calm 0.7 mph1.1 kmh 29.18 in988.1 mb 0.00 in0.0 mm 0.00 in0.0 mm 0.00 in0.0 mm
03:54 AM 40.6°F4.8°C 37.7°F3.2°C 89% 0.7 mph W1.1 kmh W 1.6 mph2.6 kmh 29.18 in988.1 mb 0.00 in0.0 mm 0.00 in0.0 mm 0.00 in0.0 mm
03:55 AM 41.0°F5.0°C 38.0°F3.3°C 89% 0.7 mph W1.1 kmh W 1.6 mph2.6 kmh 29.18 in988.1 mb 0.00 in0.0 mm 0.00 in0.0 mm 0.00 in0.0 mm
03:56 AM 41.0°F5.0°C 38.0°F3.3°C 89% Calm Calm 1.6 mph2.6 kmh 29.18 in988.1 mb 0.00 in0.0 mm 0.00 in0.0 mm 0.00 in0.0 mm
03:57 AM 41.2°F5.1°C 38.5°F3.6°C 90% Calm Calm 1.6 mph2.6 kmh 29.18 in988.1 mb 0.00 in0.0 mm 0.00 in0.0 mm 0.00 in0.0 mm
03:58 AM 41.2°F5.1°C 38.5°F3.6°C 90% Calm Calm 1.6 mph2.6 kmh 29.18 in988.1 mb 0.00 in0.0 mm 0.00 in0.0 mm 0.00 in0.0 mm
03:59 AM 41.0°F5.0°C 38.3°F3.5°C 90% Calm Calm 1.6 mph2.6 kmh 29.17 in987.8 mb 0.00 in0.0 mm 0.00 in0.0 mm 0.00 in0.0 mm
04:00 AM 40.8°F4.9°C 38.1°F3.4°C 90% Calm Calm 1.6 mph2.6 kmh 29.18 in988.1 mb 0.00 in0.0 mm 0.00 in0.0 mm 0.00 in0.0 mm
04:01 AM 40.6°F4.8°C 37.9°F3.3°C 90% Calm Calm 1.6 mph2.6 kmh 29.18 in988.1 mb 0.00 in0.0 mm 0.00 in0.0 mm 0.00 in0.0 mm
04:02 AM 40.6°F4.8°C 37.9°F3.3°C 90% Calm Calm 1.6 mph2.6 kmh 29.17 in987.8 mb 0.00 in0.0 mm 0.00 in0.0 mm 0.00 in0.0 mm
04:03 AM 40.6°F4.8°C 37.9°F3.3°C 90% Calm Calm 1.6 mph2.6 kmh 29.18 in988.1 mb 0.00 in0.0 mm 0.00 in0.0 mm 0.00 in0.0 mm
04:04 AM 40.6°F4.8°C 37.9°F3.3°C 90% Calm Calm 1.6 mph2.6 kmh 29.17 in987.8 mb 0.00 in0.0 mm 0.00 in0.0 mm 0.00 in0.0 mm
04:05 AM 40.6°F4.8°C 37.9°F3.3°C 90% Calm Calm 0.7 mph1.1 kmh 29.17 in987.8 mb 0.00 in0.0 mm 0.00 in0.0 mm 0.00 in0.0 mm
04:06 AM 40.6°F4.8°C 37.9°F3.3°C 90% Calm Calm 0.7 mph1.1 kmh 29.17 in987.8 mb 0.00 in0.0 mm 0.00 in0.0 mm 0.00 in0.0 mm
04:07 AM 39.7°F4.3°C 36.8°F2.7°C 89% Calm Calm 0.7 mph1.1 kmh 29.18 in988.1 mb 0.00 in0.0 mm 0.00 in0.0 mm 0.00 in0.0 mm
04:08 AM 39.7°F4.3°C 36.8°F2.7°C 89% Calm Calm 0.7 mph1.1 kmh 29.18 in988.1 mb 0.00 in0.0 mm 0.00 in0.0 mm 0.00 in0.0 mm
04:09 AM 39.6°F4.2°C 36.6°F2.6°C 89% Calm Calm 0.7 mph1.1 kmh 29.18 in988.1 mb 0.00 in0.0 mm 0.00 in0.0 mm 0.00 in0.0 mm
04:10 AM 39.4°F4.1°C 36.4°F2.4°C 89% Calm Calm -- 29.18 in988.1 mb 0.00 in0.0 mm 0.00 in0.0 mm 0.00 in0.0 mm
04:11 AM 39.4°F4.1°C 36.4°F2.4°C 89% Calm Calm -- 29.17 in987.8 mb 0.00 in0.0 mm 0.00 in0.0 mm 0.00 in0.0 mm
04:12 AM 39.2°F4.0°C 36.2°F2.3°C 89% Calm Calm 0.7 mph1.1 kmh 29.18 in988.1 mb 0.00 in0.0 mm 0.00 in0.0 mm 0.00 in0.0 mm
04:13 AM 39.2°F4.0°C 36.2°F2.3°C 89% Calm Calm 0.7 mph1.1 kmh 29.18 in988.1 mb 0.00 in0.0 mm 0.00 in0.0 mm 0.00 in0.0 mm
04:14 AM 39.0°F3.9°C 36.1°F2.3°C 89% Calm Calm 0.7 mph1.1 kmh 29.17 in987.8 mb 0.00 in0.0 mm 0.00 in0.0 mm 0.00 in0.0 mm
04:15 AM 39.0°F3.9°C 36.1°F2.3°C 89% 0.7 mph SW1.1 kmh SW 0.7 mph1.1 kmh 29.17 in987.8 mb 0.00 in0.0 mm 0.00 in0.0 mm 0.00 in0.0 mm
04:16 AM 38.8°F3.8°C 35.9°F2.2°C 89% 0.7 mph W1.1 kmh W 0.7 mph1.1 kmh 29.17 in987.8 mb 0.00 in0.0 mm 0.00 in0.0 mm 0.00 in0.0 mm
04:17 AM 38.8°F3.8°C 35.9°F2.2°C 89% Calm Calm 0.7 mph1.1 kmh 29.17 in987.8 mb 0.00 in0.0 mm 0.00 in0.0 mm 0.00 in0.0 mm
04:18 AM 39.0°F3.9°C 36.1°F2.3°C 89% Calm Calm 0.7 mph1.1 kmh 29.17 in987.8 mb 0.00 in0.0 mm 0.00 in0.0 mm 0.00 in0.0 mm
04:19 AM 39.0°F3.9°C 36.1°F2.3°C 89% Calm Calm 0.7 mph1.1 kmh 29.17 in987.8 mb 0.00 in0.0 mm 0.00 in0.0 mm 0.00 in0.0 mm
04:20 AM 39.2°F4.0°C 36.2°F2.3°C 89% Calm Calm 0.7 mph1.1 kmh 29.17 in987.8 mb 0.00 in0.0 mm 0.00 in0.0 mm 0.00 in0.0 mm
04:21 AM 39.2°F4.0°C 36.2°F2.3°C 89% Calm Calm 0.7 mph1.1 kmh 29.17 in987.8 mb 0.00 in0.0 mm 0.00 in0.0 mm 0.00 in0.0 mm
04:22 AM 39.4°F4.1°C 36.4°F2.4°C 89% Calm Calm 0.7 mph1.1 kmh 29.17 in987.8 mb 0.00 in0.0 mm 0.00 in0.0 mm 0.00 in0.0 mm
04:23 AM 39.6°F4.2°C 36.6°F2.6°C 89% Calm Calm 0.7 mph1.1 kmh 29.17 in987.8 mb 0.00 in0.0 mm 0.00 in0.0 mm 0.00 in0.0 mm
04:24 AM 39.6°F4.2°C 36.6°F2.6°C 89% Calm Calm 0.7 mph1.1 kmh 29.17 in987.8 mb 0.00 in0.0 mm 0.00 in0.0 mm 0.00 in0.0 mm
04:25 AM 39.6°F4.2°C 36.6°F2.6°C 89% Calm Calm 0.7 mph1.1 kmh 29.17 in987.8 mb 0.00 in0.0 mm 0.00 in0.0 mm 0.00 in0.0 mm
04:26 AM 39.6°F4.2°C 36.6°F2.6°C 89% Calm Calm 0.7 mph1.1 kmh 29.17 in987.8 mb 0.00 in0.0 mm 0.00 in0.0 mm 0.00 in0.0 mm
04:27 AM 39.6°F4.2°C 36.6°F2.6°C 89% Calm Calm 0.7 mph1.1 kmh 29.16 in987.5 mb 0.00 in0.0 mm 0.00 in0.0 mm 0.00 in0.0 mm
04:28 AM 39.6°F4.2°C 36.6°F2.6°C 89% Calm Calm 0.7 mph1.1 kmh 29.17 in987.8 mb 0.00 in0.0 mm 0.00 in0.0 mm 0.00 in0.0 mm
04:29 AM 39.4°F4.1°C 36.4°F2.4°C 89% Calm Calm 0.7 mph1.1 kmh 29.16 in987.5 mb 0.00 in0.0 mm 0.00 in0.0 mm 0.00 in0.0 mm
04:30 AM 39.6°F4.2°C 36.6°F2.6°C 89% Calm Calm 0.7 mph1.1 kmh 29.17 in987.8 mb 0.00 in0.0 mm 0.00 in0.0 mm 0.00 in0.0 mm
04:31 AM 39.6°F4.2°C 36.9°F2.7°C 90% Calm Calm 0.7 mph1.1 kmh 29.17 in987.8 mb 0.00 in0.0 mm 0.00 in0.0 mm 0.00 in0.0 mm
04:32 AM 39.7°F4.3°C 37.0°F2.8°C 90% Calm Calm 0.7 mph1.1 kmh 29.17 in987.8 mb 0.00 in0.0 mm 0.00 in0.0 mm 0.00 in0.0 mm
04:33 AM 39.7°F4.3°C 37.0°F2.8°C 90% Calm Calm 0.7 mph1.1 kmh 29.16 in987.5 mb 0.00 in0.0 mm 0.00 in0.0 mm 0.00 in0.0 mm
04:34 AM 39.6°F4.2°C 36.9°F2.7°C 90% 0.7 mph NW1.1 kmh NW 1.6 mph2.6 kmh 29.17 in987.8 mb 0.00 in0.0 mm 0.00 in0.0 mm 0.00 in0.0 mm
04:35 AM 39.6°F4.2°C 36.9°F2.7°C 90% 0.7 mph NW1.1 kmh NW 1.6 mph2.6 kmh 29.16 in987.5 mb 0.00 in0.0 mm 0.00 in0.0 mm 0.00 in0.0 mm
04:36 AM 39.6°F4.2°C 36.9°F2.7°C 90% 0.7 mph NW1.1 kmh NW 1.6 mph2.6 kmh 29.16 in987.5 mb 0.00 in0.0 mm 0.00 in0.0 mm 0.00 in0.0 mm
04:37 AM 39.4°F4.1°C 36.7°F2.6°C 90% Calm Calm 1.6 mph2.6 kmh 29.16 in987.5 mb 0.00 in0.0 mm 0.00 in0.0 mm 0.00 in0.0 mm
04:38 AM 39.4°F4.1°C 36.7°F2.6°C 90% Calm Calm 1.6 mph2.6 kmh 29.16 in987.5 mb 0.00 in0.0 mm 0.00 in0.0 mm 0.00 in0.0 mm
04:39 AM 39.4°F4.1°C 36.7°F2.6°C 90% Calm Calm 1.6 mph2.6 kmh 29.16 in987.5 mb 0.00 in0.0 mm 0.00 in0.0 mm 0.00 in0.0 mm
04:40 AM 39.4°F4.1°C 36.7°F2.6°C 90% 0.7 mph NW1.1 kmh NW 1.6 mph2.6 kmh 29.17 in987.8 mb 0.00 in0.0 mm 0.00 in0.0 mm 0.00 in0.0 mm
04:41 AM 39.2°F4.0°C 36.5°F2.5°C 90% 0.7 mph NW1.1 kmh NW 1.6 mph2.6 kmh 29.16 in987.5 mb 0.00 in0.0 mm 0.00 in0.0 mm 0.00 in0.0 mm
04:42 AM 39.2°F4.0°C 36.5°F2.5°C 90% 0.7 mph NW1.1 kmh NW 1.6 mph2.6 kmh 29.16 in987.5 mb 0.00 in0.0 mm 0.00 in0.0 mm 0.00 in0.0 mm
04:43 AM 39.2°F4.0°C 36.5°F2.5°C 90% Calm Calm 1.6 mph2.6 kmh 29.16 in987.5 mb 0.00 in0.0 mm 0.00 in0.0 mm 0.00 in0.0 mm
04:44 AM 39.2°F4.0°C 36.5°F2.5°C 90% Calm Calm 1.6 mph2.6 kmh 29.16 in987.5 mb 0.00 in0.0 mm 0.00 in0.0 mm 0.00 in0.0 mm
04:45 AM 39.0°F3.9°C 36.3°F2.4°C 90% Calm Calm 1.6 mph2.6 kmh 29.16 in987.5 mb 0.00 in0.0 mm 0.00 in0.0 mm 0.00 in0.0 mm
04:46 AM 39.0°F3.9°C 36.3°F2.4°C 90% 0.7 mph W1.1 kmh W 1.6 mph2.6 kmh 29.16 in987.5 mb 0.00 in0.0 mm 0.00 in0.0 mm 0.00 in0.0 mm
04:47 AM 39.0°F3.9°C 36.3°F2.4°C 90% 0.7 mph W1.1 kmh W 1.6 mph2.6 kmh 29.16 in987.5 mb 0.00 in0.0 mm 0.00 in0.0 mm 0.00 in0.0 mm
04:48 AM 39.0°F3.9°C 36.3°F2.4°C 90% 0.7 mph W1.1 kmh W 1.6 mph2.6 kmh 29.16 in987.5 mb 0.00 in0.0 mm 0.00 in0.0 mm 0.00 in0.0 mm
04:49 AM 39.0°F3.9°C 36.3°F2.4°C 90% Calm Calm 1.6 mph2.6 kmh 29.16 in987.5 mb 0.00 in0.0 mm 0.00 in0.0 mm 0.00 in0.0 mm
04:50 AM 39.0°F3.9°C 36.3°F2.4°C 90% Calm Calm 1.6 mph2.6 kmh 29.16 in987.5 mb 0.00 in0.0 mm 0.00 in0.0 mm 0.00 in0.0 mm
04:51 AM 38.8°F3.8°C 36.2°F2.3°C 90% 0.7 mph W1.1 kmh W 1.6 mph2.6 kmh 29.16 in987.5 mb 0.00 in0.0 mm 0.00 in0.0 mm 0.00 in0.0 mm
04:52 AM 38.8°F3.8°C 36.2°F2.3°C 90% Calm Calm 1.6 mph2.6 kmh 29.16 in987.5 mb 0.00 in0.0 mm 0.00 in0.0 mm 0.00 in0.0 mm
04:53 AM 38.7°F3.7°C 36.0°F2.2°C 90% Calm Calm 1.6 mph2.6 kmh 29.16 in987.5 mb 0.00 in0.0 mm 0.00 in0.0 mm 0.00 in0.0 mm
04:54 AM 38.7°F3.7°C 36.0°F2.2°C 90% Calm Calm 1.6 mph2.6 kmh 29.16 in987.5 mb 0.00 in0.0 mm 0.00 in0.0 mm 0.00 in0.0 mm
04:55 AM 38.7°F3.7°C 36.0°F2.2°C 90% Calm Calm 1.6 mph2.6 kmh 29.16 in987.5 mb 0.00 in0.0 mm 0.00 in0.0 mm 0.00 in0.0 mm
04:56 AM 38.7°F3.7°C 36.0°F2.2°C 90% Calm Calm 1.6 mph2.6 kmh 29.16 in987.5 mb 0.00 in0.0 mm 0.00 in0.0 mm 0.00 in0.0 mm
04:57 AM 38.5°F3.6°C 35.8°F2.1°C 90% Calm Calm 1.6 mph2.6 kmh 29.16 in987.5 mb 0.00 in0.0 mm 0.00 in0.0 mm 0.00 in0.0 mm
04:58 AM 38.5°F3.6°C 35.8°F2.1°C 90% Calm Calm 1.6 mph2.6 kmh 29.16 in987.5 mb 0.00 in0.0 mm 0.00 in0.0 mm 0.00 in0.0 mm
04:59 AM 38.3°F3.5°C 35.3°F1.8°C 89% 0.7 mph WSW1.1 kmh WSW 1.6 mph2.6 kmh 29.16 in987.5 mb 0.00 in0.0 mm 0.00 in0.0 mm 0.00 in0.0 mm
05:00 AM 38.3°F3.5°C 35.3°F1.8°C 89% Calm Calm 1.6 mph2.6 kmh 29.16 in987.5 mb 0.00 in0.0 mm 0.00 in0.0 mm 0.00 in0.0 mm
05:01 AM 38.3°F3.5°C 35.3°F1.8°C 89% Calm Calm 1.6 mph2.6 kmh 29.16 in987.5 mb 0.00 in0.0 mm 0.00 in0.0 mm 0.00 in0.0 mm
05:02 AM 38.1°F3.4°C 35.2°F1.8°C 89% Calm Calm 1.6 mph2.6 kmh 29.16 in987.5 mb 0.00 in0.0 mm 0.00 in0.0 mm 0.00 in0.0 mm
05:03 AM 37.9°F3.3°C 35.0°F1.7°C 89% Calm Calm 1.6 mph2.6 kmh 29.16 in987.5 mb 0.00 in0.0 mm 0.00 in0.0 mm 0.00 in0.0 mm
05:04 AM 38.1°F3.4°C 35.2°F1.8°C 89% 0.7 mph NE1.1 kmh NE 1.6 mph2.6 kmh 29.16 in987.5 mb 0.00 in0.0 mm 0.00 in0.0 mm 0.00 in0.0 mm
05:05 AM 37.9°F3.3°C 35.0°F1.7°C 89% 0.7 mph N1.1 kmh N 1.6 mph2.6 kmh 29.16 in987.5 mb 0.00 in0.0 mm 0.00 in0.0 mm 0.00 in0.0 mm
05:06 AM 37.9°F3.3°C 35.0°F1.7°C 89% Calm Calm 1.6 mph2.6 kmh 29.16 in987.5 mb 0.00 in0.0 mm 0.00 in0.0 mm 0.00 in0.0 mm
05:07 AM 37.9°F3.3°C 35.0°F1.7°C 89% Calm Calm 1.6 mph2.6 kmh 29.16 in987.5 mb 0.00 in0.0 mm 0.00 in0.0 mm 0.00 in0.0 mm
05:08 AM 37.9°F3.3°C 35.0°F1.7°C 89% Calm Calm 1.6 mph2.6 kmh 29.16 in987.5 mb 0.00 in0.0 mm 0.00 in0.0 mm 0.00 in0.0 mm
05:09 AM 37.9°F3.3°C 35.0°F1.7°C 89% 0.7 mph NNW1.1 kmh NNW 1.6 mph2.6 kmh 29.16 in987.5 mb 0.00 in0.0 mm 0.00 in0.0 mm 0.00 in0.0 mm
05:10 AM 37.9°F3.3°C 35.0°F1.7°C 89% Calm Calm 1.6 mph2.6 kmh 29.16 in987.5 mb 0.00 in0.0 mm 0.00 in0.0 mm 0.00 in0.0 mm
05:11 AM 37.9°F3.3°C 35.0°F1.7°C 89% Calm Calm 1.6 mph2.6 kmh 29.16 in987.5 mb 0.00 in0.0 mm 0.00 in0.0 mm 0.00 in0.0 mm
05:12 AM 37.9°F3.3°C 35.0°F1.7°C 89% Calm Calm 1.6 mph2.6 kmh 29.16 in987.5 mb 0.00 in0.0 mm 0.00 in0.0 mm 0.00 in0.0 mm
05:13 AM 38.1°F3.4°C 35.2°F1.8°C 89% 0.7 mph NW1.1 kmh NW 1.6 mph2.6 kmh 29.16 in987.5 mb 0.00 in0.0 mm 0.00 in0.0 mm 0.00 in0.0 mm
05:14 AM 37.9°F3.3°C 35.0°F1.7°C 89% 0.7 mph W1.1 kmh W 1.6 mph2.6 kmh 29.16 in987.5 mb 0.00 in0.0 mm 0.00 in0.0 mm 0.00 in0.0 mm
05:15 AM 37.9°F3.3°C 35.0°F1.7°C 89% 0.7 mph WSW1.1 kmh WSW 1.6 mph2.6 kmh 29.16 in987.5 mb 0.00 in0.0 mm 0.00 in0.0 mm 0.00 in0.0 mm
05:16 AM 37.9°F3.3°C 35.0°F1.7°C 89% Calm Calm 1.6 mph2.6 kmh 29.16 in987.5 mb 0.00 in0.0 mm 0.00 in0.0 mm 0.00 in0.0 mm
05:17 AM 37.9°F3.3°C 35.0°F1.7°C 89% 0.7 mph WSW1.1 kmh WSW 1.6 mph2.6 kmh 29.16 in987.5 mb 0.00 in0.0 mm 0.00 in0.0 mm 0.00 in0.0 mm
05:18 AM 38.3°F3.5°C 35.6°F2.0°C 90% 0.7 mph WSW1.1 kmh WSW 1.6 mph2.6 kmh 29.16 in987.5 mb 0.00 in0.0 mm 0.00 in0.0 mm 0.00 in0.0 mm
05:19 AM 38.5°F3.6°C 35.8°F2.1°C 90% Calm Calm 1.6 mph2.6 kmh 29.16 in987.5 mb 0.00 in0.0 mm 0.00 in0.0 mm 0.00 in0.0 mm
05:20 AM 38.5°F3.6°C 35.8°F2.1°C 90% 0.7 mph WSW1.1 kmh WSW 1.6 mph2.6 kmh 29.16 in987.5 mb 0.00 in0.0 mm 0.00 in0.0 mm 0.00 in0.0 mm
05:21 AM 38.7°F3.7°C 36.0°F2.2°C 90% 0.7 mph WSW1.1 kmh WSW 1.6 mph2.6 kmh 29.16 in987.5 mb 0.00 in0.0 mm 0.00 in0.0 mm 0.00 in0.0 mm
05:22 AM 38.8°F3.8°C 36.2°F2.3°C 90% Calm Calm 1.6 mph2.6 kmh 29.16 in987.5 mb 0.00 in0.0 mm 0.00 in0.0 mm 0.00 in0.0 mm
05:23 AM 38.8°F3.8°C 36.2°F2.3°C 90% Calm Calm 1.6 mph2.6 kmh 29.16 in987.5 mb 0.00 in0.0 mm 0.00 in0.0 mm 0.00 in0.0 mm
05:24 AM 38.8°F3.8°C 36.2°F2.3°C 90% Calm Calm 1.6 mph2.6 kmh 29.16 in987.5 mb 0.00 in0.0 mm 0.00 in0.0 mm 0.00 in0.0 mm
05:25 AM 38.8°F3.8°C 36.2°F2.3°C 90% Calm Calm 1.6 mph2.6 kmh 29.16 in987.5 mb 0.00 in0.0 mm 0.00 in0.0 mm 0.00 in0.0 mm
05:26 AM 38.8°F3.8°C 36.2°F2.3°C 90% Calm Calm 1.6 mph2.6 kmh 29.16 in987.5 mb 0.00 in0.0 mm 0.00 in0.0 mm 0.00 in0.0 mm
05:27 AM 38.8°F3.8°C 36.2°F2.3°C 90% Calm Calm 1.6 mph2.6 kmh 29.16 in987.5 mb 0.00 in0.0 mm 0.00 in0.0 mm 0.00 in0.0 mm
05:28 AM 38.8°F3.8°C 36.2°F2.3°C 90% Calm Calm 1.6 mph2.6 kmh 29.16 in987.5 mb 0.00 in0.0 mm 0.00 in0.0 mm 0.00 in0.0 mm
05:29 AM 38.8°F3.8°C 36.2°F2.3°C 90% 0.7 mph NW1.1 kmh NW 1.6 mph2.6 kmh 29.16 in987.5 mb 0.00 in0.0 mm 0.00 in0.0 mm 0.00 in0.0 mm
05:30 AM 38.8°F3.8°C 36.2°F2.3°C 90% 0.7 mph NW1.1 kmh NW 1.6 mph2.6 kmh 29.15 in987.1 mb 0.00 in0.0 mm 0.00 in0.0 mm 0.00 in0.0 mm
05:31 AM 38.8°F3.8°C 36.2°F2.3°C 90% Calm Calm 1.6 mph2.6 kmh 29.16 in987.5 mb 0.00 in0.0 mm 0.00 in0.0 mm 0.00 in0.0 mm
05:32 AM 38.8°F3.8°C 36.2°F2.3°C 90% Calm Calm 1.6 mph2.6 kmh 29.15 in987.1 mb 0.00 in0.0 mm 0.00 in0.0 mm 0.00 in0.0 mm
05:33 AM 38.8°F3.8°C 36.2°F2.3°C 90% Calm Calm 1.6 mph2.6 kmh 29.15 in987.1 mb 0.00 in0.0 mm 0.00 in0.0 mm 0.00 in0.0 mm
05:34 AM 38.8°F3.8°C 36.2°F2.3°C 90% Calm Calm 1.6 mph2.6 kmh 29.16 in987.5 mb 0.00 in0.0 mm 0.00 in0.0 mm 0.00 in0.0 mm
05:35 AM 38.8°F3.8°C 36.2°F2.3°C 90% Calm Calm 1.6 mph2.6 kmh 29.16 in987.5 mb 0.00 in0.0 mm 0.00 in0.0 mm 0.00 in0.0 mm
05:36 AM 38.8°F3.8°C 36.2°F2.3°C 90% Calm Calm 1.6 mph2.6 kmh 29.15 in987.1 mb 0.00 in0.0 mm 0.00 in0.0 mm 0.00 in0.0 mm
05:37 AM 38.7°F3.7°C 36.0°F2.2°C 90% Calm Calm 1.6 mph2.6 kmh 29.16 in987.5 mb 0.00 in0.0 mm 0.00 in0.0 mm 0.00 in0.0 mm
05:38 AM 38.5°F3.6°C 35.8°F2.1°C 90% Calm Calm 1.6 mph2.6 kmh 29.16 in987.5 mb 0.00 in0.0 mm 0.00 in0.0 mm 0.00 in0.0 mm
05:39 AM 38.5°F3.6°C 35.8°F2.1°C 90% Calm Calm 0.7 mph1.1 kmh 29.16 in987.5 mb 0.00 in0.0 mm 0.00 in0.0 mm 0.00 in0.0 mm
05:40 AM 38.5°F3.6°C 35.8°F2.1°C 90% Calm Calm 0.7 mph1.1 kmh 29.15 in987.1 mb 0.00 in0.0 mm 0.00 in0.0 mm 0.00 in0.0 mm
05:41 AM 38.5°F3.6°C 35.8°F2.1°C 90% Calm Calm 0.7 mph1.1 kmh 29.15 in987.1 mb 0.00 in0.0 mm 0.00 in0.0 mm 0.00 in0.0 mm
05:42 AM 38.7°F3.7°C 36.0°F2.2°C 90% Calm Calm 0.7 mph1.1 kmh 29.15 in987.1 mb 0.00 in0.0 mm 0.00 in0.0 mm 0.00 in0.0 mm
05:43 AM 38.7°F3.7°C 36.0°F2.2°C 90% Calm Calm 0.7 mph1.1 kmh 29.16 in987.5 mb 0.00 in0.0 mm 0.00 in0.0 mm 0.00 in0.0 mm
05:44 AM 38.5°F3.6°C 35.8°F2.1°C 90% Calm Calm 0.7 mph1.1 kmh 29.16 in987.5 mb 0.00 in0.0 mm 0.00 in0.0 mm 0.00 in0.0 mm
05:45 AM 38.5°F3.6°C 35.8°F2.1°C 90% Calm Calm 0.7 mph1.1 kmh 29.16 in987.5 mb 0.00 in0.0 mm 0.00 in0.0 mm 0.00 in0.0 mm
05:46 AM 38.3°F3.5°C 35.6°F2.0°C 90% Calm Calm 0.7 mph1.1 kmh 29.16 in987.5 mb 0.00 in0.0 mm 0.00 in0.0 mm 0.00 in0.0 mm
05:47 AM 38.3°F3.5°C 35.6°F2.0°C 90% 0.7 mph NW1.1 kmh NW 0.7 mph1.1 kmh 29.15 in987.1 mb 0.00 in0.0 mm 0.00 in0.0 mm 0.00 in0.0 mm
05:48 AM 38.1°F3.4°C 35.4°F1.9°C 90% Calm Calm 0.7 mph1.1 kmh 29.16 in987.5 mb 0.00 in0.0 mm 0.00 in0.0 mm 0.00 in0.0 mm
05:49 AM 37.9°F3.3°C 35.3°F1.8°C 90% Calm Calm 0.7 mph1.1 kmh 29.16 in987.5 mb 0.00 in0.0 mm 0.00 in0.0 mm 0.00 in0.0 mm
05:50 AM 37.8°F3.2°C 35.1°F1.7°C 90% Calm Calm 0.7 mph1.1 kmh 29.16 in987.5 mb 0.00 in0.0 mm 0.00 in0.0 mm 0.00 in0.0 mm
05:51 AM 37.6°F3.1°C 34.9°F1.6°C 90% Calm Calm 0.7 mph1.1 kmh 29.15 in987.1 mb 0.00 in0.0 mm 0.00 in0.0 mm 0.00 in0.0 mm
05:52 AM 37.4°F3.0°C 34.7°F1.5°C 90% Calm Calm 0.7 mph1.1 kmh 29.16 in987.5 mb 0.00 in0.0 mm 0.00 in0.0 mm 0.00 in0.0 mm
05:53 AM 37.4°F3.0°C 34.7°F1.5°C 90% Calm Calm 0.7 mph1.1 kmh 29.16 in987.5 mb 0.00 in0.0 mm 0.00 in0.0 mm 0.00 in0.0 mm
05:54 AM 37.2°F2.9°C 34.3°F1.3°C 89% Calm Calm 0.7 mph1.1 kmh 29.15 in987.1 mb 0.00 in0.0 mm 0.00 in0.0 mm 0.00 in0.0 mm
05:55 AM 37.2°F2.9°C 34.3°F1.3°C 89% Calm Calm 0.7 mph1.1 kmh 29.16 in987.5 mb 0.00 in0.0 mm 0.00 in0.0 mm 0.00 in0.0 mm
05:56 AM 37.0°F2.8°C 34.1°F1.2°C 89% Calm Calm 0.7 mph1.1 kmh 29.16 in987.5 mb 0.00 in0.0 mm 0.00 in0.0 mm 0.00 in0.0 mm
05:57 AM 36.9°F2.7°C 33.9°F1.1°C 89% Calm Calm 0.7 mph1.1 kmh 29.16 in987.5 mb 0.00 in0.0 mm 0.00 in0.0 mm 0.00 in0.0 mm
05:58 AM 36.9°F2.7°C 33.9°F1.1°C 89% Calm Calm 0.7 mph1.1 kmh 29.16 in987.5 mb 0.00 in0.0 mm 0.00 in0.0 mm 0.00 in0.0 mm
05:59 AM 36.7°F2.6°C 33.7°F0.9°C 89% Calm Calm 0.7 mph1.1 kmh 29.16 in987.5 mb 0.00 in0.0 mm 0.00 in0.0 mm 0.00 in0.0 mm
06:00 AM 36.7°F2.6°C 33.7°F0.9°C 89% Calm Calm 0.7 mph1.1 kmh 29.16 in987.5 mb 0.00 in0.0 mm 0.00 in0.0 mm 0.00 in0.0 mm
06:01 AM 36.7°F2.6°C 33.7°F0.9°C 89% Calm Calm 0.7 mph1.1 kmh 29.16 in987.5 mb 0.00 in0.0 mm 0.00 in0.0 mm 0.00 in0.0 mm
06:02 AM 36.7°F2.6°C 33.7°F0.9°C 89% Calm Calm 0.7 mph1.1 kmh 29.15 in987.1 mb 0.00 in0.0 mm 0.00 in0.0 mm 0.00 in0.0 mm
06:03 AM 36.7°F2.6°C 33.7°F0.9°C 89% Calm Calm 0.7 mph1.1 kmh 29.16 in987.5 mb 0.00 in0.0 mm 0.00 in0.0 mm 0.00 in0.0 mm
06:04 AM 36.7°F2.6°C 33.7°F0.9°C 89% Calm Calm 0.7 mph1.1 kmh 29.16 in987.5 mb 0.00 in0.0 mm 0.00 in0.0 mm 0.00 in0.0 mm
06:05 AM 36.7°F2.6°C 33.7°F0.9°C 89% Calm Calm 0.7 mph1.1 kmh 29.16 in987.5 mb 0.00 in0.0 mm 0.00 in0.0 mm 0.00 in0.0 mm
06:06 AM 36.7°F2.6°C 33.7°F0.9°C 89% Calm Calm 0.7 mph1.1 kmh 29.15 in987.1 mb 0.00 in0.0 mm 0.00 in0.0 mm 0.00 in0.0 mm
06:07 AM 36.3°F2.4°C 33.4°F0.8°C 89% Calm Calm 0.7 mph1.1 kmh 29.16 in987.5 mb 0.00 in0.0 mm 0.00 in0.0 mm 0.00 in0.0 mm
06:08 AM 36.3°F2.4°C 33.4°F0.8°C 89% Calm Calm 0.7 mph1.1 kmh 29.15 in987.1 mb 0.00 in0.0 mm 0.00 in0.0 mm 0.00 in0.0 mm
06:09 AM 36.1°F2.3°C 33.2°F0.7°C 89% Calm Calm 0.7 mph1.1 kmh 29.16 in987.5 mb 0.00 in0.0 mm 0.00 in0.0 mm 0.00 in0.0 mm
06:10 AM 36.1°F2.3°C 33.2°F0.7°C 89% Calm Calm 0.7 mph1.1 kmh 29.15 in987.1 mb 0.00 in0.0 mm 0.00 in0.0 mm 0.00 in0.0 mm
06:11 AM 36.1°F2.3°C 33.2°F0.7°C 89% Calm Calm 0.7 mph1.1 kmh 29.15 in987.1 mb 0.00 in0.0 mm 0.00 in0.0 mm 0.00 in0.0 mm
06:12 AM 36.0°F2.2°C 33.0°F0.6°C 89% Calm Calm 0.7 mph1.1 kmh 29.15 in987.1 mb 0.00 in0.0 mm 0.00 in0.0 mm 0.00 in0.0 mm
06:13 AM 36.0°F2.2°C 33.0°F0.6°C 89% Calm Calm 0.7 mph1.1 kmh 29.15 in987.1 mb 0.00 in0.0 mm 0.00 in0.0 mm 0.00 in0.0 mm
06:14 AM 36.0°F2.2°C 33.0°F0.6°C 89% Calm Calm 0.7 mph1.1 kmh 29.16 in987.5 mb 0.00 in0.0 mm 0.00 in0.0 mm 0.00 in0.0 mm
06:15 AM 36.0°F2.2°C 33.0°F0.6°C 89% Calm Calm 0.7 mph1.1 kmh 29.15 in987.1 mb 0.00 in0.0 mm 0.00 in0.0 mm 0.00 in0.0 mm
06:16 AM 36.0°F2.2°C 33.0°F0.6°C 89% 0.7 mph NNE1.1 kmh NNE 1.6 mph2.6 kmh 29.16 in987.5 mb 0.00 in0.0 mm 0.00 in0.0 mm 0.00 in0.0 mm
06:17 AM 36.0°F2.2°C 33.0°F0.6°C 89% 0.7 mph E1.1 kmh E 1.6 mph2.6 kmh 29.16 in987.5 mb 0.00 in0.0 mm 0.00 in0.0 mm 0.00 in0.0 mm
06:18 AM 36.0°F2.2°C 33.0°F0.6°C 89% 0.7 mph ESE1.1 kmh ESE 1.6 mph2.6 kmh 29.16 in987.5 mb 0.00 in0.0 mm 0.00 in0.0 mm 0.00 in0.0 mm
06:19 AM 36.0°F2.2°C 33.0°F0.6°C 89% 1.6 mph SE2.6 kmh SE 2.2 mph3.5 kmh 29.16 in987.5 mb 0.00 in0.0 mm 0.00 in0.0 mm 0.00 in0.0 mm
06:20 AM 36.0°F2.2°C 33.0°F0.6°C 89% 1.6 mph SE2.6 kmh SE 3.1 mph5.0 kmh 29.16 in987.5 mb 0.00 in0.0 mm 0.00 in0.0 mm 0.00 in0.0 mm
06:21 AM 35.8°F2.1°C 32.9°F0.5°C 89% 1.6 mph SE2.6 kmh SE 3.1 mph5.0 kmh 29.16 in987.5 mb 0.00 in0.0 mm 0.00 in0.0 mm 0.00 in0.0 mm
06:22 AM 35.8°F2.1°C 32.9°F0.5°C 89% 1.6 mph SE2.6 kmh SE 3.1 mph5.0 kmh 29.16 in987.5 mb 0.00 in0.0 mm 0.00 in0.0 mm 0.00 in0.0 mm
06:23 AM 35.8°F2.1°C 32.9°F0.5°C 89% 1.6 mph SE2.6 kmh SE 3.1 mph5.0 kmh 29.16 in987.5 mb 0.00 in0.0 mm 0.00 in0.0 mm 0.00 in0.0 mm
06:24 AM 35.8°F2.1°C 32.9°F0.5°C 89% 1.6 mph SE2.6 kmh SE 3.1 mph5.0 kmh 29.16 in987.5 mb 0.00 in0.0 mm 0.00 in0.0 mm 0.00 in0.0 mm
06:25 AM 35.8°F2.1°C 32.9°F0.5°C 89% 1.6 mph SE2.6 kmh SE 3.1 mph5.0 kmh 29.15 in987.1 mb 0.00 in0.0 mm 0.00 in0.0 mm 0.00 in0.0 mm
06:26 AM 35.6°F2.0°C 32.4°F0.2°C 88% 1.6 mph SE2.6 kmh SE 3.1 mph5.0 kmh 29.16 in987.5 mb 0.00 in0.0 mm 0.00 in0.0 mm 0.00 in0.0 mm
06:27 AM 35.6°F2.0°C 32.4°F0.2°C 88% 0.7 mph SE1.1 kmh SE 3.1 mph5.0 kmh 29.16 in987.5 mb 0.00 in0.0 mm 0.00 in0.0 mm 0.00 in0.0 mm
06:28 AM 35.6°F2.0°C 32.4°F0.2°C 88% 0.7 mph SE1.1 kmh SE 3.1 mph5.0 kmh 29.16 in987.5 mb 0.00 in0.0 mm 0.00 in0.0 mm 0.00 in0.0 mm
06:29 AM 35.6°F2.0°C 32.4°F0.2°C 88% 0.7 mph SSE1.1 kmh SSE 3.1 mph5.0 kmh 29.16 in987.5 mb 0.00 in0.0 mm 0.00 in0.0 mm 0.00 in0.0 mm
06:30 AM 35.4°F1.9°C 32.2°F0.1°C 88% 1.6 mph SE2.6 kmh SE 3.1 mph5.0 kmh 29.16 in987.5 mb 0.00 in0.0 mm 0.00 in0.0 mm 0.00 in0.0 mm
06:31 AM 35.4°F1.9°C 32.2°F0.1°C 88% 1.6 mph SE2.6 kmh SE 2.2 mph3.5 kmh 29.15 in987.1 mb 0.00 in0.0 mm 0.00 in0.0 mm 0.00 in0.0 mm
06:32 AM 35.4°F1.9°C 32.2°F0.1°C 88% 1.6 mph SE2.6 kmh SE 2.2 mph3.5 kmh 29.15 in987.1 mb 0.00 in0.0 mm 0.00 in0.0 mm 0.00 in0.0 mm
06:33 AM 35.4°F1.9°C 32.2°F0.1°C 88% 1.6 mph SE2.6 kmh SE 2.2 mph3.5 kmh 29.15 in987.1 mb 0.00 in0.0 mm 0.00 in0.0 mm 0.00 in0.0 mm
06:34 AM 35.4°F1.9°C 32.2°F0.1°C 88% 2.2 mph SE3.5 kmh SE 3.1 mph5.0 kmh 29.15 in987.1 mb 0.00 in0.0 mm 0.00 in0.0 mm 0.00 in0.0 mm
06:35 AM 35.4°F1.9°C 32.2°F0.1°C 88% 2.2 mph SE3.5 kmh SE 3.1 mph5.0 kmh 29.15 in987.1 mb 0.00 in0.0 mm 0.00 in0.0 mm 0.00 in0.0 mm
06:36 AM 35.2°F1.8°C 32.0°F0.0°C 88% 1.6 mph SE2.6 kmh SE 3.1 mph5.0 kmh 29.15 in987.1 mb 0.00 in0.0 mm 0.00 in0.0 mm 0.00 in0.0 mm
06:37 AM 35.2°F1.8°C 32.0°F0.0°C 88% 1.6 mph SE2.6 kmh SE 3.1 mph5.0 kmh 29.15 in987.1 mb 0.00 in0.0 mm 0.00 in0.0 mm 0.00 in0.0 mm
06:38 AM 35.2°F1.8°C 32.0°F0.0°C 88% 0.7 mph SE1.1 kmh SE 3.1 mph5.0 kmh 29.15 in987.1 mb 0.00 in0.0 mm 0.00 in0.0 mm 0.00 in0.0 mm
06:39 AM 35.2°F1.8°C 32.0°F0.0°C 88% 0.7 mph SE1.1 kmh SE 3.1 mph5.0 kmh 29.15 in987.1 mb 0.00 in0.0 mm 0.00 in0.0 mm 0.00 in0.0 mm
06:40 AM 35.2°F1.8°C 32.3°F0.2°C 89% 0.7 mph SSE1.1 kmh SSE 3.1 mph5.0 kmh 29.16 in987.5 mb 0.00 in0.0 mm 0.00 in0.0 mm 0.00 in0.0 mm
06:41 AM 35.2°F1.8°C 32.3°F0.2°C 89% 0.7 mph SSE1.1 kmh SSE 3.1 mph5.0 kmh 29.15 in987.1 mb 0.00 in0.0 mm 0.00 in0.0 mm 0.00 in0.0 mm
06:42 AM 35.2°F1.8°C 32.3°F0.2°C 89% Calm Calm 3.1 mph5.0 kmh 29.15 in987.1 mb 0.00 in0.0 mm 0.00 in0.0 mm 0.00 in0.0 mm
06:43 AM 35.2°F1.8°C 32.3°F0.2°C 89% 0.7 mph SSE1.1 kmh SSE 3.1 mph5.0 kmh 29.15 in987.1 mb 0.00 in0.0 mm 0.00 in0.0 mm 0.00 in0.0 mm
06:44 AM 35.4°F1.9°C 32.5°F0.3°C 89% 0.7 mph SSE1.1 kmh SSE 3.1 mph5.0 kmh 29.15 in987.1 mb 0.00 in0.0 mm 0.00 in0.0 mm 0.00 in0.0 mm
06:45 AM 35.4°F1.9°C 32.5°F0.3°C 89% 1.6 mph SSE2.6 kmh SSE 3.1 mph5.0 kmh 29.15 in987.1 mb 0.00 in0.0 mm 0.00 in0.0 mm 0.00 in0.0 mm
06:46 AM 35.2°F1.8°C 32.3°F0.2°C 89% 0.7 mph SSE1.1 kmh SSE 3.1 mph5.0 kmh 29.15 in987.1 mb 0.00 in0.0 mm 0.00 in0.0 mm 0.00 in0.0 mm
06:47 AM 35.2°F1.8°C 32.3°F0.2°C 89% Calm Calm 2.2 mph3.5 kmh 29.15 in987.1 mb 0.00 in0.0 mm 0.00 in0.0 mm 0.00 in0.0 mm
06:48 AM 35.2°F1.8°C 32.3°F0.2°C 89% 0.7 mph SE1.1 kmh SE 2.2 mph3.5 kmh 29.15 in987.1 mb 0.00 in0.0 mm 0.00 in0.0 mm 0.00 in0.0 mm
06:49 AM 35.2°F1.8°C 32.3°F0.2°C 89% 1.6 mph SE2.6 kmh SE 2.2 mph3.5 kmh 29.15 in987.1 mb 0.00 in0.0 mm 0.00 in0.0 mm 0.00 in0.0 mm
06:50 AM 35.2°F1.8°C 32.3°F0.2°C 89% 2.2 mph SE3.5 kmh SE 3.1 mph5.0 kmh 29.15 in987.1 mb 0.00 in0.0 mm 0.00 in0.0 mm 0.00 in0.0 mm
06:51 AM 35.2°F1.8°C 32.3°F0.2°C 89% 1.6 mph SE2.6 kmh SE 3.1 mph5.0 kmh 29.15 in987.1 mb 0.00 in0.0 mm 0.00 in0.0 mm 0.00 in0.0 mm
06:52 AM 35.2°F1.8°C 32.3°F0.2°C 89% 1.6 mph SE2.6 kmh SE 3.1 mph5.0 kmh 29.15 in987.1 mb 0.00 in0.0 mm 0.00 in0.0 mm 0.00 in0.0 mm
06:53 AM 35.2°F1.8°C 32.3°F0.2°C 89% 1.6 mph SE2.6 kmh SE 3.1 mph5.0 kmh 29.15 in987.1 mb 0.00 in0.0 mm 0.00 in0.0 mm 0.00 in0.0 mm
06:54 AM 35.2°F1.8°C 32.3°F0.2°C 89% 0.7 mph SE1.1 kmh SE 3.1 mph5.0 kmh 29.15 in987.1 mb 0.00 in0.0 mm 0.00 in0.0 mm 0.00 in0.0 mm
06:55 AM 35.2°F1.8°C 32.3°F0.2°C 89% Calm Calm 3.1 mph5.0 kmh 29.15 in987.1 mb 0.00 in0.0 mm 0.00 in0.0 mm 0.00 in0.0 mm
06:56 AM 35.2°F1.8°C 32.3°F0.2°C 89% 0.7 mph SSE1.1 kmh SSE 3.1 mph5.0 kmh 29.15 in987.1 mb 0.00 in0.0 mm 0.00 in0.0 mm 0.00 in0.0 mm
06:57 AM 35.2°F1.8°C 32.3°F0.2°C 89% 0.7 mph SSE1.1 kmh SSE 3.1 mph5.0 kmh 29.15 in987.1 mb 0.00 in0.0 mm 0.00 in0.0 mm 0.00 in0.0 mm
06:58 AM 35.2°F1.8°C 32.3°F0.2°C 89% 0.7 mph SSE1.1 kmh SSE 3.1 mph5.0 kmh 29.15 in987.1 mb 0.00 in0.0 mm 0.00 in0.0 mm 0.00 in0.0 mm
06:59 AM 35.2°F1.8°C 32.3°F0.2°C 89% 0.7 mph SSE1.1 kmh SSE 3.1 mph5.0 kmh 29.15 in987.1 mb 0.00 in0.0 mm 0.00 in0.0 mm 0.00 in0.0 mm
07:00 AM 35.2°F1.8°C 32.3°F0.2°C 89% 0.7 mph SSE1.1 kmh SSE 3.1 mph5.0 kmh 29.15 in987.1 mb 0.00 in0.0 mm 0.00 in0.0 mm 0.00 in0.0 mm
07:01 AM 35.2°F1.8°C 32.3°F0.2°C 89% 1.6 mph SSE2.6 kmh SSE 3.1 mph5.0 kmh 29.15 in987.1 mb 0.00 in0.0 mm 0.00 in0.0 mm 0.00 in0.0 mm
07:02 AM 35.2°F1.8°C 32.3°F0.2°C 89% 0.7 mph S1.1 kmh S 2.2 mph3.5 kmh 29.15 in987.1 mb 0.00 in0.0 mm 0.00 in0.0 mm 0.00 in0.0 mm
07:03 AM 35.2°F1.8°C 32.3°F0.2°C 89% 0.7 mph S1.1 kmh S 2.2 mph3.5 kmh 29.15 in987.1 mb 0.00 in0.0 mm 0.00 in0.0 mm 0.00 in0.0 mm
07:04 AM 35.2°F1.8°C 32.3°F0.2°C 89% 1.6 mph SSE2.6 kmh SSE 2.2 mph3.5 kmh 29.15 in987.1 mb 0.00 in0.0 mm 0.00 in0.0 mm 0.00 in0.0 mm
07:05 AM 35.2°F1.8°C 32.3°F0.2°C 89% 0.7 mph SSE1.1 kmh SSE 2.2 mph3.5 kmh 29.15 in987.1 mb 0.00 in0.0 mm 0.00 in0.0 mm 0.00 in0.0 mm
07:06 AM 35.2°F1.8°C 32.3°F0.2°C 89% 1.6 mph SSE2.6 kmh SSE 3.1 mph5.0 kmh 29.15 in987.1 mb 0.00 in0.0 mm 0.00 in0.0 mm 0.00 in0.0 mm
07:07 AM 35.2°F1.8°C 32.3°F0.2°C 89% 2.2 mph SSE3.5 kmh SSE 3.8 mph6.1 kmh 29.15 in987.1 mb 0.00 in0.0 mm 0.00 in0.0 mm 0.00 in0.0 mm
07:08 AM 35.2°F1.8°C 32.3°F0.2°C 89% 2.2 mph SE3.5 kmh SE 3.8 mph6.1 kmh 29.15 in987.1 mb 0.00 in0.0 mm 0.00 in0.0 mm 0.00 in0.0 mm
07:09 AM 35.2°F1.8°C 32.3°F0.2°C 89% 2.2 mph SE3.5 kmh SE 3.8 mph6.1 kmh 29.15 in987.1 mb 0.00 in0.0 mm 0.00 in0.0 mm 0.00 in0.0 mm
07:10 AM 35.2°F1.8°C 32.3°F0.2°C 89% 1.6 mph SE2.6 kmh SE 3.8 mph6.1 kmh 29.15 in987.1 mb 0.00 in0.0 mm 0.00 in0.0 mm 0.00 in0.0 mm
07:11 AM 35.2°F1.8°C 32.3°F0.2°C 89% 2.2 mph SE3.5 kmh SE 3.8 mph6.1 kmh 29.15 in987.1 mb 0.00 in0.0 mm 0.00 in0.0 mm 0.00 in0.0 mm
07:12 AM 35.1°F1.7°C 32.1°F0.1°C 89% 2.2 mph SE3.5 kmh SE 3.8 mph6.1 kmh 29.15 in987.1 mb 0.00 in0.0 mm 0.00 in0.0 mm 0.00 in0.0 mm
07:13 AM 35.1°F1.7°C 32.1°F0.1°C 89% 2.2 mph SE3.5 kmh SE 3.8 mph6.1 kmh 29.15 in987.1 mb 0.00 in0.0 mm 0.00 in0.0 mm 0.00 in0.0 mm
07:14 AM 35.1°F1.7°C 32.1°F0.1°C 89% 2.2 mph SE3.5 kmh SE 3.8 mph6.1 kmh 29.15 in987.1 mb 0.00 in0.0 mm 0.00 in0.0 mm 0.00 in0.0 mm
07:15 AM 35.1°F1.7°C 32.1°F0.1°C 89% 3.1 mph SE5.0 kmh SE 3.8 mph6.1 kmh 29.15 in987.1 mb 0.00 in0.0 mm 0.00 in0.0 mm 0.00 in0.0 mm
07:16 AM 35.1°F1.7°C 32.1°F0.1°C 89% 0.7 mph SE1.1 kmh SE 3.8 mph6.1 kmh 29.15 in987.1 mb 0.00 in0.0 mm 0.00 in0.0 mm 0.00 in0.0 mm
07:17 AM 35.1°F1.7°C 32.1°F0.1°C 89% 0.7 mph SSE1.1 kmh SSE 3.8 mph6.1 kmh 29.15 in987.1 mb 0.00 in0.0 mm 0.00 in0.0 mm 0.00 in0.0 mm
07:18 AM 35.1°F1.7°C 32.1°F0.1°C 89% 0.7 mph SSE1.1 kmh SSE 3.8 mph6.1 kmh 29.15 in987.1 mb 0.00 in0.0 mm 0.00 in0.0 mm 0.00 in0.0 mm
07:19 AM 35.1°F1.7°C 32.1°F0.1°C 89% Calm Calm 3.8 mph6.1 kmh 29.15 in987.1 mb 0.00 in0.0 mm 0.00 in0.0 mm 0.00 in0.0 mm
07:20 AM 35.2°F1.8°C 32.3°F0.2°C 89% 0.7 mph S1.1 kmh S 3.8 mph6.1 kmh 29.15 in987.1 mb 0.00 in0.0 mm 0.00 in0.0 mm 0.00 in0.0 mm
07:21 AM 35.2°F1.8°C 32.3°F0.2°C 89% 0.7 mph S1.1 kmh S 3.8 mph6.1 kmh 29.15 in987.1 mb 0.00 in0.0 mm 0.00 in0.0 mm 0.00 in0.0 mm
07:22 AM 35.2°F1.8°C 32.3°F0.2°C 89% 0.7 mph S1.1 kmh S 3.8 mph6.1 kmh 29.15 in987.1 mb 0.00 in0.0 mm 0.00 in0.0 mm 0.00 in0.0 mm
07:23 AM 35.4°F1.9°C 32.5°F0.3°C 89% Calm Calm 3.8 mph6.1 kmh 29.15 in987.1 mb 0.00 in0.0 mm 0.00 in0.0 mm 0.00 in0.0 mm
07:24 AM 35.4°F1.9°C 32.5°F0.3°C 89% 0.7 mph S1.1 kmh S 3.8 mph6.1 kmh 29.15 in987.1 mb 0.00 in0.0 mm 0.00 in0.0 mm 0.00 in0.0 mm
07:25 AM 35.4°F1.9°C 32.5°F0.3°C 89% 0.7 mph S1.1 kmh S 3.8 mph6.1 kmh 29.15 in987.1 mb 0.00 in0.0 mm 0.00 in0.0 mm 0.00 in0.0 mm
07:26 AM 35.6°F2.0°C 32.7°F0.4°C 89% 0.7 mph SSW1.1 kmh SSW 1.6 mph2.6 kmh 29.14 in986.8 mb 0.00 in0.0 mm 0.00 in0.0 mm 0.00 in0.0 mm
07:27 AM 35.6°F2.0°C 32.7°F0.4°C 89% 0.7 mph SSW1.1 kmh SSW 1.6 mph2.6 kmh 29.15 in987.1 mb 0.00 in0.0 mm 0.00 in0.0 mm 0.00 in0.0 mm
07:28 AM 35.8°F2.1°C 32.9°F0.5°C 89% 0.7 mph SW1.1 kmh SW 1.6 mph2.6 kmh 29.15 in987.1 mb 0.00 in0.0 mm 0.00 in0.0 mm 0.00 in0.0 mm
07:29 AM 35.8°F2.1°C 32.9°F0.5°C 89% 0.7 mph SW1.1 kmh SW 1.6 mph2.6 kmh 29.14 in986.8 mb 0.00 in0.0 mm 0.00 in0.0 mm 0.00 in0.0 mm
07:30 AM 36.0°F2.2°C 33.0°F0.6°C 89% 0.7 mph SW1.1 kmh SW 1.6 mph2.6 kmh 29.14 in986.8 mb 0.00 in0.0 mm 0.00 in0.0 mm 0.00 in0.0 mm
07:31 AM 36.0°F2.2°C 33.3°F0.7°C 90% 0.7 mph SW1.1 kmh SW 1.6 mph2.6 kmh 29.14 in986.8 mb 0.00 in0.0 mm 0.00 in0.0 mm 0.00 in0.0 mm
07:32 AM 36.1°F2.3°C 33.5°F0.8°C 90% Calm Calm 1.6 mph2.6 kmh 29.14 in986.8 mb 0.00 in0.0 mm 0.00 in0.0 mm 0.00 in0.0 mm
07:33 AM 36.1°F2.3°C 33.5°F0.8°C 90% Calm Calm 1.6 mph2.6 kmh 29.14 in986.8 mb 0.00 in0.0 mm 0.00 in0.0 mm 0.00 in0.0 mm
07:34 AM 36.1°F2.3°C 33.5°F0.8°C 90% Calm Calm 1.6 mph2.6 kmh 29.15 in987.1 mb 0.00 in0.0 mm 0.00 in0.0 mm 0.00 in0.0 mm
07:35 AM 36.1°F2.3°C 33.5°F0.8°C 90% Calm Calm 1.6 mph2.6 kmh 29.15 in987.1 mb 0.00 in0.0 mm 0.00 in0.0 mm 0.00 in0.0 mm
07:36 AM 36.1°F2.3°C 33.5°F0.8°C 90% Calm Calm 1.6 mph2.6 kmh 29.14 in986.8 mb 0.00 in0.0 mm 0.00 in0.0 mm 0.00 in0.0 mm
07:37 AM 36.1°F2.3°C 33.5°F0.8°C 90% Calm Calm 1.6 mph2.6 kmh 29.14 in986.8 mb 0.00 in0.0 mm 0.00 in0.0 mm 0.00 in0.0 mm
07:38 AM 36.1°F2.3°C 33.5°F0.8°C 90% 0.7 mph SW1.1 kmh SW 1.6 mph2.6 kmh 29.14 in986.8 mb 0.00 in0.0 mm 0.00 in0.0 mm 0.00 in0.0 mm
07:39 AM 36.1°F2.3°C 33.5°F0.8°C 90% 0.7 mph SW1.1 kmh SW 1.6 mph2.6 kmh 29.14 in986.8 mb 0.00 in0.0 mm 0.00 in0.0 mm 0.00 in0.0 mm
07:40 AM 36.1°F2.3°C 33.5°F0.8°C 90% 1.6 mph SW2.6 kmh SW 2.2 mph3.5 kmh 29.14 in986.8 mb 0.00 in0.0 mm 0.00 in0.0 mm 0.00 in0.0 mm
07:41 AM 36.3°F2.4°C 33.7°F0.9°C 90% 3.1 mph SW5.0 kmh SW 3.8 mph6.1 kmh 29.14 in986.8 mb 0.00 in0.0 mm 0.00 in0.0 mm 0.00 in0.0 mm
07:42 AM 36.3°F2.4°C 33.7°F0.9°C 90% 1.6 mph SW2.6 kmh SW 3.8 mph6.1 kmh 29.14 in986.8 mb 0.00 in0.0 mm 0.00 in0.0 mm 0.00 in0.0 mm
07:43 AM 36.5°F2.5°C 33.8°F1.0°C 90% 0.7 mph SW1.1 kmh SW 3.8 mph6.1 kmh 29.14 in986.8 mb 0.00 in0.0 mm 0.00 in0.0 mm 0.00 in0.0 mm
07:44 AM 36.5°F2.5°C 33.8°F1.0°C 90% 1.6 mph SW2.6 kmh SW 3.8 mph6.1 kmh 29.14 in986.8 mb 0.00 in0.0 mm 0.00 in0.0 mm 0.00 in0.0 mm
07:45 AM 36.7°F2.6°C 34.0°F1.1°C 90% 1.6 mph SW2.6 kmh SW 3.8 mph6.1 kmh 29.14 in986.8 mb 0.00 in0.0 mm 0.00 in0.0 mm 0.00 in0.0 mm
07:46 AM 36.7°F2.6°C 34.0°F1.1°C 90% 0.7 mph SW1.1 kmh SW 3.8 mph6.1 kmh 29.14 in986.8 mb 0.00 in0.0 mm 0.00 in0.0 mm 0.00 in0.0 mm
07:47 AM 36.7°F2.6°C 34.0°F1.1°C 90% 0.7 mph SW1.1 kmh SW 3.8 mph6.1 kmh 29.14 in986.8 mb 0.00 in0.0 mm 0.00 in0.0 mm 0.00 in0.0 mm
07:48 AM 36.7°F2.6°C 34.0°F1.1°C 90% Calm Calm 3.8 mph6.1 kmh 29.14 in986.8 mb 0.00 in0.0 mm 0.00 in0.0 mm 0.00 in0.0 mm
07:49 AM 37.0°F2.8°C 34.4°F1.3°C 90% Calm Calm 3.8 mph6.1 kmh 29.14 in986.8 mb 0.00 in0.0 mm 0.00 in0.0 mm 0.00 in0.0 mm
07:50 AM 37.0°F2.8°C 34.4°F1.3°C 90% Calm Calm 3.8 mph6.1 kmh 29.14 in986.8 mb 0.00 in0.0 mm 0.00 in0.0 mm 0.00 in0.0 mm
07:51 AM 37.0°F2.8°C 34.4°F1.3°C 90% Calm Calm 3.8 mph6.1 kmh 29.14 in986.8 mb 0.00 in0.0 mm 0.00 in0.0 mm 0.00 in0.0 mm
07:52 AM 37.0°F2.8°C 34.4°F1.3°C 90% Calm Calm 3.1 mph5.0 kmh 29.14 in986.8 mb 0.00 in0.0 mm 0.00 in0.0 mm 0.00 in0.0 mm
07:53 AM 37.0°F2.8°C 34.4°F1.3°C 90% 0.7 mph SSW1.1 kmh SSW 2.2 mph3.5 kmh 29.14 in986.8 mb 0.00 in0.0 mm 0.00 in0.0 mm 0.00 in0.0 mm
07:54 AM 36.9°F2.7°C 34.2°F1.2°C 90% 0.7 mph SSW1.1 kmh SSW 2.2 mph3.5 kmh 29.14 in986.8 mb 0.00 in0.0 mm 0.00 in0.0 mm 0.00 in0.0 mm
07:55 AM 36.9°F2.7°C 34.2°F1.2°C 90% Calm Calm 2.2 mph3.5 kmh 29.14 in986.8 mb 0.00 in0.0 mm 0.00 in0.0 mm 0.00 in0.0 mm
07:56 AM 37.0°F2.8°C 34.4°F1.3°C 90% 0.7 mph WSW1.1 kmh WSW 1.6 mph2.6 kmh 29.14 in986.8 mb 0.00 in0.0 mm 0.00 in0.0 mm 0.00 in0.0 mm
07:57 AM 37.2°F2.9°C 34.6°F1.4°C 90% Calm Calm 1.6 mph2.6 kmh 29.14 in986.8 mb 0.00 in0.0 mm 0.00 in0.0 mm 0.00 in0.0 mm
07:58 AM 37.2°F2.9°C 34.6°F1.4°C 90% 0.7 mph WSW1.1 kmh WSW 1.6 mph2.6 kmh 29.14 in986.8 mb 0.00 in0.0 mm 0.00 in0.0 mm 0.00 in0.0 mm
07:59 AM 37.2°F2.9°C 34.6°F1.4°C 90% 1.6 mph WSW2.6 kmh WSW 2.2 mph3.5 kmh 29.14 in986.8 mb 0.00 in0.0 mm 0.00 in0.0 mm 0.00 in0.0 mm
08:00 AM 37.4°F3.0°C 34.7°F1.5°C 90% 1.6 mph WSW2.6 kmh WSW 2.2 mph3.5 kmh 29.14 in986.8 mb 0.00 in0.0 mm 0.00 in0.0 mm 0.00 in0.0 mm
08:01 AM 37.4°F3.0°C 34.7°F1.5°C 90% 1.6 mph W2.6 kmh W 2.2 mph3.5 kmh 29.14 in986.8 mb 0.00 in0.0 mm 0.00 in0.0 mm 0.00 in0.0 mm
08:02 AM 37.4°F3.0°C 34.7°F1.5°C 90% 1.6 mph W2.6 kmh W 2.2 mph3.5 kmh 29.14 in986.8 mb 0.00 in0.0 mm 0.00 in0.0 mm 0.00 in0.0 mm
08:03 AM 37.4°F3.0°C 34.7°F1.5°C 90% 1.6 mph WNW2.6 kmh WNW 2.2 mph3.5 kmh 29.14 in986.8 mb 0.00 in0.0 mm 0.00 in0.0 mm 0.00 in0.0 mm
08:04 AM 37.4°F3.0°C 34.7°F1.5°C 90% 1.6 mph WNW2.6 kmh WNW 2.2 mph3.5 kmh 29.14 in986.8 mb 0.00 in0.0 mm 0.00 in0.0 mm 0.00 in0.0 mm
08:05 AM 37.4°F3.0°C 34.7°F1.5°C 90% 1.6 mph WNW2.6 kmh WNW 2.2 mph3.5 kmh 29.14 in986.8 mb 0.00 in0.0 mm 0.00 in0.0 mm 0.00 in0.0 mm
08:06 AM 37.4°F3.0°C 34.7°F1.5°C 90% 1.6 mph WNW2.6 kmh WNW 2.2 mph3.5 kmh 29.14 in986.8 mb 0.00 in0.0 mm 0.00 in0.0 mm 0.00 in0.0 mm
08:07 AM 37.8°F3.2°C 35.1°F1.7°C 90% 0.7 mph NW1.1 kmh NW 2.2 mph3.5 kmh 29.14 in986.8 mb 0.00 in0.0 mm 0.00 in0.0 mm 0.00 in0.0 mm
08:08 AM 37.8°F3.2°C 35.1°F1.7°C 90% 0.7 mph NW1.1 kmh NW 2.2 mph3.5 kmh 29.14 in986.8 mb 0.00 in0.0 mm 0.00 in0.0 mm 0.00 in0.0 mm
08:09 AM 38.1°F3.4°C 35.4°F1.9°C 90% Calm Calm 2.2 mph3.5 kmh 29.13 in986.5 mb 0.00 in0.0 mm 0.00 in0.0 mm 0.00 in0.0 mm
08:10 AM 38.1°F3.4°C 35.4°F1.9°C 90% Calm Calm 2.2 mph3.5 kmh 29.14 in986.8 mb 0.00 in0.0 mm 0.00 in0.0 mm 0.00 in0.0 mm
08:11 AM 38.1°F3.4°C 35.4°F1.9°C 90% 0.7 mph NW1.1 kmh NW 2.2 mph3.5 kmh 29.14 in986.8 mb 0.00 in0.0 mm 0.00 in0.0 mm 0.00 in0.0 mm
08:12 AM 38.3°F3.5°C 35.6°F2.0°C 90% 0.7 mph NW1.1 kmh NW 2.2 mph3.5 kmh 29.14 in986.8 mb 0.00 in0.0 mm 0.00 in0.0 mm 0.00 in0.0 mm
08:13 AM 38.3°F3.5°C 35.6°F2.0°C 90% Calm Calm 2.2 mph3.5 kmh 29.14 in986.8 mb 0.00 in0.0 mm 0.00 in0.0 mm 0.00 in0.0 mm
08:14 AM 38.1°F3.4°C 35.4°F1.9°C 90% 0.7 mph WNW1.1 kmh WNW 2.2 mph3.5 kmh 29.14 in986.8 mb 0.00 in0.0 mm 0.00 in0.0 mm 0.00 in0.0 mm
08:15 AM 38.1°F3.4°C 35.4°F1.9°C 90% Calm Calm 2.2 mph3.5 kmh 29.14 in986.8 mb 0.00 in0.0 mm 0.00 in0.0 mm 0.00 in0.0 mm
08:16 AM 38.1°F3.4°C 35.4°F1.9°C 90% Calm Calm 2.2 mph3.5 kmh 29.14 in986.8 mb 0.00 in0.0 mm 0.00 in0.0 mm 0.00 in0.0 mm
08:17 AM 38.1°F3.4°C 35.4°F1.9°C 90% 0.7 mph WSW1.1 kmh WSW 1.6 mph2.6 kmh 29.14 in986.8 mb 0.00 in0.0 mm 0.00 in0.0 mm 0.00 in0.0 mm
08:18 AM 38.1°F3.4°C 35.4°F1.9°C 90% 0.7 mph WSW1.1 kmh WSW 1.6 mph2.6 kmh 29.14 in986.8 mb 0.00 in0.0 mm 0.00 in0.0 mm 0.00 in0.0 mm
08:19 AM 38.3°F3.5°C 35.6°F2.0°C 90% Calm Calm 1.6 mph2.6 kmh 29.14 in986.8 mb 0.00 in0.0 mm 0.00 in0.0 mm 0.00 in0.0 mm
08:20 AM 38.3°F3.5°C 35.6°F2.0°C 90% Calm Calm 1.6 mph2.6 kmh 29.14 in986.8 mb 0.00 in0.0 mm 0.00 in0.0 mm 0.00 in0.0 mm
08:21 AM 38.5°F3.6°C 35.8°F2.1°C 90% Calm Calm 1.6 mph2.6 kmh 29.13 in986.5 mb 0.00 in0.0 mm 0.00 in0.0 mm 0.00 in0.0 mm
08:22 AM 38.8°F3.8°C 36.4°F2.4°C 91% 0.7 mph WSW1.1 kmh WSW 1.6 mph2.6 kmh 29.13 in986.5 mb 0.00 in0.0 mm 0.00 in0.0 mm 0.00 in0.0 mm
08:23 AM 39.2°F4.0°C 36.8°F2.7°C 91% 0.7 mph WSW1.1 kmh WSW 1.6 mph2.6 kmh 29.14 in986.8 mb 0.00 in0.0 mm 0.00 in0.0 mm 0.00 in0.0 mm
08:24 AM 39.4°F4.1°C 37.0°F2.8°C 91% 0.7 mph WSW1.1 kmh WSW 1.6 mph2.6 kmh 29.13 in986.5 mb 0.00 in0.0 mm 0.00 in0.0 mm 0.00 in0.0 mm
08:25 AM 39.7°F4.3°C 37.3°F2.9°C 91% 0.7 mph WSW1.1 kmh WSW 1.6 mph2.6 kmh 29.14 in986.8 mb 0.00 in0.0 mm 0.00 in0.0 mm 0.00 in0.0 mm
08:26 AM 40.1°F4.5°C 37.7°F3.2°C 91% 0.7 mph WSW1.1 kmh WSW 2.2 mph3.5 kmh 29.14 in986.8 mb 0.00 in0.0 mm 0.00 in0.0 mm 0.00 in0.0 mm
08:27 AM 40.3°F4.6°C 37.9°F3.3°C 91% 0.7 mph W1.1 kmh W 2.2 mph3.5 kmh 29.13 in986.5 mb 0.00 in0.0 mm 0.00 in0.0 mm 0.00 in0.0 mm
08:28 AM 40.5°F4.7°C 38.0°F3.3°C 91% 1.6 mph W2.6 kmh W 2.2 mph3.5 kmh 29.14 in986.8 mb 0.00 in0.0 mm 0.00 in0.0 mm 0.00 in0.0 mm
08:29 AM 40.6°F4.8°C 38.2°F3.4°C 91% 1.6 mph W2.6 kmh W 2.2 mph3.5 kmh 29.14 in986.8 mb 0.00 in0.0 mm 0.00 in0.0 mm 0.00 in0.0 mm
08:30 AM 40.8°F4.9°C 38.4°F3.6°C 91% 0.7 mph W1.1 kmh W 2.2 mph3.5 kmh 29.13 in986.5 mb 0.00 in0.0 mm 0.00 in0.0 mm 0.00 in0.0 mm
08:31 AM 40.8°F4.9°C 38.4°F3.6°C 91% 1.6 mph W2.6 kmh W 2.2 mph3.5 kmh 29.13 in986.5 mb 0.00 in0.0 mm 0.00 in0.0 mm 0.00 in0.0 mm
08:32 AM 40.8°F4.9°C 38.4°F3.6°C 91% 1.6 mph W2.6 kmh W 2.2 mph3.5 kmh 29.14 in986.8 mb 0.00 in0.0 mm 0.00 in0.0 mm 0.00 in0.0 mm
08:33 AM 40.8°F4.9°C 38.4°F3.6°C 91% 0.7 mph W1.1 kmh W 2.2 mph3.5 kmh 29.14 in986.8 mb 0.00 in0.0 mm 0.00 in0.0 mm 0.00 in0.0 mm
08:34 AM 41.2°F5.1°C 38.8°F3.8°C 91% 1.6 mph W2.6 kmh W 2.2 mph3.5 kmh 29.14 in986.8 mb 0.00 in0.0 mm 0.00 in0.0 mm 0.00 in0.0 mm
08:35 AM 41.2°F5.1°C 39.0°F3.9°C 92% 0.7 mph W1.1 kmh W 2.2 mph3.5 kmh 29.14 in986.8 mb 0.00 in0.0 mm 0.00 in0.0 mm 0.00 in0.0 mm
08:36 AM 41.4°F5.2°C 39.2°F4.0°C 92% 0.7 mph W1.1 kmh W 2.2 mph3.5 kmh 29.14 in986.8 mb 0.00 in0.0 mm 0.00 in0.0 mm 0.00 in0.0 mm
08:37 AM 41.4°F5.2°C 39.2°F4.0°C 92% 0.7 mph W1.1 kmh W 2.2 mph3.5 kmh 29.14 in986.8 mb 0.00 in0.0 mm 0.00 in0.0 mm 0.00 in0.0 mm
08:38 AM 41.4°F5.2°C 39.2°F4.0°C 92% 0.7 mph W1.1 kmh W 2.2 mph3.5 kmh 29.14 in986.8 mb 0.00 in0.0 mm 0.00 in0.0 mm 0.00 in0.0 mm
08:39 AM 41.4°F5.2°C 39.2°F4.0°C 92% 0.7 mph W1.1 kmh W 2.2 mph3.5 kmh 29.14 in986.8 mb 0.00 in0.0 mm 0.00 in0.0 mm 0.00 in0.0 mm
08:40 AM 41.4°F5.2°C 39.2°F4.0°C 92% 0.7 mph W1.1 kmh W 2.2 mph3.5 kmh 29.14 in986.8 mb 0.01 in0.3 mm 0.60 in15.2 mm 0.01 in0.3 mm
08:41 AM 41.2°F5.1°C 39.0°F3.9°C 92% 0.7 mph WSW1.1 kmh WSW 2.2 mph3.5 kmh 29.14 in986.8 mb 0.01 in0.3 mm 0.00 in0.0 mm 0.01 in0.3 mm
08:42 AM 40.8°F4.9°C 38.7°F3.7°C 92% 0.7 mph WSW1.1 kmh WSW 2.2 mph3.5 kmh 29.14 in986.8 mb 0.01 in0.3 mm 0.00 in0.0 mm 0.01 in0.3 mm
08:43 AM 40.6°F4.8°C 38.5°F3.6°C 92% 0.7 mph WSW1.1 kmh WSW 2.2 mph3.5 kmh 29.14 in986.8 mb 0.01 in0.3 mm 0.00 in0.0 mm 0.01 in0.3 mm
08:44 AM 40.6°F4.8°C 38.2°F3.4°C 91% 0.7 mph WSW1.1 kmh WSW 2.2 mph3.5 kmh 29.14 in986.8 mb 0.01 in0.3 mm 0.00 in0.0 mm 0.01 in0.3 mm
08:45 AM 40.5°F4.7°C 38.0°F3.3°C 91% 0.7 mph WSW1.1 kmh WSW 1.6 mph2.6 kmh 29.13 in986.5 mb 0.01 in0.3 mm 0.00 in0.0 mm 0.01 in0.3 mm
08:46 AM 40.3°F4.6°C 37.9°F3.3°C 91% 1.6 mph SW2.6 kmh SW 2.2 mph3.5 kmh 29.14 in986.8 mb 0.01 in0.3 mm 0.00 in0.0 mm 0.01 in0.3 mm
08:47 AM 40.1°F4.5°C 37.7°F3.2°C 91% 1.6 mph SW2.6 kmh SW 2.2 mph3.5 kmh 29.13 in986.5 mb 0.01 in0.3 mm 0.00 in0.0 mm 0.01 in0.3 mm
08:48 AM 40.1°F4.5°C 37.7°F3.2°C 91% 0.7 mph SW1.1 kmh SW 2.2 mph3.5 kmh 29.13 in986.5 mb 0.01 in0.3 mm 0.00 in0.0 mm 0.01 in0.3 mm
08:49 AM 40.1°F4.5°C 37.7°F3.2°C 91% 0.7 mph SW1.1 kmh SW 2.2 mph3.5 kmh 29.13 in986.5 mb 0.01 in0.3 mm 0.00 in0.0 mm 0.01 in0.3 mm
08:50 AM 40.1°F4.5°C 37.7°F3.2°C 91% Calm Calm 2.2 mph3.5 kmh 29.13 in986.5 mb 0.01 in0.3 mm 0.00 in0.0 mm 0.01 in0.3 mm
08:51 AM 40.1°F4.5°C 37.7°F3.2°C 91% Calm Calm 2.2 mph3.5 kmh 29.13 in986.5 mb 0.01 in0.3 mm 0.00 in0.0 mm 0.01 in0.3 mm
08:52 AM 40.1°F4.5°C 37.7°F3.2°C 91% Calm Calm 2.2 mph3.5 kmh 29.14 in986.8 mb 0.01 in0.3 mm 0.00 in0.0 mm 0.01 in0.3 mm
08:53 AM 40.3°F4.6°C 37.9°F3.3°C 91% 0.7 mph SW1.1 kmh SW 2.2 mph3.5 kmh 29.14 in986.8 mb 0.01 in0.3 mm 0.00 in0.0 mm 0.01 in0.3 mm
08:54 AM 40.8°F4.9°C 38.7°F3.7°C 92% 0.7 mph WSW1.1 kmh WSW 2.2 mph3.5 kmh 29.13 in986.5 mb 0.01 in0.3 mm 0.00 in0.0 mm 0.01 in0.3 mm
08:55 AM 41.0°F5.0°C 38.9°F3.8°C 92% 1.6 mph WSW2.6 kmh WSW 2.2 mph3.5 kmh 29.13 in986.5 mb 0.01 in0.3 mm 0.00 in0.0 mm 0.01 in0.3 mm
08:56 AM 41.2°F5.1°C 39.0°F3.9°C 92% 1.6 mph WSW2.6 kmh WSW 2.2 mph3.5 kmh 29.13 in986.5 mb 0.01 in0.3 mm 0.00 in0.0 mm 0.01 in0.3 mm
08:57 AM 41.4°F5.2°C 39.2°F4.0°C 92% 0.7 mph W1.1 kmh W 2.2 mph3.5 kmh 29.13 in986.5 mb 0.01 in0.3 mm 0.00 in0.0 mm 0.01 in0.3 mm
08:58 AM 41.7°F5.4°C 39.6°F4.2°C 92% 0.7 mph W1.1 kmh W 2.2 mph3.5 kmh 29.13 in986.5 mb 0.01 in0.3 mm 0.00 in0.0 mm 0.01 in0.3 mm
08:59 AM 41.9°F5.5°C 39.7°F4.3°C 92% 0.7 mph W1.1 kmh W 2.2 mph3.5 kmh 29.13 in986.5 mb 0.01 in0.3 mm 0.00 in0.0 mm 0.01 in0.3 mm
09:00 AM 41.9°F5.5°C 39.7°F4.3°C 92% 1.6 mph W2.6 kmh W 3.1 mph5.0 kmh 29.13 in986.5 mb 0.01 in0.3 mm 0.00 in0.0 mm 0.01 in0.3 mm
09:01 AM 42.1°F5.6°C 39.9°F4.4°C 92% 0.7 mph W1.1 kmh W 3.1 mph5.0 kmh 29.13 in986.5 mb 0.01 in0.3 mm 0.00 in0.0 mm 0.01 in0.3 mm
09:02 AM 42.3°F5.7°C 40.1°F4.5°C 92% 1.6 mph W2.6 kmh W 3.1 mph5.0 kmh 29.13 in986.5 mb 0.01 in0.3 mm 0.00 in0.0 mm 0.01 in0.3 mm
09:03 AM 42.3°F5.7°C 40.1°F4.5°C 92% 0.7 mph W1.1 kmh W 3.1 mph5.0 kmh 29.13 in986.5 mb 0.01 in0.3 mm 0.00 in0.0 mm 0.01 in0.3 mm
09:04 AM 42.3°F5.7°C 40.1°F4.5°C 92% 1.6 mph W2.6 kmh W 3.1 mph5.0 kmh 29.13 in986.5 mb 0.01 in0.3 mm 0.00 in0.0 mm 0.01 in0.3 mm
09:05 AM 42.3°F5.7°C 40.1°F4.5°C 92% Calm Calm 3.1 mph5.0 kmh 29.13 in986.5 mb 0.01 in0.3 mm 0.00 in0.0 mm 0.01 in0.3 mm
09:06 AM 42.3°F5.7°C 40.1°F4.5°C 92% 0.7 mph W1.1 kmh W 3.1 mph5.0 kmh 29.13 in986.5 mb 0.01 in0.3 mm 0.00 in0.0 mm 0.01 in0.3 mm
09:07 AM 42.3°F5.7°C 40.1°F4.5°C 92% 1.6 mph W2.6 kmh W 3.1 mph5.0 kmh 29.13 in986.5 mb 0.01 in0.3 mm 0.00 in0.0 mm 0.01 in0.3 mm
09:08 AM 42.3°F5.7°C 40.1°F4.5°C 92% 1.6 mph W2.6 kmh W 3.1 mph5.0 kmh 29.13 in986.5 mb 0.01 in0.3 mm 0.00 in0.0 mm 0.01 in0.3 mm
09:09 AM 42.4°F5.8°C 40.3°F4.6°C 92% 1.6 mph W2.6 kmh W 3.1 mph5.0 kmh 29.13 in986.5 mb 0.01 in0.3 mm 0.00 in0.0 mm 0.01 in0.3 mm
09:10 AM 42.4°F5.8°C 40.3°F4.6°C 92% 1.6 mph W2.6 kmh W 3.1 mph5.0 kmh 29.13 in986.5 mb 0.01 in0.3 mm 0.00 in0.0 mm 0.01 in0.3 mm
09:11 AM 42.4°F5.8°C 40.3°F4.6°C 92% 1.6 mph W2.6 kmh W 2.2 mph3.5 kmh 29.13 in986.5 mb 0.01 in0.3 mm 0.00 in0.0 mm 0.01 in0.3 mm
09:12 AM 42.4°F5.8°C 40.3°F4.6°C 92% 2.2 mph W3.5 kmh W 3.1 mph5.0 kmh 29.13 in986.5 mb 0.01 in0.3 mm 0.00 in0.0 mm 0.01 in0.3 mm
09:13 AM 42.4°F5.8°C 40.3°F4.6°C 92% 2.2 mph WNW3.5 kmh WNW 3.1 mph5.0 kmh 29.13 in986.5 mb 0.01 in0.3 mm 0.00 in0.0 mm 0.01 in0.3 mm
09:14 AM 42.4°F5.8°C 40.3°F4.6°C 92% 1.6 mph WNW2.6 kmh WNW 3.1 mph5.0 kmh 29.13 in986.5 mb 0.01 in0.3 mm 0.00 in0.0 mm 0.01 in0.3 mm
09:15 AM 42.4°F5.8°C 40.3°F4.6°C 92% 1.6 mph WNW2.6 kmh WNW 3.1 mph5.0 kmh 29.13 in986.5 mb 0.01 in0.3 mm 0.00 in0.0 mm 0.01 in0.3 mm
09:16 AM 42.4°F5.8°C 40.3°F4.6°C 92% 1.6 mph W2.6 kmh W 3.1 mph5.0 kmh 29.13 in986.5 mb 0.01 in0.3 mm 0.00 in0.0 mm 0.01 in0.3 mm
09:17 AM 42.6°F5.9°C 40.5°F4.7°C 92% 0.7 mph W1.1 kmh W 3.1 mph5.0 kmh 29.13 in986.5 mb 0.01 in0.3 mm 0.00 in0.0 mm 0.01 in0.3 mm
09:18 AM 42.8°F6.0°C 40.6°F4.8°C 92% 1.6 mph W2.6 kmh W 3.1 mph5.0 kmh 29.13 in986.5 mb 0.01 in0.3 mm 0.00 in0.0 mm 0.01 in0.3 mm
09:19 AM 42.8°F6.0°C 40.6°F4.8°C 92% Calm Calm 3.1 mph5.0 kmh 29.13 in986.5 mb 0.01 in0.3 mm 0.00 in0.0 mm 0.01 in0.3 mm
09:20 AM 42.8°F6.0°C 40.6°F4.8°C 92% Calm Calm 3.1 mph5.0 kmh 29.13 in986.5 mb 0.01 in0.3 mm 0.00 in0.0 mm 0.01 in0.3 mm
09:21 AM 42.8°F6.0°C 40.6°F4.8°C 92% 0.7 mph W1.1 kmh W 3.1 mph5.0 kmh 29.13 in986.5 mb 0.01 in0.3 mm 0.00 in0.0 mm 0.01 in0.3 mm
09:22 AM 42.6°F5.9°C 40.5°F4.7°C 92% 0.7 mph W1.1 kmh W 3.1 mph5.0 kmh 29.13 in986.5 mb 0.01 in0.3 mm 0.00 in0.0 mm 0.01 in0.3 mm
09:23 AM 42.6°F5.9°C 40.5°F4.7°C 92% 0.7 mph W1.1 kmh W 3.1 mph5.0 kmh 29.13 in986.5 mb 0.01 in0.3 mm 0.00 in0.0 mm 0.01 in0.3 mm
09:24 AM 42.4°F5.8°C 40.3°F4.6°C 92% 0.7 mph WSW1.1 kmh WSW 3.1 mph5.0 kmh 29.13 in986.5 mb 0.01 in0.3 mm 0.00 in0.0 mm 0.01 in0.3 mm
09:25 AM 42.4°F5.8°C 40.3°F4.6°C 92% 0.7 mph WSW1.1 kmh WSW 2.2 mph3.5 kmh 29.13 in986.5 mb 0.01 in0.3 mm 0.00 in0.0 mm 0.01 in0.3 mm
09:26 AM 42.1°F5.6°C 39.9°F4.4°C 92% 1.6 mph SW2.6 kmh SW 2.2 mph3.5 kmh 29.13 in986.5 mb 0.01 in0.3 mm 0.00 in0.0 mm 0.01 in0.3 mm
09:27 AM 42.1°F5.6°C 39.9°F4.4°C 92% 1.6 mph SW2.6 kmh SW 2.2 mph3.5 kmh 29.12 in986.1 mb 0.01 in0.3 mm 0.00 in0.0 mm 0.01 in0.3 mm
09:28 AM 41.9°F5.5°C 39.5°F4.2°C 91% 2.2 mph SW3.5 kmh SW 3.1 mph5.0 kmh 29.13 in986.5 mb 0.01 in0.3 mm 0.00 in0.0 mm 0.01 in0.3 mm
09:29 AM 41.9°F5.5°C 39.5°F4.2°C 91% 2.2 mph SW3.5 kmh SW 3.1 mph5.0 kmh 29.13 in986.5 mb 0.01 in0.3 mm 0.00 in0.0 mm 0.01 in0.3 mm
09:30 AM 41.9°F5.5°C 39.5°F4.2°C 91% 2.2 mph SW3.5 kmh SW 3.8 mph6.1 kmh 29.13 in986.5 mb 0.01 in0.3 mm 0.00 in0.0 mm 0.01 in0.3 mm
09:31 AM 41.9°F5.5°C 39.5°F4.2°C 91% 2.2 mph SW3.5 kmh SW 3.8 mph6.1 kmh 29.13 in986.5 mb 0.01 in0.3 mm 0.00 in0.0 mm 0.01 in0.3 mm
09:32 AM 41.9°F5.5°C 39.5°F4.2°C 91% 0.7 mph SW1.1 kmh SW 3.8 mph6.1 kmh 29.13 in986.5 mb 0.01 in0.3 mm 0.00 in0.0 mm 0.01 in0.3 mm
09:33 AM 41.9°F5.5°C 39.5°F4.2°C 91% 0.7 mph SW1.1 kmh SW 3.8 mph6.1 kmh 29.13 in986.5 mb 0.01 in0.3 mm 0.00 in0.0 mm 0.01 in0.3 mm
09:34 AM 41.9°F5.5°C 39.5°F4.2°C 91% 1.6 mph SW2.6 kmh SW 3.8 mph6.1 kmh 29.12 in986.1 mb 0.01 in0.3 mm 0.00 in0.0 mm 0.01 in0.3 mm
09:35 AM 41.9°F5.5°C 39.5°F4.2°C 91% 0.7 mph SW1.1 kmh SW 3.8 mph6.1 kmh 29.13 in986.5 mb 0.01 in0.3 mm 0.00 in0.0 mm 0.01 in0.3 mm
09:36 AM 42.1°F5.6°C 39.6°F4.2°C 91% 0.7 mph SW1.1 kmh SW 3.8 mph6.1 kmh 29.12 in986.1 mb 0.01 in0.3 mm 0.00 in0.0 mm 0.01 in0.3 mm
09:37 AM 42.1°F5.6°C 39.6°F4.2°C 91% 0.7 mph SW1.1 kmh SW 3.8 mph6.1 kmh 29.12 in986.1 mb 0.01 in0.3 mm 0.00 in0.0 mm 0.01 in0.3 mm
09:38 AM 42.3°F5.7°C 39.8°F4.3°C 91% 0.7 mph SW1.1 kmh SW 3.8 mph6.1 kmh 29.12 in986.1 mb 0.01 in0.3 mm 0.00 in0.0 mm 0.01 in0.3 mm
09:39 AM 42.3°F5.7°C 39.8°F4.3°C 91% 1.6 mph WSW2.6 kmh WSW 3.8 mph6.1 kmh 29.13 in986.5 mb 0.01 in0.3 mm 0.00 in0.0 mm 0.01 in0.3 mm
09:40 AM 42.4°F5.8°C 40.0°F4.4°C 91% 0.7 mph WSW1.1 kmh WSW 3.8 mph6.1 kmh 29.12 in986.1 mb 0.00 in0.0 mm 0.00 in0.0 mm 0.01 in0.3 mm
09:41 AM 42.6°F5.9°C 40.2°F4.6°C 91% 0.7 mph WSW1.1 kmh WSW 3.1 mph5.0 kmh 29.12 in986.1 mb 0.00 in0.0 mm 0.00 in0.0 mm 0.01 in0.3 mm
09:42 AM 42.8°F6.0°C 40.4°F4.7°C 91% 0.7 mph WSW1.1 kmh WSW 2.2 mph3.5 kmh 29.12 in986.1 mb 0.00 in0.0 mm 0.00 in0.0 mm 0.01 in0.3 mm
09:43 AM 43.0°F6.1°C 40.5°F4.7°C 91% 0.7 mph WSW1.1 kmh WSW 2.2 mph3.5 kmh 29.12 in986.1 mb 0.00 in0.0 mm 0.00 in0.0 mm 0.01 in0.3 mm
09:44 AM 43.2°F6.2°C 41.0°F5.0°C 92% 0.7 mph WSW1.1 kmh WSW 2.2 mph3.5 kmh 29.13 in986.5 mb 0.00 in0.0 mm 0.00 in0.0 mm 0.01 in0.3 mm
09:45 AM 43.3°F6.3°C 41.2°F5.1°C 92% Calm Calm 2.2 mph3.5 kmh 29.12 in986.1 mb 0.00 in0.0 mm 0.00 in0.0 mm 0.01 in0.3 mm
09:46 AM 43.5°F6.4°C 41.4°F5.2°C 92% 1.6 mph WSW2.6 kmh WSW 3.1 mph5.0 kmh 29.12 in986.1 mb 0.00 in0.0 mm 0.00 in0.0 mm 0.01 in0.3 mm
09:47 AM 43.5°F6.4°C 41.4°F5.2°C 92% 1.6 mph WSW2.6 kmh WSW 3.1 mph5.0 kmh 29.13 in986.5 mb 0.00 in0.0 mm 0.00 in0.0 mm 0.01 in0.3 mm
09:48 AM 43.7°F6.5°C 41.5°F5.3°C 92% 1.6 mph W2.6 kmh W 3.1 mph5.0 kmh 29.12 in986.1 mb 0.00 in0.0 mm 0.00 in0.0 mm 0.01 in0.3 mm
09:49 AM 43.7°F6.5°C 41.5°F5.3°C 92% 1.6 mph W2.6 kmh W 3.1 mph5.0 kmh 29.12 in986.1 mb 0.00 in0.0 mm 0.00 in0.0 mm 0.01 in0.3 mm
09:50 AM 43.9°F6.6°C 41.4°F5.2°C 91% 2.2 mph W3.5 kmh W 3.1 mph5.0 kmh 29.13 in986.5 mb 0.00 in0.0 mm 0.00 in0.0 mm 0.01 in0.3 mm
09:51 AM 43.9°F6.6°C 41.4°F5.2°C 91% 2.2 mph W3.5 kmh W 3.8 mph6.1 kmh 29.12 in986.1 mb 0.00 in0.0 mm 0.00 in0.0 mm 0.01 in0.3 mm
09:52 AM 43.7°F6.5°C 41.2°F5.1°C 91% 3.1 mph W5.0 kmh W 3.8 mph6.1 kmh 29.12 in986.1 mb 0.00 in0.0 mm 0.00 in0.0 mm 0.01 in0.3 mm
09:53 AM 43.7°F6.5°C 41.2°F5.1°C 91% 2.2 mph W3.5 kmh W 3.8 mph6.1 kmh 29.12 in986.1 mb 0.00 in0.0 mm 0.00 in0.0 mm 0.01 in0.3 mm
09:54 AM 43.9°F6.6°C 41.4°F5.2°C 91% 2.2 mph WNW3.5 kmh WNW 3.8 mph6.1 kmh 29.12 in986.1 mb 0.00 in0.0 mm 0.00 in0.0 mm 0.01 in0.3 mm
09:55 AM 43.9°F6.6°C 41.4°F5.2°C 91% 1.6 mph WNW2.6 kmh WNW 3.8 mph6.1 kmh 29.12 in986.1 mb 0.00 in0.0 mm 0.00 in0.0 mm 0.01 in0.3 mm
09:56 AM 44.1°F6.7°C 41.3°F5.2°C 90% 1.6 mph WNW2.6 kmh WNW 3.8 mph6.1 kmh 29.13 in986.5 mb 0.00 in0.0 mm 0.00 in0.0 mm 0.01 in0.3 mm
09:57 AM 44.2°F6.8°C 41.5°F5.3°C 90% 1.6 mph NW2.6 kmh NW 3.8 mph6.1 kmh 29.12 in986.1 mb 0.00 in0.0 mm 0.00 in0.0 mm 0.01 in0.3 mm
09:58 AM 44.4°F6.9°C 41.7°F5.4°C 90% 2.2 mph NW3.5 kmh NW 3.8 mph6.1 kmh 29.13 in986.5 mb 0.00 in0.0 mm 0.00 in0.0 mm 0.01 in0.3 mm
09:59 AM 44.4°F6.9°C 41.7°F5.4°C 90% 1.6 mph NW2.6 kmh NW 3.8 mph6.1 kmh 29.12 in986.1 mb 0.00 in0.0 mm 0.00 in0.0 mm 0.01 in0.3 mm
10:00 AM 44.6°F7.0°C 41.8°F5.4°C 90% 2.2 mph NW3.5 kmh NW 3.8 mph6.1 kmh 29.12 in986.1 mb 0.00 in0.0 mm 0.00 in0.0 mm 0.01 in0.3 mm
10:01 AM 44.6°F7.0°C 41.8°F5.4°C 90% 3.1 mph NW5.0 kmh NW 3.8 mph6.1 kmh 29.12 in986.1 mb 0.00 in0.0 mm 0.00 in0.0 mm 0.01 in0.3 mm
10:02 AM 44.6°F7.0°C 41.8°F5.4°C 90% 3.1 mph NW5.0 kmh NW 3.8 mph6.1 kmh 29.13 in986.5 mb 0.00 in0.0 mm 0.00 in0.0 mm 0.01 in0.3 mm
10:03 AM 44.6°F7.0°C 41.8°F5.4°C 90% 3.1 mph NW5.0 kmh NW 3.8 mph6.1 kmh 29.13 in986.5 mb 0.00 in0.0 mm 0.00 in0.0 mm 0.01 in0.3 mm
10:04 AM 44.6°F7.0°C 41.8°F5.4°C 90% 3.1 mph NW5.0 kmh NW 3.8 mph6.1 kmh 29.12 in986.1 mb 0.00 in0.0 mm 0.00 in0.0 mm 0.01 in0.3 mm
10:05 AM 44.6°F7.0°C 41.8°F5.4°C 90% 3.1 mph NW5.0 kmh NW 3.8 mph6.1 kmh 29.13 in986.5 mb 0.00 in0.0 mm 0.00 in0.0 mm 0.01 in0.3 mm
10:06 AM 44.6°F7.0°C 41.8°F5.4°C 90% 3.1 mph NW5.0 kmh NW 3.8 mph6.1 kmh 29.13 in986.5 mb 0.00 in0.0 mm 0.00 in0.0 mm 0.01 in0.3 mm
10:07 AM 44.8°F7.1°C 40.8°F4.9°C 86% 1.6 mph NW2.6 kmh NW 3.8 mph6.1 kmh 29.13 in986.5 mb 0.00 in0.0 mm 0.00 in0.0 mm 0.01 in0.3 mm
10:08 AM 45.0°F7.2°C 41.0°F5.0°C 86% 1.6 mph NW2.6 kmh NW 3.8 mph6.1 kmh 29.12 in986.1 mb 0.00 in0.0 mm 0.00 in0.0 mm 0.01 in0.3 mm
10:09 AM 45.0°F7.2°C 40.7°F4.8°C 85% 2.2 mph NW3.5 kmh NW 3.8 mph6.1 kmh 29.12 in986.1 mb 0.00 in0.0 mm 0.00 in0.0 mm 0.01 in0.3 mm
10:10 AM 45.1°F7.3°C 40.9°F4.9°C 85% 3.8 mph NW6.1 kmh NW 4.5 mph7.2 kmh 29.13 in986.5 mb 0.00 in0.0 mm 0.00 in0.0 mm 0.01 in0.3 mm
10:11 AM 45.1°F7.3°C 40.9°F4.9°C 85% 3.1 mph NW5.0 kmh NW 4.5 mph7.2 kmh 29.12 in986.1 mb 0.00 in0.0 mm 0.00 in0.0 mm 0.01 in0.3 mm
10:12 AM 45.1°F7.3°C 40.6°F4.8°C 84% 2.2 mph NW3.5 kmh NW 4.5 mph7.2 kmh 29.12 in986.1 mb 0.00 in0.0 mm 0.00 in0.0 mm 0.01 in0.3 mm
10:13 AM 45.3°F7.4°C 40.8°F4.9°C 84% 2.2 mph NW3.5 kmh NW 4.5 mph7.2 kmh 29.12 in986.1 mb 0.00 in0.0 mm 0.00 in0.0 mm 0.01 in0.3 mm
10:14 AM 45.7°F7.6°C 39.9°F4.4°C 80% 1.6 mph NW2.6 kmh NW 4.5 mph7.2 kmh 29.13 in986.5 mb 0.00 in0.0 mm 0.00 in0.0 mm 0.01 in0.3 mm
10:15 AM 45.9°F7.7°C 40.0°F4.4°C 80% 1.6 mph NW2.6 kmh NW 4.5 mph7.2 kmh 29.12 in986.1 mb 0.00 in0.0 mm 0.00 in0.0 mm 0.01 in0.3 mm
10:16 AM 45.9°F7.7°C 39.7°F4.3°C 79% 3.8 mph NW6.1 kmh NW 4.5 mph7.2 kmh 29.12 in986.1 mb 0.00 in0.0 mm 0.00 in0.0 mm 0.01 in0.3 mm
10:17 AM 45.7°F7.6°C 39.5°F4.2°C 79% 3.8 mph NW6.1 kmh NW 5.4 mph8.7 kmh 29.12 in986.1 mb 0.00 in0.0 mm 0.00 in0.0 mm 0.01 in0.3 mm
10:18 AM 45.7°F7.6°C 39.2°F4.0°C 78% 3.1 mph NW5.0 kmh NW 5.4 mph8.7 kmh 29.13 in986.5 mb 0.00 in0.0 mm 0.00 in0.0 mm 0.01 in0.3 mm
10:19 AM 45.7°F7.6°C 38.9°F3.8°C 77% 3.1 mph NW5.0 kmh NW 5.4 mph8.7 kmh 29.13 in986.5 mb 0.00 in0.0 mm 0.00 in0.0 mm 0.01 in0.3 mm
10:20 AM 45.7°F7.6°C 38.9°F3.8°C 77% 3.1 mph NW5.0 kmh NW 5.4 mph8.7 kmh 29.12 in986.1 mb 0.00 in0.0 mm 0.00 in0.0 mm 0.01 in0.3 mm
10:21 AM 45.7°F7.6°C 38.9°F3.8°C 77% 2.2 mph NW3.5 kmh NW 5.4 mph8.7 kmh 29.12 in986.1 mb 0.00 in0.0 mm 0.00 in0.0 mm 0.01 in0.3 mm
10:22 AM 45.9°F7.7°C 39.1°F3.9°C 77% 3.8 mph NW6.1 kmh NW 5.4 mph8.7 kmh 29.13 in986.5 mb 0.00 in0.0 mm 0.00 in0.0 mm 0.01 in0.3 mm
10:23 AM 45.7°F7.6°C 38.5°F3.6°C 76% 4.5 mph NW7.2 kmh NW 5.4 mph8.7 kmh 29.12 in986.1 mb 0.00 in0.0 mm 0.00 in0.0 mm 0.01 in0.3 mm
10:24 AM 45.5°F7.5°C 38.4°F3.6°C 76% 6.0 mph NW9.7 kmh NW 7.6 mph12.2 kmh 29.13 in986.5 mb 0.00 in0.0 mm 0.00 in0.0 mm 0.01 in0.3 mm
10:25 AM 45.3°F7.4°C 40.1°F4.5°C 82% 6.0 mph WNW9.7 kmh WNW 7.6 mph12.2 kmh 29.12 in986.1 mb 0.00 in0.0 mm 0.00 in0.0 mm 0.01 in0.3 mm
10:26 AM 45.1°F7.3°C 39.7°F4.3°C 81% 3.1 mph WNW5.0 kmh WNW 7.6 mph12.2 kmh 29.13 in986.5 mb 0.00 in0.0 mm 0.00 in0.0 mm 0.01 in0.3 mm
10:27 AM 45.1°F7.3°C 40.0°F4.4°C 82% 2.2 mph WNW3.5 kmh WNW 7.6 mph12.2 kmh 29.13 in986.5 mb 0.00 in0.0 mm 0.00 in0.0 mm 0.01 in0.3 mm
10:28 AM 45.1°F7.3°C 40.0°F4.4°C 82% 2.2 mph WNW3.5 kmh WNW 7.6 mph12.2 kmh 29.12 in986.1 mb 0.00 in0.0 mm 0.00 in0.0 mm 0.01 in0.3 mm
10:29 AM 45.3°F7.4°C 40.1°F4.5°C 82% 4.5 mph WNW7.2 kmh WNW 7.6 mph12.2 kmh 29.12 in986.1 mb 0.00 in0.0 mm 0.00 in0.0 mm 0.01 in0.3 mm
10:30 AM 45.3°F7.4°C 40.1°F4.5°C 82% 8.3 mph WNW13.4 kmh WNW 9.2 mph14.8 kmh 29.12 in986.1 mb 0.00 in0.0 mm 0.00 in0.0 mm 0.01 in0.3 mm
10:31 AM 45.3°F7.4°C 40.1°F4.5°C 82% 7.6 mph WNW12.2 kmh WNW 9.2 mph14.8 kmh 29.13 in986.5 mb 0.00 in0.0 mm 0.00 in0.0 mm 0.01 in0.3 mm
10:32 AM 45.3°F7.4°C 40.1°F4.5°C 82% 5.4 mph WNW8.7 kmh WNW 9.2 mph14.8 kmh 29.12 in986.1 mb 0.00 in0.0 mm 0.00 in0.0 mm 0.01 in0.3 mm
10:33 AM 45.1°F7.3°C 40.0°F4.4°C 82% 5.4 mph NW8.7 kmh NW 9.2 mph14.8 kmh 29.13 in986.5 mb 0.00 in0.0 mm 0.00 in0.0 mm 0.01 in0.3 mm
10:34 AM 45.1°F7.3°C 40.3°F4.6°C 83% 6.9 mph NW11.1 kmh NW 9.8 mph15.8 kmh 29.13 in986.5 mb 0.00 in0.0 mm 0.00 in0.0 mm 0.01 in0.3 mm
10:35 AM 45.0°F7.2°C 40.1°F4.5°C 83% 6.9 mph NW11.1 kmh NW 9.8 mph15.8 kmh 29.12 in986.1 mb 0.00 in0.0 mm 0.00 in0.0 mm 0.01 in0.3 mm
10:36 AM 45.0°F7.2°C 40.1°F4.5°C 83% 6.9 mph NW11.1 kmh NW 9.8 mph15.8 kmh 29.12 in986.1 mb 0.00 in0.0 mm 0.00 in0.0 mm 0.01 in0.3 mm
10:37 AM 45.0°F7.2°C 40.1°F4.5°C 83% 5.4 mph NW8.7 kmh NW 9.8 mph15.8 kmh 29.13 in986.5 mb 0.00 in0.0 mm 0.00 in0.0 mm 0.01 in0.3 mm
10:38 AM 45.0°F7.2°C 40.1°F4.5°C 83% 5.4 mph NW8.7 kmh NW 9.8 mph15.8 kmh 29.12 in986.1 mb 0.00 in0.0 mm 0.00 in0.0 mm 0.01 in0.3 mm
10:39 AM 45.0°F7.2°C 40.1°F4.5°C 83% 5.4 mph NW8.7 kmh NW 9.8 mph15.8 kmh 29.13 in986.5 mb 0.00 in0.0 mm 0.00 in0.0 mm 0.01 in0.3 mm
10:40 AM 44.8°F7.1°C 39.9°F4.4°C 83% 6.9 mph NW11.1 kmh NW 9.8 mph15.8 kmh 29.12 in986.1 mb 0.00 in0.0 mm 0.00 in0.0 mm 0.01 in0.3 mm
10:41 AM 44.8°F7.1°C 39.9°F4.4°C 83% 6.9 mph NNW11.1 kmh NNW 9.8 mph15.8 kmh 29.12 in986.1 mb 0.00 in0.0 mm 0.00 in0.0 mm 0.01 in0.3 mm
10:42 AM 44.8°F7.1°C 39.9°F4.4°C 83% 4.5 mph NNW7.2 kmh NNW 9.8 mph15.8 kmh 29.12 in986.1 mb 0.00 in0.0 mm 0.00 in0.0 mm 0.01 in0.3 mm
10:43 AM 44.8°F7.1°C 39.9°F4.4°C 83% 6.9 mph NNW11.1 kmh NNW 10.7 mph17.2 kmh 29.12 in986.1 mb 0.00 in0.0 mm 0.00 in0.0 mm 0.01 in0.3 mm
10:44 AM 44.8°F7.1°C 39.9°F4.4°C 83% 7.6 mph NNW12.2 kmh NNW 10.7 mph17.2 kmh 29.12 in986.1 mb 0.00 in0.0 mm 0.00 in0.0 mm 0.01 in0.3 mm
10:45 AM 44.8°F7.1°C 39.9°F4.4°C 83% 5.4 mph NNW8.7 kmh NNW 10.7 mph17.2 kmh 29.12 in986.1 mb 0.00 in0.0 mm 0.00 in0.0 mm 0.01 in0.3 mm
10:46 AM 44.8°F7.1°C 39.9°F4.4°C 83% 4.5 mph NNW7.2 kmh NNW 10.7 mph17.2 kmh 29.12 in986.1 mb 0.00 in0.0 mm 0.00 in0.0 mm 0.01 in0.3 mm
10:47 AM 44.8°F7.1°C 39.9°F4.4°C 83% 4.5 mph NNW7.2 kmh NNW 10.7 mph17.2 kmh 29.12 in986.1 mb 0.00 in0.0 mm 0.00 in0.0 mm 0.01 in0.3 mm
10:48 AM 44.8°F7.1°C 39.9°F4.4°C 83% 6.0 mph NNW9.7 kmh NNW 10.7 mph17.2 kmh 29.12 in986.1 mb 0.00 in0.0 mm 0.00 in0.0 mm 0.01 in0.3 mm
10:49 AM 45.0°F7.2°C 40.1°F4.5°C 83% 5.4 mph NNW8.7 kmh NNW 10.7 mph17.2 kmh 29.12 in986.1 mb 0.00 in0.0 mm 0.00 in0.0 mm 0.01 in0.3 mm
10:50 AM 45.0°F7.2°C 40.1°F4.5°C 83% 5.4 mph NNW8.7 kmh NNW 10.7 mph17.2 kmh 29.12 in986.1 mb 0.00 in0.0 mm 0.00 in0.0 mm 0.01 in0.3 mm
10:51 AM 45.0°F7.2°C 40.1°F4.5°C 83% 5.4 mph NW8.7 kmh NW 10.7 mph17.2 kmh 29.12 in986.1 mb 0.00 in0.0 mm 0.00 in0.0 mm 0.01 in0.3 mm
10:52 AM 44.8°F7.1°C 39.9°F4.4°C 83% 6.0 mph NW9.7 kmh NW 10.7 mph17.2 kmh 29.12 in986.1 mb 0.00 in0.0 mm 0.00 in0.0 mm 0.01 in0.3 mm
10:53 AM 44.6°F7.0°C 39.8°F4.3°C 83% 7.6 mph NW12.2 kmh NW 10.7 mph17.2 kmh 29.12 in986.1 mb 0.00 in0.0 mm 0.00 in0.0 mm 0.01 in0.3 mm
10:54 AM 44.6°F7.0°C 39.8°F4.3°C 83% 5.4 mph NW8.7 kmh NW 10.7 mph17.2 kmh 29.12 in986.1 mb 0.00 in0.0 mm 0.00 in0.0 mm 0.01 in0.3 mm
10:55 AM 44.6°F7.0°C 39.8°F4.3°C 83% 6.0 mph NW9.7 kmh NW 9.2 mph14.8 kmh 29.12 in986.1 mb 0.00 in0.0 mm 0.00 in0.0 mm 0.01 in0.3 mm
10:56 AM 44.6°F7.0°C 39.8°F4.3°C 83% 5.4 mph NW8.7 kmh NW 9.2 mph14.8 kmh 29.12 in986.1 mb 0.00 in0.0 mm 0.00 in0.0 mm 0.01 in0.3 mm
10:57 AM 44.4°F6.9°C 39.6°F4.2°C 83% 7.6 mph NW12.2 kmh NW 9.2 mph14.8 kmh 29.12 in986.1 mb 0.00 in0.0 mm 0.00 in0.0 mm 0.01 in0.3 mm
10:58 AM 44.4°F6.9°C 39.6°F4.2°C 83% 5.4 mph NW8.7 kmh NW 9.2 mph14.8 kmh 29.12 in986.1 mb 0.00 in0.0 mm 0.00 in0.0 mm 0.01 in0.3 mm
10:59 AM 44.4°F6.9°C 39.6°F4.2°C 83% 7.6 mph NW12.2 kmh NW 9.2 mph14.8 kmh 29.12 in986.1 mb 0.00 in0.0 mm 0.00 in0.0 mm 0.01 in0.3 mm
11:00 AM 44.2°F6.8°C 39.4°F4.1°C 83% 5.4 mph NW8.7 kmh NW 9.2 mph14.8 kmh 29.12 in986.1 mb 0.00 in0.0 mm 0.00 in0.0 mm 0.01 in0.3 mm
11:01 AM 44.2°F6.8°C 39.4°F4.1°C 83% 6.9 mph NW11.1 kmh NW 9.2 mph14.8 kmh 29.12 in986.1 mb 0.00 in0.0 mm 0.00 in0.0 mm 0.01 in0.3 mm
11:02 AM 44.2°F6.8°C 39.4°F4.1°C 83% 7.6 mph NW12.2 kmh NW 9.2 mph14.8 kmh 29.12 in986.1 mb 0.00 in0.0 mm 0.00 in0.0 mm 0.01 in0.3 mm
11:03 AM 44.1°F6.7°C 39.2°F4.0°C 83% 6.9 mph NW11.1 kmh NW 9.2 mph14.8 kmh 29.12 in986.1 mb 0.00 in0.0 mm 0.00 in0.0 mm 0.01 in0.3 mm
11:04 AM 43.9°F6.6°C 39.1°F3.9°C 83% 6.0 mph NW9.7 kmh NW 8.3 mph13.4 kmh 29.12 in986.1 mb 0.00 in0.0 mm 0.00 in0.0 mm 0.01 in0.3 mm
11:05 AM 43.9°F6.6°C 39.1°F3.9°C 83% 6.0 mph NW9.7 kmh NW 8.3 mph13.4 kmh 29.12 in986.1 mb 0.00 in0.0 mm 0.00 in0.0 mm 0.01 in0.3 mm
11:06 AM 43.9°F6.6°C 39.1°F3.9°C 83% 6.0 mph NW9.7 kmh NW 8.3 mph13.4 kmh 29.12 in986.1 mb 0.00 in0.0 mm 0.00 in0.0 mm 0.01 in0.3 mm
11:07 AM 43.9°F6.6°C 39.1°F3.9°C 83% 6.0 mph NW9.7 kmh NW 8.3 mph13.4 kmh 29.12 in986.1 mb 0.00 in0.0 mm 0.00 in0.0 mm 0.01 in0.3 mm
11:08 AM 43.7°F6.5°C 38.9°F3.8°C 83% 6.9 mph NW11.1 kmh NW 8.3 mph13.4 kmh 29.12 in986.1 mb 0.00 in0.0 mm 0.00 in0.0 mm 0.01 in0.3 mm
11:09 AM 43.7°F6.5°C 38.9°F3.8°C 83% 5.4 mph NW8.7 kmh NW 8.3 mph13.4 kmh 29.12 in986.1 mb 0.00 in0.0 mm 0.00 in0.0 mm 0.01 in0.3 mm
11:10 AM 43.9°F6.6°C 39.4°F4.1°C 84% 5.4 mph NW8.7 kmh NW 8.3 mph13.4 kmh 29.12 in986.1 mb 0.00 in0.0 mm 0.00 in0.0 mm 0.01 in0.3 mm
11:11 AM 43.9°F6.6°C 39.4°F4.1°C 84% 6.0 mph NW9.7 kmh NW 8.3 mph13.4 kmh 29.12 in986.1 mb 0.00 in0.0 mm 0.00 in0.0 mm 0.01 in0.3 mm
11:12 AM 43.9°F6.6°C 39.4°F4.1°C 84% 6.9 mph NW11.1 kmh NW 8.3 mph13.4 kmh 29.12 in986.1 mb 0.00 in0.0 mm 0.00 in0.0 mm 0.01 in0.3 mm
11:13 AM 43.9°F6.6°C 39.4°F4.1°C 84% 4.5 mph NW7.2 kmh NW 8.3 mph13.4 kmh 29.12 in986.1 mb 0.00 in0.0 mm 0.00 in0.0 mm 0.01 in0.3 mm
11:14 AM 44.1°F6.7°C 39.5°F4.2°C 84% 5.4 mph NW8.7 kmh NW 8.3 mph13.4 kmh 29.12 in986.1 mb 0.00 in0.0 mm 0.00 in0.0 mm 0.01 in0.3 mm
11:15 AM 44.1°F6.7°C 39.5°F4.2°C 84% 6.0 mph NW9.7 kmh NW 8.3 mph13.4 kmh 29.12 in986.1 mb 0.00 in0.0 mm 0.00 in0.0 mm 0.01 in0.3 mm
11:16 AM 44.1°F6.7°C 39.5°F4.2°C 84% 6.9 mph NW11.1 kmh NW 9.2 mph14.8 kmh 29.12 in986.1 mb 0.00 in0.0 mm 0.00 in0.0 mm 0.01 in0.3 mm
11:17 AM 44.1°F6.7°C 39.5°F4.2°C 84% 6.0 mph NW9.7 kmh NW 9.2 mph14.8 kmh 29.12 in986.1 mb 0.00 in0.0 mm 0.00 in0.0 mm 0.01 in0.3 mm
11:18 AM 44.1°F6.7°C 39.5°F4.2°C 84% 3.8 mph WNW6.1 kmh WNW 9.2 mph14.8 kmh 29.12 in986.1 mb 0.00 in0.0 mm 0.00 in0.0 mm 0.01 in0.3 mm
11:19 AM 44.1°F6.7°C 39.5°F4.2°C 84% 4.5 mph WNW7.2 kmh WNW 9.2 mph14.8 kmh 29.12 in986.1 mb 0.00 in0.0 mm 0.00 in0.0 mm 0.01 in0.3 mm
11:20 AM 44.2°F6.8°C 39.7°F4.3°C 84% 4.5 mph WNW7.2 kmh WNW 9.2 mph14.8 kmh 29.11 in985.8 mb 0.00 in0.0 mm 0.00 in0.0 mm 0.01 in0.3 mm
11:21 AM 44.2°F6.8°C 39.7°F4.3°C 84% 7.6 mph WNW12.2 kmh WNW 9.2 mph14.8 kmh 29.12 in986.1 mb 0.00 in0.0 mm 0.00 in0.0 mm 0.01 in0.3 mm
11:22 AM 44.1°F6.7°C 39.5°F4.2°C 84% 6.9 mph WNW11.1 kmh WNW 9.2 mph14.8 kmh 29.12 in986.1 mb 0.00 in0.0 mm 0.00 in0.0 mm 0.01 in0.3 mm
11:23 AM 44.1°F6.7°C 39.5°F4.2°C 84% 5.4 mph NW8.7 kmh NW 9.2 mph14.8 kmh 29.12 in986.1 mb 0.00 in0.0 mm 0.00 in0.0 mm 0.01 in0.3 mm
11:24 AM 44.2°F6.8°C 39.7°F4.3°C 84% 5.4 mph NW8.7 kmh NW 9.2 mph14.8 kmh 29.12 in986.1 mb 0.00 in0.0 mm 0.00 in0.0 mm 0.01 in0.3 mm
11:25 AM 44.2°F6.8°C 39.7°F4.3°C 84% 5.4 mph NW8.7 kmh NW 9.2 mph14.8 kmh 29.12 in986.1 mb 0.00 in0.0 mm 0.00 in0.0 mm 0.01 in0.3 mm
11:26 AM 44.4°F6.9°C 39.9°F4.4°C 84% 6.0 mph NW9.7 kmh NW 9.2 mph14.8 kmh 29.12 in986.1 mb 0.00 in0.0 mm 0.00 in0.0 mm 0.01 in0.3 mm
11:27 AM 44.4°F6.9°C 39.9°F4.4°C 84% 6.9 mph NW11.1 kmh NW 8.3 mph13.4 kmh 29.12 in986.1 mb 0.00 in0.0 mm 0.00 in0.0 mm 0.01 in0.3 mm
11:28 AM 44.2°F6.8°C 39.7°F4.3°C 84% 5.4 mph NW8.7 kmh NW 8.3 mph13.4 kmh 29.12 in986.1 mb 0.00 in0.0 mm 0.00 in0.0 mm 0.01 in0.3 mm
11:29 AM 44.1°F6.7°C 39.5°F4.2°C 84% 6.9 mph NW11.1 kmh NW 8.3 mph13.4 kmh 29.12 in986.1 mb 0.00 in0.0 mm 0.00 in0.0 mm 0.01 in0.3 mm
11:30 AM 43.9°F6.6°C 39.1°F3.9°C 83% 6.9 mph NW11.1 kmh NW 9.2 mph14.8 kmh 29.12 in986.1 mb 0.00 in0.0 mm 0.00 in0.0 mm 0.01 in0.3 mm
11:31 AM 43.9°F6.6°C 39.1°F3.9°C 83% 6.0 mph NW9.7 kmh NW 9.2 mph14.8 kmh 29.12 in986.1 mb 0.00 in0.0 mm 0.00 in0.0 mm 0.01 in0.3 mm
11:32 AM 43.9°F6.6°C 39.1°F3.9°C 83% 3.1 mph NW5.0 kmh NW 9.2 mph14.8 kmh 29.12 in986.1 mb 0.00 in0.0 mm 0.00 in0.0 mm 0.01 in0.3 mm
11:33 AM 43.9°F6.6°C 39.4°F4.1°C 84% 6.0 mph NW9.7 kmh NW 9.2 mph14.8 kmh 29.12 in986.1 mb 0.00 in0.0 mm 0.00 in0.0 mm 0.01 in0.3 mm
11:34 AM 43.9°F6.6°C 39.4°F4.1°C 84% 4.5 mph NW7.2 kmh NW 9.2 mph14.8 kmh 29.12 in986.1 mb 0.00 in0.0 mm 0.00 in0.0 mm 0.01 in0.3 mm
11:35 AM 43.9°F6.6°C 39.4°F4.1°C 84% 5.4 mph NW8.7 kmh NW 9.2 mph14.8 kmh 29.11 in985.8 mb 0.00 in0.0 mm 0.00 in0.0 mm 0.01 in0.3 mm
11:36 AM 43.9°F6.6°C 39.4°F4.1°C 84% 4.5 mph NW7.2 kmh NW 9.2 mph14.8 kmh 29.12 in986.1 mb 0.00 in0.0 mm 0.00 in0.0 mm 0.01 in0.3 mm
11:37 AM 43.9°F6.6°C 39.4°F4.1°C 84% 5.4 mph NW8.7 kmh NW 9.2 mph14.8 kmh 29.12 in986.1 mb 0.00 in0.0 mm 0.00 in0.0 mm 0.01 in0.3 mm
11:38 AM 43.9°F6.6°C 39.4°F4.1°C 84% 5.4 mph WNW8.7 kmh WNW 9.2 mph14.8 kmh 29.12 in986.1 mb 0.00 in0.0 mm 0.00 in0.0 mm 0.01 in0.3 mm
11:39 AM 43.9°F6.6°C 39.4°F4.1°C 84% 6.0 mph WNW9.7 kmh WNW 9.2 mph14.8 kmh 29.12 in986.1 mb 0.00 in0.0 mm 0.00 in0.0 mm 0.01 in0.3 mm
11:40 AM 43.9°F6.6°C 39.4°F4.1°C 84% 5.4 mph WNW8.7 kmh WNW 9.2 mph14.8 kmh 29.12 in986.1 mb 0.00 in0.0 mm 0.00 in0.0 mm 0.01 in0.3 mm
11:41 AM 43.9°F6.6°C 39.4°F4.1°C 84% 3.8 mph WNW6.1 kmh WNW 7.6 mph12.2 kmh 29.12 in986.1 mb 0.00 in0.0 mm 0.00 in0.0 mm 0.01 in0.3 mm
11:42 AM 44.1°F6.7°C 39.5°F4.2°C 84% 3.8 mph WNW6.1 kmh WNW 7.6 mph12.2 kmh 29.11 in985.8 mb 0.00 in0.0 mm 0.00 in0.0 mm 0.01 in0.3 mm
11:43 AM 44.1°F6.7°C 39.5°F4.2°C 84% 6.0 mph WNW9.7 kmh WNW 6.9 mph11.1 kmh 29.12 in986.1 mb 0.00 in0.0 mm 0.00 in0.0 mm 0.01 in0.3 mm
11:44 AM 44.1°F6.7°C 39.5°F4.2°C 84% 5.4 mph WNW8.7 kmh WNW 6.9 mph11.1 kmh 29.11 in985.8 mb 0.00 in0.0 mm 0.00 in0.0 mm 0.01 in0.3 mm
11:45 AM 43.9°F6.6°C 39.4°F4.1°C 84% 4.5 mph WNW7.2 kmh WNW 6.9 mph11.1 kmh 29.11 in985.8 mb 0.00 in0.0 mm 0.00 in0.0 mm 0.01 in0.3 mm
11:46 AM 44.1°F6.7°C 39.5°F4.2°C 84% 5.4 mph WNW8.7 kmh WNW 6.9 mph11.1 kmh 29.11 in985.8 mb 0.00 in0.0 mm 0.00 in0.0 mm 0.01 in0.3 mm
11:47 AM 44.1°F6.7°C 39.5°F4.2°C 84% 3.8 mph WNW6.1 kmh WNW 6.9 mph11.1 kmh 29.11 in985.8 mb 0.00 in0.0 mm 0.00 in0.0 mm 0.01 in0.3 mm
11:48 AM 44.1°F6.7°C 39.5°F4.2°C 84% 3.8 mph WNW6.1 kmh WNW 6.9 mph11.1 kmh 29.11 in985.8 mb 0.00 in0.0 mm 0.00 in0.0 mm 0.01 in0.3 mm
11:49 AM 44.1°F6.7°C 39.5°F4.2°C 84% 6.0 mph NW9.7 kmh NW 6.9 mph11.1 kmh 29.11 in985.8 mb 0.00 in0.0 mm 0.00 in0.0 mm 0.01 in0.3 mm
11:50 AM 44.1°F6.7°C 39.5°F4.2°C 84% 2.2 mph NW3.5 kmh NW 6.9 mph11.1 kmh 29.11 in985.8 mb 0.00 in0.0 mm 0.00 in0.0 mm 0.01 in0.3 mm
11:51 AM 44.2°F6.8°C 39.7°F4.3°C 84% 2.2 mph NW3.5 kmh NW 6.9 mph11.1 kmh 29.11 in985.8 mb 0.00 in0.0 mm 0.00 in0.0 mm 0.01 in0.3 mm
11:52 AM 44.4°F6.9°C 39.9°F4.4°C 84% 2.2 mph NW3.5 kmh NW 6.9 mph11.1 kmh 29.11 in985.8 mb 0.00 in0.0 mm 0.00 in0.0 mm 0.01 in0.3 mm
11:53 AM 44.4°F6.9°C 40.2°F4.6°C 85% 4.5 mph NW7.2 kmh NW 6.9 mph11.1 kmh 29.11 in985.8 mb 0.00 in0.0 mm 0.00 in0.0 mm 0.01 in0.3 mm
11:54 AM 44.4°F6.9°C 39.9°F4.4°C 84% 5.4 mph NW8.7 kmh NW 6.9 mph11.1 kmh 29.11 in985.8 mb 0.00 in0.0 mm 0.00 in0.0 mm 0.01 in0.3 mm
11:55 AM 44.4°F6.9°C 39.9°F4.4°C 84% 3.1 mph NW5.0 kmh NW 6.9 mph11.1 kmh 29.11 in985.8 mb 0.00 in0.0 mm 0.00 in0.0 mm 0.01 in0.3 mm
11:56 AM 44.6°F7.0°C 40.1°F4.5°C 84% 2.2 mph NNW3.5 kmh NNW 6.9 mph11.1 kmh 29.11 in985.8 mb 0.00 in0.0 mm 0.00 in0.0 mm 0.01 in0.3 mm
11:57 AM 44.6°F7.0°C 40.1°F4.5°C 84% 5.4 mph NNW8.7 kmh NNW 6.9 mph11.1 kmh 29.11 in985.8 mb 0.00 in0.0 mm 0.00 in0.0 mm 0.01 in0.3 mm
11:58 AM 44.6°F7.0°C 40.1°F4.5°C 84% 4.5 mph NNW7.2 kmh NNW 6.9 mph11.1 kmh 29.11 in985.8 mb 0.00 in0.0 mm 0.00 in0.0 mm 0.01 in0.3 mm
11:59 AM 44.6°F7.0°C 40.1°F4.5°C 84% 3.8 mph NW6.1 kmh NW 6.9 mph11.1 kmh 29.11 in985.8 mb 0.00 in0.0 mm 0.00 in0.0 mm 0.01 in0.3 mm
12:00 PM 44.6°F7.0°C 40.1°F4.5°C 84% 3.8 mph NW6.1 kmh NW 6.9 mph11.1 kmh 29.11 in985.8 mb 0.00 in0.0 mm 0.00 in0.0 mm 0.01 in0.3 mm
12:01 PM 44.8°F7.1°C 40.2°F4.6°C 84% 2.2 mph NNW3.5 kmh NNW 6.9 mph11.1 kmh 29.11 in985.8 mb 0.00 in0.0 mm 0.00 in0.0 mm 0.01 in0.3 mm
12:02 PM 44.8°F7.1°C 40.2°F4.6°C 84% 2.2 mph NNW3.5 kmh NNW 6.9 mph11.1 kmh 29.11 in985.8 mb 0.00 in0.0 mm 0.00 in0.0 mm 0.01 in0.3 mm
12:03 PM 44.8°F7.1°C 40.2°F4.6°C 84% 2.2 mph N3.5 kmh N 6.9 mph11.1 kmh 29.11 in985.8 mb 0.00 in0.0 mm 0.00 in0.0 mm 0.01 in0.3 mm
12:04 PM 44.8°F7.1°C 40.2°F4.6°C 84% 2.2 mph N3.5 kmh N 6.9 mph11.1 kmh 29.11 in985.8 mb 0.00 in0.0 mm 0.00 in0.0 mm 0.01 in0.3 mm
12:05 PM 44.8°F7.1°C 40.2°F4.6°C 84% 2.2 mph N3.5 kmh N 6.0 mph9.7 kmh 29.11 in985.8 mb 0.00 in0.0 mm 0.00 in0.0 mm 0.01 in0.3 mm
12:06 PM 44.8°F7.1°C 40.2°F4.6°C 84% 2.2 mph N3.5 kmh N 6.0 mph9.7 kmh 29.11 in985.8 mb 0.00 in0.0 mm 0.00 in0.0 mm 0.01 in0.3 mm
12:07 PM 44.6°F7.0°C 39.8°F4.3°C 83% 3.1 mph NNW5.0 kmh NNW 5.4 mph8.7 kmh 29.11 in985.8 mb 0.00 in0.0 mm 0.00 in0.0 mm 0.01 in0.3 mm
12:08 PM 44.4°F6.9°C 39.6°F4.2°C 83% 6.0 mph NNW9.7 kmh NNW 9.2 mph14.8 kmh 29.11 in985.8 mb 0.00 in0.0 mm 0.00 in0.0 mm 0.01 in0.3 mm
12:09 PM 44.4°F6.9°C 39.6°F4.2°C 83% 6.0 mph NNW9.7 kmh NNW 9.2 mph14.8 kmh 29.11 in985.8 mb 0.00 in0.0 mm 0.00 in0.0 mm 0.01 in0.3 mm
12:10 PM 44.2°F6.8°C 39.4°F4.1°C 83% 4.5 mph NW7.2 kmh NW 9.2 mph14.8 kmh 29.11 in985.8 mb 0.00 in0.0 mm 0.00 in0.0 mm 0.01 in0.3 mm
12:11 PM 44.2°F6.8°C 39.4°F4.1°C 83% 4.5 mph NW7.2 kmh NW 9.2 mph14.8 kmh 29.11 in985.8 mb 0.00 in0.0 mm 0.00 in0.0 mm 0.01 in0.3 mm
12:12 PM 44.2°F6.8°C 39.4°F4.1°C 83% 4.5 mph NW7.2 kmh NW 9.2 mph14.8 kmh 29.10 in985.4 mb 0.00 in0.0 mm 0.00 in0.0 mm 0.01 in0.3 mm
12:13 PM 44.1°F6.7°C 39.2°F4.0°C 83% 6.9 mph NW11.1 kmh NW 9.2 mph14.8 kmh 29.11 in985.8 mb 0.00 in0.0 mm 0.00 in0.0 mm 0.01 in0.3 mm
12:14 PM 44.2°F6.8°C 39.4°F4.1°C 83% 4.5 mph NW7.2 kmh NW 9.2 mph14.8 kmh 29.11 in985.8 mb 0.00 in0.0 mm 0.00 in0.0 mm 0.01 in0.3 mm
12:15 PM 44.2°F6.8°C 39.4°F4.1°C 83% 5.4 mph NW8.7 kmh NW 9.2 mph14.8 kmh 29.11 in985.8 mb 0.00 in0.0 mm 0.00 in0.0 mm 0.01 in0.3 mm
12:16 PM 44.2°F6.8°C 39.4°F4.1°C 83% 3.8 mph NW6.1 kmh NW 9.2 mph14.8 kmh 29.11 in985.8 mb 0.00 in0.0 mm 0.00 in0.0 mm 0.01 in0.3 mm
12:17 PM 44.2°F6.8°C 39.4°F4.1°C 83% 4.5 mph NW7.2 kmh NW 9.2 mph14.8 kmh 29.11 in985.8 mb 0.00 in0.0 mm 0.00 in0.0 mm 0.01 in0.3 mm
12:18 PM 44.2°F6.8°C 39.4°F4.1°C 83% 5.4 mph NW8.7 kmh NW 9.2 mph14.8 kmh 29.11 in985.8 mb 0.00 in0.0 mm 0.00 in0.0 mm 0.01 in0.3 mm
12:19 PM 44.2°F6.8°C 39.4°F4.1°C 83% 5.4 mph NW8.7 kmh NW 8.3 mph13.4 kmh 29.11 in985.8 mb 0.00 in0.0 mm 0.00 in0.0 mm 0.01 in0.3 mm
12:20 PM 44.2°F6.8°C 39.4°F4.1°C 83% 4.5 mph NW7.2 kmh NW 8.3 mph13.4 kmh 29.11 in985.8 mb 0.00 in0.0 mm 0.00 in0.0 mm 0.01 in0.3 mm
12:21 PM 44.2°F6.8°C 39.4°F4.1°C 83% 6.0 mph NW9.7 kmh NW 8.3 mph13.4 kmh 29.11 in985.8 mb 0.00 in0.0 mm 0.00 in0.0 mm 0.01 in0.3 mm
12:22 PM 44.2°F6.8°C 39.4°F4.1°C 83% 4.5 mph NW7.2 kmh NW 8.3 mph13.4 kmh 29.11 in985.8 mb 0.00 in0.0 mm 0.00 in0.0 mm 0.01 in0.3 mm
12:23 PM 44.2°F6.8°C 39.4°F4.1°C 83% 5.4 mph NW8.7 kmh NW 8.3 mph13.4 kmh 29.11 in985.8 mb 0.00 in0.0 mm 0.00 in0.0 mm 0.01 in0.3 mm
12:24 PM 44.2°F6.8°C 39.4°F4.1°C 83% 4.5 mph NW7.2 kmh NW 8.3 mph13.4 kmh 29.10 in985.4 mb 0.00 in0.0 mm 0.00 in0.0 mm 0.01 in0.3 mm
12:25 PM 44.2°F6.8°C 39.4°F4.1°C 83% 4.5 mph NW7.2 kmh NW 8.3 mph13.4 kmh 29.11 in985.8 mb 0.00 in0.0 mm 0.00 in0.0 mm 0.01 in0.3 mm
12:26 PM 44.4°F6.9°C 39.6°F4.2°C 83% 6.0 mph NW9.7 kmh NW 8.3 mph13.4 kmh 29.11 in985.8 mb 0.00 in0.0 mm 0.00 in0.0 mm 0.01 in0.3 mm
12:27 PM 44.4°F6.9°C 39.6°F4.2°C 83% 4.5 mph NW7.2 kmh NW 8.3 mph13.4 kmh 29.11 in985.8 mb 0.00 in0.0 mm 0.00 in0.0 mm 0.01 in0.3 mm
12:28 PM 44.4°F6.9°C 39.6°F4.2°C 83% 4.5 mph NW7.2 kmh NW 8.3 mph13.4 kmh 29.10 in985.4 mb 0.00 in0.0 mm 0.00 in0.0 mm 0.01 in0.3 mm
12:29 PM 44.6°F7.0°C 39.8°F4.3°C 83% 3.1 mph NW5.0 kmh NW 8.3 mph13.4 kmh 29.11 in985.8 mb 0.00 in0.0 mm 0.00 in0.0 mm 0.01 in0.3 mm
12:30 PM 44.8°F7.1°C 40.2°F4.6°C 84% 3.8 mph NW6.1 kmh NW 8.3 mph13.4 kmh 29.11 in985.8 mb 0.00 in0.0 mm 0.00 in0.0 mm 0.01 in0.3 mm
12:31 PM 45.0°F7.2°C 40.4°F4.7°C 84% 3.8 mph NW6.1 kmh NW 7.6 mph12.2 kmh 29.10 in985.4 mb 0.00 in0.0 mm 0.00 in0.0 mm 0.01 in0.3 mm
12:32 PM 45.0°F7.2°C 40.4°F4.7°C 84% 5.4 mph NW8.7 kmh NW 7.6 mph12.2 kmh 29.10 in985.4 mb 0.00 in0.0 mm 0.00 in0.0 mm 0.01 in0.3 mm
12:33 PM 45.1°F7.3°C 40.6°F4.8°C 84% 6.0 mph NW9.7 kmh NW 7.6 mph12.2 kmh 29.11 in985.8 mb 0.00 in0.0 mm 0.00 in0.0 mm 0.01 in0.3 mm
12:34 PM 45.1°F7.3°C 40.3°F4.6°C 83% 6.0 mph NW9.7 kmh NW 7.6 mph12.2 kmh 29.10 in985.4 mb 0.00 in0.0 mm 0.00 in0.0 mm 0.01 in0.3 mm
12:35 PM 45.1°F7.3°C 40.3°F4.6°C 83% 6.0 mph NW9.7 kmh NW 7.6 mph12.2 kmh 29.10 in985.4 mb 0.00 in0.0 mm 0.00 in0.0 mm 0.01 in0.3 mm
12:36 PM 45.3°F7.4°C 40.5°F4.7°C 83% 3.1 mph NW5.0 kmh NW 7.6 mph12.2 kmh 29.10 in985.4 mb 0.00 in0.0 mm 0.00 in0.0 mm 0.01 in0.3 mm
12:37 PM 45.3°F7.4°C 40.5°F4.7°C 83% 5.4 mph NNW8.7 kmh NNW 7.6 mph12.2 kmh 29.10 in985.4 mb 0.00 in0.0 mm 0.00 in0.0 mm 0.01 in0.3 mm
12:38 PM 45.7°F7.6°C 39.2°F4.0°C 78% 4.5 mph NNW7.2 kmh NNW 7.6 mph12.2 kmh 29.10 in985.4 mb 0.00 in0.0 mm 0.00 in0.0 mm 0.01 in0.3 mm
12:39 PM 45.9°F7.7°C 39.4°F4.1°C 78% 6.0 mph NNW9.7 kmh NNW 7.6 mph12.2 kmh 29.10 in985.4 mb 0.00 in0.0 mm 0.00 in0.0 mm 0.01 in0.3 mm
12:40 PM 46.0°F7.8°C 39.6°F4.2°C 78% 3.8 mph NNW6.1 kmh NNW 7.6 mph12.2 kmh 29.10 in985.4 mb 0.00 in0.0 mm 0.00 in0.0 mm 0.01 in0.3 mm
12:41 PM 46.4°F8.0°C 39.9°F4.4°C 78% 2.2 mph NNW3.5 kmh NNW 7.6 mph12.2 kmh 29.10 in985.4 mb 0.00 in0.0 mm 0.00 in0.0 mm 0.01 in0.3 mm
12:42 PM 46.8°F8.2°C 40.3°F4.6°C 78% 6.9 mph NNW11.1 kmh NNW 8.3 mph13.4 kmh 29.10 in985.4 mb 0.00 in0.0 mm 0.00 in0.0 mm 0.01 in0.3 mm
12:43 PM 46.9°F8.3°C 40.1°F4.5°C 77% 7.6 mph NNW12.2 kmh NNW 9.2 mph14.8 kmh 29.10 in985.4 mb 0.00 in0.0 mm 0.00 in0.0 mm 0.01 in0.3 mm
12:44 PM 46.9°F8.3°C 40.1°F4.5°C 77% 8.3 mph NNW13.4 kmh NNW 9.2 mph14.8 kmh 29.10 in985.4 mb 0.00 in0.0 mm 0.00 in0.0 mm 0.01 in0.3 mm
12:45 PM 47.1°F8.4°C 39.9°F4.4°C 76% 6.0 mph NNW9.7 kmh NNW 9.2 mph14.8 kmh 29.09 in985.1 mb 0.00 in0.0 mm 0.00 in0.0 mm 0.01 in0.3 mm
12:46 PM 46.9°F8.3°C 39.4°F4.1°C 75% 9.2 mph NW14.8 kmh NW 11.4 mph18.3 kmh 29.10 in985.4 mb 0.00 in0.0 mm 0.00 in0.0 mm 0.01 in0.3 mm
12:47 PM 46.9°F8.3°C 39.4°F4.1°C 75% 9.2 mph NW14.8 kmh NW 11.4 mph18.3 kmh 29.10 in985.4 mb 0.00 in0.0 mm 0.00 in0.0 mm 0.01 in0.3 mm
12:48 PM 46.9°F8.3°C 39.4°F4.1°C 75% 4.5 mph NW7.2 kmh NW 11.4 mph18.3 kmh 29.09 in985.1 mb 0.00 in0.0 mm 0.00 in0.0 mm 0.01 in0.3 mm
12:49 PM 46.9°F8.3°C 39.4°F4.1°C 75% 4.5 mph NW7.2 kmh NW 11.4 mph18.3 kmh 29.10 in985.4 mb 0.00 in0.0 mm 0.00 in0.0 mm 0.01 in0.3 mm
12:50 PM 47.1°F8.4°C 39.3°F4.1°C 74% 3.8 mph NW6.1 kmh NW 11.4 mph18.3 kmh 29.10 in985.4 mb 0.00 in0.0 mm 0.00 in0.0 mm 0.01 in0.3 mm
12:51 PM 47.1°F8.4°C 39.3°F4.1°C 74% 5.4 mph NW8.7 kmh NW 11.4 mph18.3 kmh 29.10 in985.4 mb 0.00 in0.0 mm 0.00 in0.0 mm 0.01 in0.3 mm
12:52 PM 47.1°F8.4°C 39.3°F4.1°C 74% 4.5 mph NW7.2 kmh NW 11.4 mph18.3 kmh 29.10 in985.4 mb 0.00 in0.0 mm 0.00 in0.0 mm 0.01 in0.3 mm
12:53 PM 47.1°F8.4°C 39.3°F4.1°C 74% 6.0 mph NW9.7 kmh NW 11.4 mph18.3 kmh 29.10 in985.4 mb 0.00 in0.0 mm 0.00 in0.0 mm 0.01 in0.3 mm
12:54 PM 46.8°F8.2°C 38.9°F3.8°C 74% 6.9 mph NW11.1 kmh NW 11.4 mph18.3 kmh 29.10 in985.4 mb 0.00 in0.0 mm 0.00 in0.0 mm 0.01 in0.3 mm
12:55 PM 46.8°F8.2°C 38.9°F3.8°C 74% 5.4 mph NW8.7 kmh NW 11.4 mph18.3 kmh 29.10 in985.4 mb 0.00 in0.0 mm 0.00 in0.0 mm 0.01 in0.3 mm
12:56 PM 46.6°F8.1°C 38.7°F3.7°C 74% 6.0 mph NW9.7 kmh NW 10.7 mph17.2 kmh 29.10 in985.4 mb 0.00 in0.0 mm 0.00 in0.0 mm 0.01 in0.3 mm
12:57 PM 46.6°F8.1°C 38.7°F3.7°C 74% 6.0 mph NW9.7 kmh NW 10.7 mph17.2 kmh 29.10 in985.4 mb 0.00 in0.0 mm 0.00 in0.0 mm 0.01 in0.3 mm
12:58 PM 46.4°F8.0°C 38.6°F3.7°C 74% 6.0 mph NNW9.7 kmh NNW 9.2 mph14.8 kmh 29.10 in985.4 mb 0.00 in0.0 mm 0.00 in0.0 mm 0.01 in0.3 mm
12:59 PM 46.4°F8.0°C 38.6°F3.7°C 74% 3.8 mph NW6.1 kmh NW 9.2 mph14.8 kmh 29.10 in985.4 mb 0.00 in0.0 mm 0.00 in0.0 mm 0.01 in0.3 mm
01:00 PM 46.4°F8.0°C 38.6°F3.7°C 74% 4.5 mph NW7.2 kmh NW 9.2 mph14.8 kmh 29.10 in985.4 mb 0.00 in0.0 mm 0.00 in0.0 mm 0.01 in0.3 mm
01:01 PM 46.4°F8.0°C 38.6°F3.7°C 74% 5.4 mph NNW8.7 kmh NNW 9.2 mph14.8 kmh 29.10 in985.4 mb 0.00 in0.0 mm 0.00 in0.0 mm 0.01 in0.3 mm
01:02 PM 46.2°F7.9°C 38.4°F3.6°C 74% 3.8 mph NNW6.1 kmh NNW 9.2 mph14.8 kmh 29.10 in985.4 mb 0.00 in0.0 mm 0.00 in0.0 mm 0.01 in0.3 mm
01:03 PM 46.2°F7.9°C 38.4°F3.6°C 74% 6.0 mph NNW9.7 kmh NNW 9.2 mph14.8 kmh 29.10 in985.4 mb 0.00 in0.0 mm 0.00 in0.0 mm 0.01 in0.3 mm
01:04 PM 46.0°F7.8°C 38.2°F3.4°C 74% 6.0 mph NNW9.7 kmh NNW 9.2 mph14.8 kmh 29.10 in985.4 mb 0.00 in0.0 mm 0.00 in0.0 mm 0.01 in0.3 mm
01:05 PM 45.9°F7.7°C 38.4°F3.6°C 75% 6.0 mph NW9.7 kmh NW 9.2 mph14.8 kmh 29.10 in985.4 mb 0.00 in0.0 mm 0.00 in0.0 mm 0.01 in0.3 mm
01:06 PM 45.7°F7.6°C 38.2°F3.4°C 75% 6.0 mph NW9.7 kmh NW 9.2 mph14.8 kmh 29.10 in985.4 mb 0.00 in0.0 mm 0.00 in0.0 mm 0.01 in0.3 mm
01:07 PM 45.7°F7.6°C 38.2°F3.4°C 75% 5.4 mph NNW8.7 kmh NNW 9.2 mph14.8 kmh 29.09 in985.1 mb 0.00 in0.0 mm 0.00 in0.0 mm 0.01 in0.3 mm
01:08 PM 45.5°F7.5°C 38.0°F3.3°C 75% 7.6 mph NW12.2 kmh NW 9.2 mph14.8 kmh 29.10 in985.4 mb 0.00 in0.0 mm 0.00 in0.0 mm 0.01 in0.3 mm
01:09 PM 45.3°F7.4°C 40.1°F4.5°C 82% 6.9 mph NNW11.1 kmh NNW 9.2 mph14.8 kmh 29.10 in985.4 mb 0.00 in0.0 mm 0.00 in0.0 mm 0.01 in0.3 mm
01:10 PM 45.0°F7.2°C 39.8°F4.3°C 82% 5.4 mph NW8.7 kmh NW 9.2 mph14.8 kmh 29.10 in985.4 mb 0.00 in0.0 mm 0.00 in0.0 mm 0.01 in0.3 mm
01:11 PM 45.0°F7.2°C 39.8°F4.3°C 82% 3.8 mph NW6.1 kmh NW 9.2 mph14.8 kmh 29.10 in985.4 mb 0.00 in0.0 mm 0.00 in0.0 mm 0.01 in0.3 mm
01:12 PM 45.0°F7.2°C 39.8°F4.3°C 82% 2.2 mph NW3.5 kmh NW 9.2 mph14.8 kmh 29.10 in985.4 mb 0.00 in0.0 mm 0.00 in0.0 mm 0.01 in0.3 mm
01:13 PM 45.0°F7.2°C 40.1°F4.5°C 83% 3.8 mph NW6.1 kmh NW 9.2 mph14.8 kmh 29.09 in985.1 mb 0.00 in0.0 mm 0.00 in0.0 mm 0.01 in0.3 mm
01:14 PM 45.0°F7.2°C 40.1°F4.5°C 83% 5.4 mph NW8.7 kmh NW 9.2 mph14.8 kmh 29.10 in985.4 mb 0.00 in0.0 mm 0.00 in0.0 mm 0.01 in0.3 mm
01:15 PM 45.0°F7.2°C 40.1°F4.5°C 83% 4.5 mph NW7.2 kmh NW 9.2 mph14.8 kmh 29.10 in985.4 mb 0.00 in0.0 mm 0.00 in0.0 mm 0.01 in0.3 mm
01:16 PM 45.0°F7.2°C 40.1°F4.5°C 83% 3.1 mph NW5.0 kmh NW 9.2 mph14.8 kmh 29.09 in985.1 mb 0.00 in0.0 mm 0.00 in0.0 mm 0.01 in0.3 mm
01:17 PM 45.0°F7.2°C 40.4°F4.7°C 84% 3.8 mph NNW6.1 kmh NNW 9.2 mph14.8 kmh 29.09 in985.1 mb 0.00 in0.0 mm 0.00 in0.0 mm 0.01 in0.3 mm
01:18 PM 45.0°F7.2°C 40.4°F4.7°C 84% 3.8 mph NNW6.1 kmh NNW 9.2 mph14.8 kmh 29.09 in985.1 mb 0.00 in0.0 mm 0.00 in0.0 mm 0.01 in0.3 mm
01:19 PM 45.1°F7.3°C 40.6°F4.8°C 84% 3.1 mph NNW5.0 kmh NNW 9.2 mph14.8 kmh 29.10 in985.4 mb 0.00 in0.0 mm 0.00 in0.0 mm 0.01 in0.3 mm
01:20 PM 45.1°F7.3°C 40.6°F4.8°C 84% 4.5 mph N7.2 kmh N 8.3 mph13.4 kmh 29.09 in985.1 mb 0.00 in0.0 mm 0.00 in0.0 mm 0.01 in0.3 mm
01:21 PM 45.1°F7.3°C 40.6°F4.8°C 84% 6.0 mph N9.7 kmh N 7.6 mph12.2 kmh 29.09 in985.1 mb 0.00 in0.0 mm 0.00 in0.0 mm 0.01 in0.3 mm
01:22 PM 45.0°F7.2°C 40.4°F4.7°C 84% 3.1 mph N5.0 kmh N 7.6 mph12.2 kmh 29.09 in985.1 mb 0.00 in0.0 mm 0.00 in0.0 mm 0.01 in0.3 mm
01:23 PM 45.0°F7.2°C 40.4°F4.7°C 84% 5.4 mph N8.7 kmh N 7.6 mph12.2 kmh 29.09 in985.1 mb 0.00 in0.0 mm 0.00 in0.0 mm 0.01 in0.3 mm
01:24 PM 45.0°F7.2°C 40.4°F4.7°C 84% 6.0 mph N9.7 kmh N 7.6 mph12.2 kmh 29.10 in985.4 mb 0.00 in0.0 mm 0.00 in0.0 mm 0.01 in0.3 mm
01:25 PM 45.0°F7.2°C 40.4°F4.7°C 84% 6.0 mph N9.7 kmh N 9.2 mph14.8 kmh 29.09 in985.1 mb 0.00 in0.0 mm 0.00 in0.0 mm 0.01 in0.3 mm
01:26 PM 44.8°F7.1°C 40.2°F4.6°C 84% 8.3 mph N13.4 kmh N 9.8 mph15.8 kmh 29.09 in985.1 mb 0.00 in0.0 mm 0.00 in0.0 mm 0.01 in0.3 mm
01:27 PM 44.6°F7.0°C 40.1°F4.5°C 84% 6.0 mph N9.7 kmh N 9.8 mph15.8 kmh 29.09 in985.1 mb 0.00 in0.0 mm 0.00 in0.0 mm 0.01 in0.3 mm
01:28 PM 44.4°F6.9°C 39.9°F4.4°C 84% 5.4 mph N8.7 kmh N 9.8 mph15.8 kmh 29.10 in985.4 mb 0.00 in0.0 mm 0.00 in0.0 mm 0.01 in0.3 mm
01:29 PM 44.4°F6.9°C 39.9°F4.4°C 84% 6.0 mph N9.7 kmh N 9.8 mph15.8 kmh 29.10 in985.4 mb 0.00 in0.0 mm 0.00 in0.0 mm 0.01 in0.3 mm
01:30 PM 44.1°F6.7°C 39.5°F4.2°C 84% 7.6 mph N12.2 kmh N 9.8 mph15.8 kmh 29.09 in985.1 mb 0.00 in0.0 mm 0.00 in0.0 mm 0.01 in0.3 mm
01:31 PM 43.9°F6.6°C 39.4°F4.1°C 84% 6.9 mph N11.1 kmh N 10.7 mph17.2 kmh 29.09 in985.1 mb 0.00 in0.0 mm 0.00 in0.0 mm 0.01 in0.3 mm
01:32 PM 43.9°F6.6°C 39.4°F4.1°C 84% 6.0 mph N9.7 kmh N 10.7 mph17.2 kmh 29.09 in985.1 mb 0.00 in0.0 mm 0.00 in0.0 mm 0.01 in0.3 mm
01:33 PM 43.7°F6.5°C 39.2°F4.0°C 84% 8.3 mph N13.4 kmh N 10.7 mph17.2 kmh 29.09 in985.1 mb 0.00 in0.0 mm 0.00 in0.0 mm 0.01 in0.3 mm
01:34 PM 43.7°F6.5°C 39.5°F4.2°C 85% 3.8 mph N6.1 kmh N 10.7 mph17.2 kmh 29.09 in985.1 mb 0.00 in0.0 mm 0.00 in0.0 mm 0.01 in0.3 mm
01:35 PM 43.7°F6.5°C 39.5°F4.2°C 85% 6.9 mph N11.1 kmh N 10.7 mph17.2 kmh 29.09 in985.1 mb 0.00 in0.0 mm 0.00 in0.0 mm 0.01 in0.3 mm
01:36 PM 43.7°F6.5°C 39.5°F4.2°C 85% 3.8 mph N6.1 kmh N 10.7 mph17.2 kmh 29.09 in985.1 mb 0.00 in0.0 mm 0.00 in0.0 mm 0.01 in0.3 mm
01:37 PM 43.7°F6.5°C 39.5°F4.2°C 85% 4.5 mph NNW7.2 kmh NNW 10.7 mph17.2 kmh 29.09 in985.1 mb 0.00 in0.0 mm 0.00 in0.0 mm 0.01 in0.3 mm
01:38 PM 43.5°F6.4°C 39.3°F4.1°C 85% 4.5 mph N7.2 kmh N 10.7 mph17.2 kmh 29.09 in985.1 mb 0.00 in0.0 mm 0.00 in0.0 mm 0.01 in0.3 mm
01:39 PM 43.5°F6.4°C 39.3°F4.1°C 85% 6.9 mph NNW11.1 kmh NNW 10.7 mph17.2 kmh 29.09 in985.1 mb 0.00 in0.0 mm 0.00 in0.0 mm 0.01 in0.3 mm
01:40 PM 43.3°F6.3°C 39.4°F4.1°C 86% 6.9 mph NNW11.1 kmh NNW 10.7 mph17.2 kmh 29.09 in985.1 mb 0.00 in0.0 mm 0.00 in0.0 mm 0.01 in0.3 mm
01:41 PM 43.3°F6.3°C 39.4°F4.1°C 86% 6.0 mph N9.7 kmh N 10.7 mph17.2 kmh 29.09 in985.1 mb 0.00 in0.0 mm 0.00 in0.0 mm 0.01 in0.3 mm
01:42 PM 43.5°F6.4°C 39.6°F4.2°C 86% 3.8 mph NNW6.1 kmh NNW 10.7 mph17.2 kmh 29.09 in985.1 mb 0.00 in0.0 mm 0.00 in0.0 mm 0.01 in0.3 mm
01:43 PM 43.5°F6.4°C 39.6°F4.2°C 86% 6.9 mph NNW11.1 kmh NNW 9.2 mph14.8 kmh 29.09 in985.1 mb 0.00 in0.0 mm 0.00 in0.0 mm 0.01 in0.3 mm
01:44 PM 43.3°F6.3°C 39.4°F4.1°C 86% 6.9 mph NW11.1 kmh NW 10.7 mph17.2 kmh 29.09 in985.1 mb 0.00 in0.0 mm 0.00 in0.0 mm 0.01 in0.3 mm
01:45 PM 43.3°F6.3°C 39.4°F4.1°C 86% 6.9 mph NNW11.1 kmh NNW 10.7 mph17.2 kmh 29.09 in985.1 mb 0.00 in0.0 mm 0.00 in0.0 mm 0.01 in0.3 mm
01:46 PM 43.0°F6.1°C 39.1°F3.9°C 86% 6.0 mph NNW9.7 kmh NNW 10.7 mph17.2 kmh 29.09 in985.1 mb 0.00 in0.0 mm 0.00 in0.0 mm 0.01 in0.3 mm
01:47 PM 43.0°F6.1°C 39.1°F3.9°C 86% 6.0 mph NNW9.7 kmh NNW 10.7 mph17.2 kmh 29.09 in985.1 mb 0.00 in0.0 mm 0.00 in0.0 mm 0.01 in0.3 mm
01:48 PM 43.0°F6.1°C 39.1°F3.9°C 86% 9.2 mph NNW14.8 kmh NNW 12.1 mph19.5 kmh 29.09 in985.1 mb 0.00 in0.0 mm 0.00 in0.0 mm 0.01 in0.3 mm
01:49 PM 42.8°F6.0°C 38.9°F3.8°C 86% 8.3 mph NNW13.4 kmh NNW 12.1 mph19.5 kmh 29.09 in985.1 mb 0.00 in0.0 mm 0.00 in0.0 mm 0.01 in0.3 mm
01:50 PM 42.6°F5.9°C 38.7°F3.7°C 86% 9.2 mph NW14.8 kmh NW 13.0 mph20.9 kmh 29.09 in985.1 mb 0.00 in0.0 mm 0.00 in0.0 mm 0.01 in0.3 mm
01:51 PM 42.4°F5.8°C 38.5°F3.6°C 86% 8.3 mph NW13.4 kmh NW 13.0 mph20.9 kmh 29.09 in985.1 mb 0.00 in0.0 mm 0.00 in0.0 mm 0.01 in0.3 mm
01:52 PM 42.4°F5.8°C 38.5°F3.6°C 86% 8.3 mph NW13.4 kmh NW 13.0 mph20.9 kmh 29.09 in985.1 mb 0.00 in0.0 mm 0.00 in0.0 mm 0.01 in0.3 mm
01:53 PM 42.3°F5.7°C 38.4°F3.6°C 86% 6.0 mph NW9.7 kmh NW 13.0 mph20.9 kmh 29.09 in985.1 mb 0.00 in0.0 mm 0.00 in0.0 mm 0.01 in0.3 mm
01:54 PM 42.1°F5.6°C 38.5°F3.6°C 87% 8.3 mph NW13.4 kmh NW 13.0 mph20.9 kmh 29.09 in985.1 mb 0.00 in0.0 mm 0.00 in0.0 mm 0.01 in0.3 mm
01:55 PM 42.1°F5.6°C 38.5°F3.6°C 87% 6.9 mph NW11.1 kmh NW 13.0 mph20.9 kmh 29.09 in985.1 mb 0.00 in0.0 mm 0.00 in0.0 mm 0.01 in0.3 mm
01:56 PM 42.1°F5.6°C 38.5°F3.6°C 87% 6.9 mph NW11.1 kmh NW 13.0 mph20.9 kmh 29.09 in985.1 mb 0.00 in0.0 mm 0.00 in0.0 mm 0.01 in0.3 mm
01:57 PM 42.1°F5.6°C 38.5°F3.6°C 87% 10.7 mph NW17.2 kmh NW 13.6 mph21.9 kmh 29.09 in985.1 mb 0.00 in0.0 mm 0.00 in0.0 mm 0.01 in0.3 mm
01:58 PM 41.9°F5.5°C 38.3°F3.5°C 87% 8.3 mph NW13.4 kmh NW 13.6 mph21.9 kmh 29.09 in985.1 mb 0.00 in0.0 mm 0.00 in0.0 mm 0.01 in0.3 mm
01:59 PM 41.7°F5.4°C 38.1°F3.4°C 87% 6.9 mph NW11.1 kmh NW 13.6 mph21.9 kmh 29.09 in985.1 mb 0.00 in0.0 mm 0.00 in0.0 mm 0.01 in0.3 mm
02:00 PM 41.7°F5.4°C 38.1°F3.4°C 87% 6.9 mph NW11.1 kmh NW 13.6 mph21.9 kmh 29.09 in985.1 mb 0.00 in0.0 mm 0.00 in0.0 mm 0.01 in0.3 mm
02:01 PM 41.7°F5.4°C 38.1°F3.4°C 87% 9.2 mph NW14.8 kmh NW 13.6 mph21.9 kmh 29.09 in985.1 mb 0.00 in0.0 mm 0.00 in0.0 mm 0.01 in0.3 mm
02:02 PM 41.7°F5.4°C 38.1°F3.4°C 87% 9.2 mph NW14.8 kmh NW 13.6 mph21.9 kmh 29.09 in985.1 mb 0.00 in0.0 mm 0.00 in0.0 mm 0.01 in0.3 mm
02:03 PM 41.7°F5.4°C 38.1°F3.4°C 87% 9.2 mph NW14.8 kmh NW 13.6 mph21.9 kmh 29.09 in985.1 mb 0.00 in0.0 mm 0.00 in0.0 mm 0.01 in0.3 mm
02:04 PM 41.7°F5.4°C 38.1°F3.4°C 87% 9.2 mph NW14.8 kmh NW 13.6 mph21.9 kmh 29.09 in985.1 mb 0.00 in0.0 mm 0.00 in0.0 mm 0.01 in0.3 mm
02:05 PM 41.7°F5.4°C 38.1°F3.4°C 87% 9.2 mph NW14.8 kmh NW 13.6 mph21.9 kmh 29.09 in985.1 mb 0.00 in0.0 mm 0.00 in0.0 mm 0.01 in0.3 mm
02:06 PM 41.7°F5.4°C 38.1°F3.4°C 87% 9.2 mph NW14.8 kmh NW 13.6 mph21.9 kmh 29.09 in985.1 mb 0.00 in0.0 mm 0.00 in0.0 mm 0.01 in0.3 mm
02:07 PM 41.5°F5.3°C 38.3°F3.5°C 88% 8.3 mph NW13.4 kmh NW 10.7 mph17.2 kmh 29.09 in985.1 mb 0.00 in0.0 mm 0.00 in0.0 mm 0.01 in0.3 mm
02:08 PM 41.4°F5.2°C 38.1°F3.4°C 88% 11.4 mph NW18.3 kmh NW 13.0 mph20.9 kmh 29.09 in985.1 mb 0.00 in0.0 mm 0.00 in0.0 mm 0.01 in0.3 mm
02:09 PM 41.4°F5.2°C 38.1°F3.4°C 88% 7.6 mph NW12.2 kmh NW 13.0 mph20.9 kmh 29.09 in985.1 mb 0.00 in0.0 mm 0.00 in0.0 mm 0.01 in0.3 mm
02:10 PM 41.4°F5.2°C 38.1°F3.4°C 88% 6.0 mph NW9.7 kmh NW 13.0 mph20.9 kmh 29.09 in985.1 mb 0.00 in0.0 mm 0.00 in0.0 mm 0.01 in0.3 mm
02:11 PM 41.4°F5.2°C 38.1°F3.4°C 88% 11.4 mph NW18.3 kmh NW 14.5 mph23.3 kmh 29.09 in985.1 mb 0.00 in0.0 mm 0.00 in0.0 mm 0.01 in0.3 mm
02:12 PM 41.4°F5.2°C 38.1°F3.4°C 88% 8.3 mph NW13.4 kmh NW 14.5 mph23.3 kmh 29.09 in985.1 mb 0.00 in0.0 mm 0.00 in0.0 mm 0.01 in0.3 mm
02:13 PM 41.2°F5.1°C 38.2°F3.4°C 89% 9.8 mph NW15.8 kmh NW 14.5 mph23.3 kmh 29.08 in984.8 mb 0.00 in0.0 mm 0.00 in0.0 mm 0.01 in0.3 mm
02:14 PM 41.2°F5.1°C 38.2°F3.4°C 89% 8.3 mph NW13.4 kmh NW 14.5 mph23.3 kmh 29.09 in985.1 mb 0.00 in0.0 mm 0.00 in0.0 mm 0.01 in0.3 mm
02:15 PM 41.2°F5.1°C 38.2°F3.4°C 89% 8.3 mph NW13.4 kmh NW 14.5 mph23.3 kmh 29.09 in985.1 mb 0.00 in0.0 mm 0.00 in0.0 mm 0.01 in0.3 mm
02:16 PM 41.2°F5.1°C 38.2°F3.4°C 89% 6.0 mph NW9.7 kmh NW 14.5 mph23.3 kmh 29.09 in985.1 mb 0.00 in0.0 mm 0.00 in0.0 mm 0.01 in0.3 mm
02:17 PM 41.2°F5.1°C 38.2°F3.4°C 89% 6.9 mph NW11.1 kmh NW 14.5 mph23.3 kmh 29.09 in985.1 mb 0.00 in0.0 mm 0.00 in0.0 mm 0.01 in0.3 mm
02:18 PM 41.4°F5.2°C 38.4°F3.6°C 89% 4.5 mph NW7.2 kmh NW 14.5 mph23.3 kmh 29.09 in985.1 mb 0.00 in0.0 mm 0.00 in0.0 mm 0.01 in0.3 mm
02:19 PM 41.4°F5.2°C 38.4°F3.6°C 89% 6.0 mph NNW9.7 kmh NNW 14.5 mph23.3 kmh 29.09 in985.1 mb 0.00 in0.0 mm 0.00 in0.0 mm 0.01 in0.3 mm
02:20 PM 41.4°F5.2°C 38.4°F3.6°C 89% 6.9 mph NNW11.1 kmh NNW 14.5 mph23.3 kmh 29.09 in985.1 mb 0.00 in0.0 mm 0.00 in0.0 mm 0.01 in0.3 mm
02:21 PM 41.4°F5.2°C 38.4°F3.6°C 89% 6.9 mph N11.1 kmh N 14.5 mph23.3 kmh 29.09 in985.1 mb 0.00 in0.0 mm 0.00 in0.0 mm 0.01 in0.3 mm
02:22 PM 41.4°F5.2°C 38.4°F3.6°C 89% 8.3 mph N13.4 kmh N 12.1 mph19.5 kmh 29.09 in985.1 mb 0.00 in0.0 mm 0.00 in0.0 mm 0.01 in0.3 mm
02:23 PM 41.2°F5.1°C 38.2°F3.4°C 89% 8.3 mph N13.4 kmh N 12.1 mph19.5 kmh 29.08 in984.8 mb 0.00 in0.0 mm 0.00 in0.0 mm 0.01 in0.3 mm
02:24 PM 41.2°F5.1°C 38.5°F3.6°C 90% 4.5 mph N7.2 kmh N 12.1 mph19.5 kmh 29.09 in985.1 mb 0.00 in0.0 mm 0.00 in0.0 mm 0.01 in0.3 mm
02:25 PM 41.4°F5.2°C 38.6°F3.7°C 90% 6.0 mph N9.7 kmh N 12.1 mph19.5 kmh 29.08 in984.8 mb 0.00 in0.0 mm 0.00 in0.0 mm 0.01 in0.3 mm
02:26 PM 41.4°F5.2°C 38.6°F3.7°C 90% 5.4 mph NNW8.7 kmh NNW 9.8 mph15.8 kmh 29.09 in985.1 mb 0.00 in0.0 mm 0.00 in0.0 mm 0.01 in0.3 mm
02:27 PM 41.4°F5.2°C 38.6°F3.7°C 90% 5.4 mph NNW8.7 kmh NNW 9.8 mph15.8 kmh 29.08 in984.8 mb 0.00 in0.0 mm 0.00 in0.0 mm 0.01 in0.3 mm
02:28 PM 41.4°F5.2°C 38.6°F3.7°C 90% 7.6 mph NNW12.2 kmh NNW 9.8 mph15.8 kmh 29.09 in985.1 mb 0.00 in0.0 mm 0.00 in0.0 mm 0.01 in0.3 mm
02:29 PM 41.4°F5.2°C 38.6°F3.7°C 90% 6.0 mph NNW9.7 kmh NNW 9.8 mph15.8 kmh 29.09 in985.1 mb 0.00 in0.0 mm 0.00 in0.0 mm 0.01 in0.3 mm
02:30 PM 41.4°F5.2°C 38.6°F3.7°C 90% 5.4 mph NNW8.7 kmh NNW 9.8 mph15.8 kmh 29.09 in985.1 mb 0.00 in0.0 mm 0.00 in0.0 mm 0.01 in0.3 mm
02:31 PM 41.4°F5.2°C 38.6°F3.7°C 90% 5.4 mph NNW8.7 kmh NNW 9.8 mph15.8 kmh 29.09 in985.1 mb 0.00 in0.0 mm 0.00 in0.0 mm 0.01 in0.3 mm
02:32 PM 41.5°F5.3°C 38.8°F3.8°C 90% 3.8 mph NNW6.1 kmh NNW 9.8 mph15.8 kmh 29.08 in984.8 mb 0.00 in0.0 mm 0.00 in0.0 mm 0.01 in0.3 mm
02:33 PM 41.4°F5.2°C 38.6°F3.7°C 90% 9.2 mph NNW14.8 kmh NNW 10.7 mph17.2 kmh 29.09 in985.1 mb 0.00 in0.0 mm 0.00 in0.0 mm 0.01 in0.3 mm
02:34 PM 41.4°F5.2°C 38.6°F3.7°C 90% 4.5 mph NNW7.2 kmh NNW 10.7 mph17.2 kmh 29.08 in984.8 mb 0.00 in0.0 mm 0.00 in0.0 mm 0.01 in0.3 mm
02:35 PM 41.4°F5.2°C 38.6°F3.7°C 90% 7.6 mph NNW12.2 kmh NNW 10.7 mph17.2 kmh 29.08 in984.8 mb 0.00 in0.0 mm 0.00 in0.0 mm 0.01 in0.3 mm
02:36 PM 41.4°F5.2°C 38.6°F3.7°C 90% 6.0 mph NNW9.7 kmh NNW 10.7 mph17.2 kmh 29.08 in984.8 mb 0.00 in0.0 mm 0.00 in0.0 mm 0.01 in0.3 mm
02:37 PM 41.4°F5.2°C 38.6°F3.7°C 90% 3.1 mph NNW5.0 kmh NNW 10.7 mph17.2 kmh 29.08 in984.8 mb 0.00 in0.0 mm 0.00 in0.0 mm 0.01 in0.3 mm
02:38 PM 41.4°F5.2°C 38.6°F3.7°C 90% 3.8 mph NNW6.1 kmh NNW 10.7 mph17.2 kmh 29.09 in985.1 mb 0.00 in0.0 mm 0.00 in0.0 mm 0.01 in0.3 mm
02:39 PM 41.4°F5.2°C 38.6°F3.7°C 90% 5.4 mph NW8.7 kmh NW 10.7 mph17.2 kmh 29.09 in985.1 mb 0.00 in0.0 mm 0.00 in0.0 mm 0.01 in0.3 mm
02:40 PM 41.5°F5.3°C 38.8°F3.8°C 90% 5.4 mph NW8.7 kmh NW 10.7 mph17.2 kmh 29.08 in984.8 mb 0.00 in0.0 mm 0.00 in0.0 mm 0.01 in0.3 mm
02:41 PM 41.5°F5.3°C 38.8°F3.8°C 90% 5.4 mph NW8.7 kmh NW 10.7 mph17.2 kmh 29.08 in984.8 mb 0.00 in0.0 mm 0.00 in0.0 mm 0.01 in0.3 mm
02:42 PM 41.5°F5.3°C 38.8°F3.8°C 90% 3.8 mph NW6.1 kmh NW 10.7 mph17.2 kmh 29.08 in984.8 mb 0.00 in0.0 mm 0.00 in0.0 mm 0.01 in0.3 mm
02:43 PM 41.5°F5.3°C 38.8°F3.8°C 90% 6.9 mph NW11.1 kmh NW 10.7 mph17.2 kmh 29.08 in984.8 mb 0.00 in0.0 mm 0.00 in0.0 mm 0.01 in0.3 mm
02:44 PM 41.5°F5.3°C 38.8°F3.8°C 90% 5.4 mph NW8.7 kmh NW 10.7 mph17.2 kmh 29.09 in985.1 mb 0.00 in0.0 mm 0.00 in0.0 mm 0.01 in0.3 mm
02:45 PM 41.5°F5.3°C 38.8°F3.8°C 90% 6.0 mph NW9.7 kmh NW 10.7 mph17.2 kmh 29.09 in985.1 mb 0.00 in0.0 mm 0.00 in0.0 mm 0.01 in0.3 mm
02:46 PM 41.4°F5.2°C 38.4°F3.6°C 89% 6.9 mph NW11.1 kmh NW 11.4 mph18.3 kmh 29.09 in985.1 mb 0.00 in0.0 mm 0.00 in0.0 mm 0.01 in0.3 mm
02:47 PM 41.4°F5.2°C 38.4°F3.6°C 89% 8.3 mph NW13.4 kmh NW 11.4 mph18.3 kmh 29.08 in984.8 mb 0.00 in0.0 mm 0.00 in0.0 mm 0.01 in0.3 mm
02:48 PM 41.4°F5.2°C 38.4°F3.6°C 89% 9.2 mph NW14.8 kmh NW 11.4 mph18.3 kmh 29.08 in984.8 mb 0.00 in0.0 mm 0.00 in0.0 mm 0.01 in0.3 mm
02:49 PM 41.4°F5.2°C 38.4°F3.6°C 89% 9.2 mph NW14.8 kmh NW 11.4 mph18.3 kmh 29.08 in984.8 mb 0.00 in0.0 mm 0.00 in0.0 mm 0.01 in0.3 mm
02:50 PM 41.2°F5.1°C 37.9°F3.3°C 88% 8.3 mph NW13.4 kmh NW 11.4 mph18.3 kmh 29.08 in984.8 mb 0.00 in0.0 mm 0.00 in0.0 mm 0.01 in0.3 mm
02:51 PM 41.2°F5.1°C 37.9°F3.3°C 88% 9.8 mph NW15.8 kmh NW 11.4 mph18.3 kmh 29.08 in984.8 mb 0.00 in0.0 mm 0.00 in0.0 mm 0.01 in0.3 mm
02:52 PM 41.2°F5.1°C 37.9°F3.3°C 88% 4.5 mph NW7.2 kmh NW 11.4 mph18.3 kmh 29.08 in984.8 mb 0.00 in0.0 mm 0.00 in0.0 mm 0.01 in0.3 mm
02:53 PM 41.4°F5.2°C 38.1°F3.4°C 88% 6.0 mph NW9.7 kmh NW 11.4 mph18.3 kmh 29.08 in984.8 mb 0.00 in0.0 mm 0.00 in0.0 mm 0.01 in0.3 mm
02:54 PM 41.4°F5.2°C 38.1°F3.4°C 88% 3.1 mph NW5.0 kmh NW 11.4 mph18.3 kmh 29.08 in984.8 mb 0.00 in0.0 mm 0.00 in0.0 mm 0.01 in0.3 mm
02:55 PM 41.5°F5.3°C 38.3°F3.5°C 88% 3.1 mph NW5.0 kmh NW 11.4 mph18.3 kmh 29.08 in984.8 mb 0.00 in0.0 mm 0.00 in0.0 mm 0.01 in0.3 mm
02:56 PM 41.7°F5.4°C 38.4°F3.6°C 88% 4.5 mph NW7.2 kmh NW 11.4 mph18.3 kmh 29.08 in984.8 mb 0.00 in0.0 mm 0.00 in0.0 mm 0.01 in0.3 mm
02:57 PM 41.7°F5.4°C 38.4°F3.6°C 88% 4.5 mph NW7.2 kmh NW 11.4 mph18.3 kmh 29.08 in984.8 mb 0.00 in0.0 mm 0.00 in0.0 mm 0.01 in0.3 mm
02:58 PM 41.9°F5.5°C 38.3°F3.5°C 87% 5.4 mph NW8.7 kmh NW 11.4 mph18.3 kmh 29.08 in984.8 mb 0.00 in0.0 mm 0.00 in0.0 mm 0.01 in0.3 mm
02:59 PM 41.9°F5.5°C 38.3°F3.5°C 87% 3.8 mph NW6.1 kmh NW 11.4 mph18.3 kmh 29.08 in984.8 mb 0.00 in0.0 mm 0.00 in0.0 mm 0.01 in0.3 mm
03:00 PM 41.9°F5.5°C 38.3°F3.5°C 87% 3.8 mph NW6.1 kmh NW 11.4 mph18.3 kmh 29.08 in984.8 mb 0.00 in0.0 mm 0.00 in0.0 mm 0.01 in0.3 mm
03:01 PM 42.1°F5.6°C 38.5°F3.6°C 87% 4.5 mph NW7.2 kmh NW 11.4 mph18.3 kmh 29.08 in984.8 mb 0.00 in0.0 mm 0.00 in0.0 mm 0.01 in0.3 mm
03:02 PM 42.1°F5.6°C 38.5°F3.6°C 87% 8.3 mph NNW13.4 kmh NNW 11.4 mph18.3 kmh 29.08 in984.8 mb 0.00 in0.0 mm 0.00 in0.0 mm 0.01 in0.3 mm
03:03 PM 42.1°F5.6°C 38.2°F3.4°C 86% 7.6 mph N12.2 kmh N 11.4 mph18.3 kmh 29.08 in984.8 mb 0.00 in0.0 mm 0.00 in0.0 mm 0.01 in0.3 mm
03:04 PM 41.9°F5.5°C 38.0°F3.3°C 86% 5.4 mph N8.7 kmh N 11.4 mph18.3 kmh 29.08 in984.8 mb 0.00 in0.0 mm 0.00 in0.0 mm 0.01 in0.3 mm
03:05 PM 41.7°F5.4°C 37.8°F3.2°C 86% 8.3 mph N13.4 kmh N 11.4 mph18.3 kmh 29.08 in984.8 mb 0.00 in0.0 mm 0.00 in0.0 mm 0.01 in0.3 mm
03:06 PM 41.5°F5.3°C 37.4°F3.0°C 85% 7.6 mph N12.2 kmh N 11.4 mph18.3 kmh 29.09 in985.1 mb 0.00 in0.0 mm 0.00 in0.0 mm 0.01 in0.3 mm
03:07 PM 41.5°F5.3°C 37.4°F3.0°C 85% 6.9 mph N11.1 kmh N 11.4 mph18.3 kmh 29.08 in984.8 mb 0.00 in0.0 mm 0.00 in0.0 mm 0.01 in0.3 mm
03:08 PM 41.4°F5.2°C 37.2°F2.9°C 85% 6.0 mph N9.7 kmh N 11.4 mph18.3 kmh 29.08 in984.8 mb 0.00 in0.0 mm 0.00 in0.0 mm 0.01 in0.3 mm
03:09 PM 41.4°F5.2°C 36.9°F2.7°C 84% 5.4 mph N8.7 kmh N 11.4 mph18.3 kmh 29.08 in984.8 mb 0.00 in0.0 mm 0.00 in0.0 mm 0.01 in0.3 mm
03:10 PM 41.2°F5.1°C 36.7°F2.6°C 84% 9.8 mph NNW15.8 kmh NNW 12.1 mph19.5 kmh 29.08 in984.8 mb 0.00 in0.0 mm 0.00 in0.0 mm 0.01 in0.3 mm
03:11 PM 41.2°F5.1°C 36.7°F2.6°C 84% 8.3 mph NNW13.4 kmh NNW 12.1 mph19.5 kmh 29.08 in984.8 mb 0.00 in0.0 mm 0.00 in0.0 mm 0.01 in0.3 mm
03:12 PM 41.0°F5.0°C 36.5°F2.5°C 84% 6.9 mph NNW11.1 kmh NNW 12.1 mph19.5 kmh 29.08 in984.8 mb 0.00 in0.0 mm 0.00 in0.0 mm 0.01 in0.3 mm
03:13 PM 41.0°F5.0°C 36.5°F2.5°C 84% 6.9 mph NW11.1 kmh NW 12.1 mph19.5 kmh 29.08 in984.8 mb 0.00 in0.0 mm 0.00 in0.0 mm 0.01 in0.3 mm
03:14 PM 41.0°F5.0°C 36.5°F2.5°C 84% 6.0 mph NW9.7 kmh NW 12.1 mph19.5 kmh 29.08 in984.8 mb 0.00 in0.0 mm 0.00 in0.0 mm 0.01 in0.3 mm
03:15 PM 41.0°F5.0°C 36.5°F2.5°C 84% 3.8 mph NW6.1 kmh NW 12.1 mph19.5 kmh 29.08 in984.8 mb 0.00 in0.0 mm 0.00 in0.0 mm 0.01 in0.3 mm
03:16 PM 41.0°F5.0°C 36.5°F2.5°C 84% 8.3 mph NW13.4 kmh NW 12.1 mph19.5 kmh 29.08 in984.8 mb 0.00 in0.0 mm 0.00 in0.0 mm 0.01 in0.3 mm
03:17 PM 41.0°F5.0°C 36.5°F2.5°C 84% 4.5 mph NW7.2 kmh NW 12.1 mph19.5 kmh 29.08 in984.8 mb 0.00 in0.0 mm 0.00 in0.0 mm 0.01 in0.3 mm
03:18 PM 41.0°F5.0°C 36.5°F2.5°C 84% 5.4 mph NW8.7 kmh NW 12.1 mph19.5 kmh 29.08 in984.8 mb 0.00 in0.0 mm 0.00 in0.0 mm 0.01 in0.3 mm
03:19 PM 41.0°F5.0°C 36.5°F2.5°C 84% 5.4 mph NW8.7 kmh NW 12.1 mph19.5 kmh 29.09 in985.1 mb 0.00 in0.0 mm 0.00 in0.0 mm 0.01 in0.3 mm
03:20 PM 41.0°F5.0°C 36.5°F2.5°C 84% 5.4 mph NW8.7 kmh NW 12.1 mph19.5 kmh 29.08 in984.8 mb 0.00 in0.0 mm 0.00 in0.0 mm 0.01 in0.3 mm
03:21 PM 41.0°F5.0°C 36.5°F2.5°C 84% 4.5 mph NW7.2 kmh NW 11.4 mph18.3 kmh 29.08 in984.8 mb 0.00 in0.0 mm 0.00 in0.0 mm 0.01 in0.3 mm
03:22 PM 41.0°F5.0°C 36.5°F2.5°C 84% 6.9 mph NW11.1 kmh NW 11.4 mph18.3 kmh 29.08 in984.8 mb 0.00 in0.0 mm 0.00 in0.0 mm 0.01 in0.3 mm
03:23 PM 41.0°F5.0°C 36.5°F2.5°C 84% 6.9 mph NW11.1 kmh NW 11.4 mph18.3 kmh 29.09 in985.1 mb 0.00 in0.0 mm 0.00 in0.0 mm 0.01 in0.3 mm
03:24 PM 40.8°F4.9°C 36.4°F2.4°C 84% 6.9 mph NW11.1 kmh NW 11.4 mph18.3 kmh 29.09 in985.1 mb 0.00 in0.0 mm 0.00 in0.0 mm 0.01 in0.3 mm
03:25 PM 40.8°F4.9°C 36.4°F2.4°C 84% 6.9 mph NW11.1 kmh NW 11.4 mph18.3 kmh 29.08 in984.8 mb 0.00 in0.0 mm 0.00 in0.0 mm 0.01 in0.3 mm
03:26 PM 40.8°F4.9°C 36.4°F2.4°C 84% 5.4 mph NW8.7 kmh NW 11.4 mph18.3 kmh 29.08 in984.8 mb 0.00 in0.0 mm 0.00 in0.0 mm 0.01 in0.3 mm
03:27 PM 40.8°F4.9°C 36.4°F2.4°C 84% 6.0 mph NW9.7 kmh NW 9.8 mph15.8 kmh 29.09 in985.1 mb 0.00 in0.0 mm 0.00 in0.0 mm 0.01 in0.3 mm
03:28 PM 40.8°F4.9°C 36.4°F2.4°C 84% 7.6 mph NW12.2 kmh NW 9.8 mph15.8 kmh 29.08 in984.8 mb 0.00 in0.0 mm 0.00 in0.0 mm 0.01 in0.3 mm
03:29 PM 40.8°F4.9°C 36.4°F2.4°C 84% 6.0 mph NW9.7 kmh NW 9.8 mph15.8 kmh 29.08 in984.8 mb 0.00 in0.0 mm 0.00 in0.0 mm 0.01 in0.3 mm
03:30 PM 40.6°F4.8°C 36.2°F2.3°C 84% 8.3 mph NNW13.4 kmh NNW 9.8 mph15.8 kmh 29.08 in984.8 mb 0.00 in0.0 mm 0.00 in0.0 mm 0.01 in0.3 mm
03:31 PM 40.6°F4.8°C 36.2°F2.3°C 84% 7.6 mph NNW12.2 kmh NNW 9.8 mph15.8 kmh 29.08 in984.8 mb 0.00 in0.0 mm 0.00 in0.0 mm 0.01 in0.3 mm
03:32 PM 40.6°F4.8°C 36.2°F2.3°C 84% 6.0 mph NW9.7 kmh NW 9.8 mph15.8 kmh 29.08 in984.8 mb 0.00 in0.0 mm 0.00 in0.0 mm 0.01 in0.3 mm
03:33 PM 40.5°F4.7°C 36.0°F2.2°C 84% 7.6 mph NNW12.2 kmh NNW 9.8 mph15.8 kmh 29.08 in984.8 mb 0.00 in0.0 mm 0.00 in0.0 mm 0.01 in0.3 mm
03:34 PM 40.5°F4.7°C 36.0°F2.2°C 84% 8.3 mph NNW13.4 kmh NNW 9.8 mph15.8 kmh 29.08 in984.8 mb 0.00 in0.0 mm 0.00 in0.0 mm 0.01 in0.3 mm
03:35 PM 40.5°F4.7°C 36.0°F2.2°C 84% 6.9 mph NNW11.1 kmh NNW 9.8 mph15.8 kmh 29.08 in984.8 mb 0.00 in0.0 mm 0.00 in0.0 mm 0.01 in0.3 mm
03:36 PM 40.5°F4.7°C 36.0°F2.2°C 84% 5.4 mph NNW8.7 kmh NNW 9.8 mph15.8 kmh 29.08 in984.8 mb 0.00 in0.0 mm 0.00 in0.0 mm 0.01 in0.3 mm
03:37 PM 40.3°F4.6°C 35.8°F2.1°C 84% 8.3 mph NNW13.4 kmh NNW 9.8 mph15.8 kmh 29.08 in984.8 mb 0.00 in0.0 mm 0.00 in0.0 mm 0.01 in0.3 mm
03:38 PM 40.3°F4.6°C 35.8°F2.1°C 84% 8.3 mph NNW13.4 kmh NNW 9.8 mph15.8 kmh 29.08 in984.8 mb 0.00 in0.0 mm 0.00 in0.0 mm 0.01 in0.3 mm
03:39 PM 40.3°F4.6°C 35.8°F2.1°C 84% 6.9 mph NNW11.1 kmh NNW 9.8 mph15.8 kmh 29.08 in984.8 mb 0.00 in0.0 mm 0.00 in0.0 mm 0.01 in0.3 mm
03:40 PM 40.3°F4.6°C 35.8°F2.1°C 84% 5.4 mph NW8.7 kmh NW 9.8 mph15.8 kmh 29.08 in984.8 mb 0.00 in0.0 mm 0.00 in0.0 mm 0.01 in0.3 mm
03:41 PM 40.3°F4.6°C 35.8°F2.1°C 84% 5.4 mph NW8.7 kmh NW 9.8 mph15.8 kmh 29.08 in984.8 mb 0.00 in0.0 mm 0.00 in0.0 mm 0.01 in0.3 mm
03:42 PM 40.5°F4.7°C 36.0°F2.2°C 84% 8.3 mph NW13.4 kmh NW 9.8 mph15.8 kmh 29.08 in984.8 mb 0.00 in0.0 mm 0.00 in0.0 mm 0.01 in0.3 mm
03:43 PM 40.5°F4.7°C 36.0°F2.2°C 84% 8.3 mph NW13.4 kmh NW 9.8 mph15.8 kmh 29.08 in984.8 mb 0.00 in0.0 mm 0.00 in0.0 mm 0.01 in0.3 mm
03:44 PM 40.5°F4.7°C 36.0°F2.2°C 84% 4.5 mph NW7.2 kmh NW 9.8 mph15.8 kmh 29.08 in984.8 mb 0.00 in0.0 mm 0.00 in0.0 mm 0.01 in0.3 mm
03:45 PM 40.5°F4.7°C 36.0°F2.2°C 84% 8.3 mph NW13.4 kmh NW 9.8 mph15.8 kmh 29.08 in984.8 mb 0.00 in0.0 mm 0.00 in0.0 mm 0.01 in0.3 mm
03:46 PM 40.5°F4.7°C 36.0°F2.2°C 84% 9.8 mph NW15.8 kmh NW 12.1 mph19.5 kmh 29.08 in984.8 mb 0.00 in0.0 mm 0.00 in0.0 mm 0.01 in0.3 mm
03:47 PM 40.5°F4.7°C 36.0°F2.2°C 84% 9.8 mph NW15.8 kmh NW 12.1 mph19.5 kmh 29.08 in984.8 mb 0.00 in0.0 mm 0.00 in0.0 mm 0.01 in0.3 mm
03:48 PM 40.5°F4.7°C 36.0°F2.2°C 84% 6.0 mph NW9.7 kmh NW 12.1 mph19.5 kmh 29.08 in984.8 mb 0.00 in0.0 mm 0.00 in0.0 mm 0.01 in0.3 mm
03:49 PM 40.5°F4.7°C 36.0°F2.2°C 84% 7.6 mph NW12.2 kmh NW 12.1 mph19.5 kmh 29.08 in984.8 mb 0.00 in0.0 mm 0.00 in0.0 mm 0.01 in0.3 mm
03:50 PM 40.5°F4.7°C 36.0°F2.2°C 84% 3.8 mph NW6.1 kmh NW 12.1 mph19.5 kmh 29.08 in984.8 mb 0.00 in0.0 mm 0.00 in0.0 mm 0.01 in0.3 mm
03:51 PM 40.5°F4.7°C 36.0°F2.2°C 84% 3.8 mph NW6.1 kmh NW 12.1 mph19.5 kmh 29.09 in985.1 mb 0.00 in0.0 mm 0.00 in0.0 mm 0.01 in0.3 mm
03:52 PM 40.6°F4.8°C 36.2°F2.3°C 84% 5.4 mph NW8.7 kmh NW 12.1 mph19.5 kmh 29.08 in984.8 mb 0.00 in0.0 mm 0.00 in0.0 mm 0.01 in0.3 mm
03:53 PM 40.6°F4.8°C 36.2°F2.3°C 84% 6.0 mph NW9.7 kmh NW 12.1 mph19.5 kmh 29.08 in984.8 mb 0.00 in0.0 mm 0.00 in0.0 mm 0.01 in0.3 mm
03:54 PM 40.6°F4.8°C 36.2°F2.3°C 84% 6.0 mph NNW9.7 kmh NNW 12.1 mph19.5 kmh 29.09 in985.1 mb 0.00 in0.0 mm 0.00 in0.0 mm 0.01 in0.3 mm
03:55 PM 40.6°F4.8°C 36.2°F2.3°C 84% 6.0 mph NNW9.7 kmh NNW 12.1 mph19.5 kmh 29.08 in984.8 mb 0.00 in0.0 mm 0.00 in0.0 mm 0.01 in0.3 mm
03:56 PM 40.6°F4.8°C 36.2°F2.3°C 84% 4.5 mph NNW7.2 kmh NNW 12.1 mph19.5 kmh 29.09 in985.1 mb 0.00 in0.0 mm 0.00 in0.0 mm 0.01 in0.3 mm
03:57 PM 40.6°F4.8°C 36.2°F2.3°C 84% 6.0 mph NNW9.7 kmh NNW 12.1 mph19.5 kmh 29.08 in984.8 mb 0.00 in0.0 mm 0.00 in0.0 mm 0.01 in0.3 mm
03:58 PM 40.6°F4.8°C 36.2°F2.3°C 84% 5.4 mph NNW8.7 kmh NNW 9.8 mph15.8 kmh 29.08 in984.8 mb 0.00 in0.0 mm 0.00 in0.0 mm 0.01 in0.3 mm
03:59 PM 40.6°F4.8°C 35.9°F2.2°C 83% 4.5 mph NNW7.2 kmh NNW 8.3 mph13.4 kmh 29.08 in984.8 mb 0.00 in0.0 mm 0.00 in0.0 mm 0.01 in0.3 mm
04:00 PM 40.6°F4.8°C 35.9°F2.2°C 83% 7.6 mph NNW12.2 kmh NNW 10.7 mph17.2 kmh 29.08 in984.8 mb 0.00 in0.0 mm 0.00 in0.0 mm 0.01 in0.3 mm
04:01 PM 40.5°F4.7°C 35.7°F2.1°C 83% 6.0 mph NNW9.7 kmh NNW 10.7 mph17.2 kmh 29.08 in984.8 mb 0.00 in0.0 mm 0.00 in0.0 mm 0.01 in0.3 mm
04:02 PM 40.5°F4.7°C 35.7°F2.1°C 83% 6.0 mph NNW9.7 kmh NNW 10.7 mph17.2 kmh 29.08 in984.8 mb 0.00 in0.0 mm 0.00 in0.0 mm 0.01 in0.3 mm
04:03 PM 40.5°F4.7°C 35.7°F2.1°C 83% 6.0 mph N9.7 kmh N 10.7 mph17.2 kmh 29.08 in984.8 mb 0.00 in0.0 mm 0.00 in0.0 mm 0.01 in0.3 mm
04:04 PM 40.5°F4.7°C 35.7°F2.1°C 83% 6.0 mph N9.7 kmh N 10.7 mph17.2 kmh 29.09 in985.1 mb 0.00 in0.0 mm 0.00 in0.0 mm 0.01 in0.3 mm
04:05 PM 40.5°F4.7°C 35.7°F2.1°C 83% 6.0 mph N9.7 kmh N 10.7 mph17.2 kmh 29.08 in984.8 mb 0.00 in0.0 mm 0.00 in0.0 mm 0.01 in0.3 mm
04:06 PM 40.5°F4.7°C 35.7°F2.1°C 83% 6.0 mph NNE9.7 kmh NNE 10.7 mph17.2 kmh 29.08 in984.8 mb 0.00 in0.0 mm 0.00 in0.0 mm 0.01 in0.3 mm
04:07 PM 40.3°F4.6°C 35.5°F1.9°C 83% 6.0 mph NNE9.7 kmh NNE 10.7 mph17.2 kmh 29.08 in984.8 mb 0.00 in0.0 mm 0.00 in0.0 mm 0.01 in0.3 mm
04:08 PM 40.3°F4.6°C 35.5°F1.9°C 83% 4.5 mph NNE7.2 kmh NNE 10.7 mph17.2 kmh 29.08 in984.8 mb 0.00 in0.0 mm 0.00 in0.0 mm 0.01 in0.3 mm
04:09 PM 40.3°F4.6°C 35.5°F1.9°C 83% 3.8 mph NNE6.1 kmh NNE 10.7 mph17.2 kmh 29.09 in985.1 mb 0.00 in0.0 mm 0.00 in0.0 mm 0.01 in0.3 mm
04:10 PM 40.3°F4.6°C 35.5°F1.9°C 83% 6.9 mph NNE11.1 kmh NNE 10.7 mph17.2 kmh 29.09 in985.1 mb 0.00 in0.0 mm 0.00 in0.0 mm 0.01 in0.3 mm
04:11 PM 40.3°F4.6°C 35.5°F1.9°C 83% 6.9 mph NNE11.1 kmh NNE 9.2 mph14.8 kmh 29.09 in985.1 mb 0.00 in0.0 mm 0.00 in0.0 mm 0.01 in0.3 mm
04:12 PM 40.3°F4.6°C 35.5°F1.9°C 83% 6.9 mph NNE11.1 kmh NNE 10.7 mph17.2 kmh 29.08 in984.8 mb 0.00 in0.0 mm 0.00 in0.0 mm 0.01 in0.3 mm
04:13 PM 40.3°F4.6°C 35.5°F1.9°C 83% 7.6 mph N12.2 kmh N 10.7 mph17.2 kmh 29.09 in985.1 mb 0.00 in0.0 mm 0.00 in0.0 mm 0.01 in0.3 mm
04:14 PM 40.3°F4.6°C 35.5°F1.9°C 83% 7.6 mph N12.2 kmh N 10.7 mph17.2 kmh 29.09 in985.1 mb 0.00 in0.0 mm 0.00 in0.0 mm 0.01 in0.3 mm
04:15 PM 40.3°F4.6°C 35.5°F1.9°C 83% 6.9 mph N11.1 kmh N 10.7 mph17.2 kmh 29.09 in985.1 mb 0.00 in0.0 mm 0.00 in0.0 mm 0.01 in0.3 mm
04:16 PM 40.1°F4.5°C 35.4°F1.9°C 83% 9.2 mph N14.8 kmh N 11.4 mph18.3 kmh 29.08 in984.8 mb 0.00 in0.0 mm 0.00 in0.0 mm 0.01 in0.3 mm
04:17 PM 40.1°F4.5°C 35.4°F1.9°C 83% 9.8 mph N15.8 kmh N 11.4 mph18.3 kmh 29.09 in985.1 mb 0.00 in0.0 mm 0.00 in0.0 mm 0.01 in0.3 mm
04:18 PM 40.1°F4.5°C 35.4°F1.9°C 83% 6.0 mph NNW9.7 kmh NNW 11.4 mph18.3 kmh 29.08 in984.8 mb 0.00 in0.0 mm 0.00 in0.0 mm 0.01 in0.3 mm
04:19 PM 39.9°F4.4°C 35.2°F1.8°C 83% 9.2 mph NNW14.8 kmh NNW 13.0 mph20.9 kmh 29.09 in985.1 mb 0.00 in0.0 mm 0.00 in0.0 mm 0.01 in0.3 mm
04:20 PM 39.9°F4.4°C 35.2°F1.8°C 83% 6.9 mph N11.1 kmh N 13.0 mph20.9 kmh 29.09 in985.1 mb 0.00 in0.0 mm 0.00 in0.0 mm 0.01 in0.3 mm
04:21 PM 39.9°F4.4°C 35.2°F1.8°C 83% 7.6 mph NNW12.2 kmh NNW 13.0 mph20.9 kmh 29.09 in985.1 mb 0.00 in0.0 mm 0.00 in0.0 mm 0.01 in0.3 mm
04:22 PM 39.9°F4.4°C 35.2°F1.8°C 83% 6.9 mph N11.1 kmh N 13.0 mph20.9 kmh 29.09 in985.1 mb 0.00 in0.0 mm 0.00 in0.0 mm 0.01 in0.3 mm
04:23 PM 39.9°F4.4°C 35.2°F1.8°C 83% 6.9 mph N11.1 kmh N 13.0 mph20.9 kmh 29.08 in984.8 mb 0.00 in0.0 mm 0.00 in0.0 mm 0.01 in0.3 mm
04:24 PM 39.9°F4.4°C 35.2°F1.8°C 83% 5.4 mph N8.7 kmh N 13.0 mph20.9 kmh 29.08 in984.8 mb 0.00 in0.0 mm 0.00 in0.0 mm 0.01 in0.3 mm
04:25 PM 39.9°F4.4°C 35.2°F1.8°C 83% 4.5 mph N7.2 kmh N 13.0 mph20.9 kmh 29.09 in985.1 mb 0.00 in0.0 mm 0.00 in0.0 mm 0.01 in0.3 mm
04:26 PM 39.9°F4.4°C 35.2°F1.8°C 83% 7.6 mph NNW12.2 kmh NNW 13.0 mph20.9 kmh 29.09 in985.1 mb 0.00 in0.0 mm 0.00 in0.0 mm 0.01 in0.3 mm
04:27 PM 39.9°F4.4°C 35.2°F1.8°C 83% 7.6 mph NNW12.2 kmh NNW 13.0 mph20.9 kmh 29.08 in984.8 mb 0.00 in0.0 mm 0.00 in0.0 mm 0.01 in0.3 mm
04:28 PM 39.9°F4.4°C 35.2°F1.8°C 83% 6.0 mph NNW9.7 kmh NNW 13.0 mph20.9 kmh 29.08 in984.8 mb 0.00 in0.0 mm 0.00 in0.0 mm 0.01 in0.3 mm
04:29 PM 39.9°F4.4°C 35.2°F1.8°C 83% 6.0 mph NNW9.7 kmh NNW 13.0 mph20.9 kmh 29.08 in984.8 mb 0.00 in0.0 mm 0.00 in0.0 mm 0.01 in0.3 mm
04:30 PM 39.9°F4.4°C 35.2°F1.8°C 83% 6.0 mph NNW9.7 kmh NNW 12.1 mph19.5 kmh 29.09 in985.1 mb 0.00 in0.0 mm 0.00 in0.0 mm 0.01 in0.3 mm
04:31 PM 39.9°F4.4°C 35.2°F1.8°C 83% 9.2 mph NNW14.8 kmh NNW 12.1 mph19.5 kmh 29.08 in984.8 mb 0.00 in0.0 mm 0.00 in0.0 mm 0.01 in0.3 mm
04:32 PM 39.9°F4.4°C 35.2°F1.8°C 83% 8.3 mph NW13.4 kmh NW 11.4 mph18.3 kmh 29.09 in985.1 mb 0.00 in0.0 mm 0.00 in0.0 mm 0.01 in0.3 mm
04:33 PM 39.7°F4.3°C 35.0°F1.7°C 83% 9.2 mph NW14.8 kmh NW 11.4 mph18.3 kmh 29.09 in985.1 mb 0.00 in0.0 mm 0.00 in0.0 mm 0.01 in0.3 mm
04:34 PM 39.7°F4.3°C 34.7°F1.5°C 82% 6.0 mph NW9.7 kmh NW 11.4 mph18.3 kmh 29.09 in985.1 mb 0.00 in0.0 mm 0.00 in0.0 mm 0.01 in0.3 mm
04:35 PM 39.7°F4.3°C 34.7°F1.5°C 82% 8.3 mph NW13.4 kmh NW 11.4 mph18.3 kmh 29.09 in985.1 mb 0.00 in0.0 mm 0.00 in0.0 mm 0.01 in0.3 mm
04:36 PM 39.7°F4.3°C 34.7°F1.5°C 82% 6.0 mph NW9.7 kmh NW 11.4 mph18.3 kmh 29.08 in984.8 mb 0.00 in0.0 mm 0.00 in0.0 mm 0.01 in0.3 mm
04:37 PM 39.7°F4.3°C 34.7°F1.5°C 82% 6.0 mph NNW9.7 kmh NNW 11.4 mph18.3 kmh 29.09 in985.1 mb 0.00 in0.0 mm 0.00 in0.0 mm 0.01 in0.3 mm
04:38 PM 39.7°F4.3°C 34.7°F1.5°C 82% 5.4 mph NW8.7 kmh NW 11.4 mph18.3 kmh 29.09 in985.1 mb 0.00 in0.0 mm 0.00 in0.0 mm 0.01 in0.3 mm
04:39 PM 39.7°F4.3°C 34.7°F1.5°C 82% 5.4 mph NW8.7 kmh NW 11.4 mph18.3 kmh 29.09 in985.1 mb 0.00 in0.0 mm 0.00 in0.0 mm 0.01 in0.3 mm
04:40 PM 39.7°F4.3°C 35.0°F1.7°C 83% 8.3 mph NW13.4 kmh NW 11.4 mph18.3 kmh 29.09 in985.1 mb 0.00 in0.0 mm 0.00 in0.0 mm 0.01 in0.3 mm
04:41 PM 39.7°F4.3°C 35.0°F1.7°C 83% 9.2 mph NW14.8 kmh NW 11.4 mph18.3 kmh 29.09 in985.1 mb 0.00 in0.0 mm 0.00 in0.0 mm 0.01 in0.3 mm
04:42 PM 39.7°F4.3°C 34.7°F1.5°C 82% 8.3 mph NW13.4 kmh NW 12.1 mph19.5 kmh 29.09 in985.1 mb 0.00 in0.0 mm 0.00 in0.0 mm 0.01 in0.3 mm
04:43 PM 39.7°F4.3°C 34.7°F1.5°C 82% 7.6 mph NW12.2 kmh NW 12.1 mph19.5 kmh 29.09 in985.1 mb 0.00 in0.0 mm 0.00 in0.0 mm 0.01 in0.3 mm
04:44 PM 39.7°F4.3°C 34.7°F1.5°C 82% 8.3 mph NW13.4 kmh NW 12.1 mph19.5 kmh 29.09 in985.1 mb 0.00 in0.0 mm 0.00 in0.0 mm 0.01 in0.3 mm
04:45 PM 39.6°F4.2°C 34.5°F1.4°C 82% 6.0 mph NW9.7 kmh NW 12.1 mph19.5 kmh 29.09 in985.1 mb 0.00 in0.0 mm 0.00 in0.0 mm 0.01 in0.3 mm
04:46 PM 39.6°F4.2°C 34.5°F1.4°C 82% 7.6 mph NW12.2 kmh NW 12.1 mph19.5 kmh 29.08 in984.8 mb 0.00 in0.0 mm 0.00 in0.0 mm 0.01 in0.3 mm
04:47 PM 39.6°F4.2°C 34.5°F1.4°C 82% 6.9 mph NW11.1 kmh NW 12.1 mph19.5 kmh 29.09 in985.1 mb 0.00 in0.0 mm 0.00 in0.0 mm 0.01 in0.3 mm
04:48 PM 39.6°F4.2°C 34.5°F1.4°C 82% 6.0 mph NW9.7 kmh NW 12.1 mph19.5 kmh 29.08 in984.8 mb 0.00 in0.0 mm 0.00 in0.0 mm 0.01 in0.3 mm
04:49 PM 39.6°F4.2°C 34.5°F1.4°C 82% 6.9 mph NW11.1 kmh NW 12.1 mph19.5 kmh 29.09 in985.1 mb 0.00 in0.0 mm 0.00 in0.0 mm 0.01 in0.3 mm
04:50 PM 39.6°F4.2°C 34.5°F1.4°C 82% 6.0 mph NW9.7 kmh NW 12.1 mph19.5 kmh 29.08 in984.8 mb 0.00 in0.0 mm 0.00 in0.0 mm 0.01 in0.3 mm
04:51 PM 39.6°F4.2°C 34.5°F1.4°C 82% 6.0 mph NW9.7 kmh NW 12.1 mph19.5 kmh 29.09 in985.1 mb 0.00 in0.0 mm 0.00 in0.0 mm 0.01 in0.3 mm
04:52 PM 39.6°F4.2°C 34.5°F1.4°C 82% 6.9 mph NW11.1 kmh NW 12.1 mph19.5 kmh 29.08 in984.8 mb 0.00 in0.0 mm 0.00 in0.0 mm 0.01 in0.3 mm
04:53 PM 39.6°F4.2°C 34.5°F1.4°C 82% 4.5 mph NW7.2 kmh NW 10.7 mph17.2 kmh 29.09 in985.1 mb 0.00 in0.0 mm 0.00 in0.0 mm 0.01 in0.3 mm
04:54 PM 39.7°F4.3°C 34.7°F1.5°C 82% 6.9 mph NW11.1 kmh NW 10.7 mph17.2 kmh 29.09 in985.1 mb 0.00 in0.0 mm 0.00 in0.0 mm 0.01 in0.3 mm
04:55 PM 39.7°F4.3°C 34.7°F1.5°C 82% 3.8 mph NW6.1 kmh NW 9.8 mph15.8 kmh 29.09 in985.1 mb 0.00 in0.0 mm 0.00 in0.0 mm 0.01 in0.3 mm
04:56 PM 39.7°F4.3°C 34.7°F1.5°C 82% 3.8 mph NW6.1 kmh NW 9.8 mph15.8 kmh 29.09 in985.1 mb 0.00 in0.0 mm 0.00 in0.0 mm 0.01 in0.3 mm
04:57 PM 39.9°F4.4°C 34.9°F1.6°C 82% 4.5 mph NW7.2 kmh NW 9.8 mph15.8 kmh 29.09 in985.1 mb 0.00 in0.0 mm 0.00 in0.0 mm 0.01 in0.3 mm
04:58 PM 40.1°F4.5°C 35.0°F1.7°C 82% 3.1 mph NW5.0 kmh NW 9.8 mph15.8 kmh 29.09 in985.1 mb 0.00 in0.0 mm 0.00 in0.0 mm 0.01 in0.3 mm
04:59 PM 40.1°F4.5°C 35.0°F1.7°C 82% 4.5 mph NW7.2 kmh NW 9.2 mph14.8 kmh 29.08 in984.8 mb 0.00 in0.0 mm 0.00 in0.0 mm 0.01 in0.3 mm
05:00 PM 40.1°F4.5°C 35.0°F1.7°C 82% 3.1 mph NW5.0 kmh NW 9.2 mph14.8 kmh 29.09 in985.1 mb 0.00 in0.0 mm 0.00 in0.0 mm 0.01 in0.3 mm
05:01 PM 40.1°F4.5°C 35.0°F1.7°C 82% 3.1 mph NW5.0 kmh NW 9.2 mph14.8 kmh 29.09 in985.1 mb 0.00 in0.0 mm 0.00 in0.0 mm 0.01 in0.3 mm
05:02 PM 40.1°F4.5°C 35.0°F1.7°C 82% 7.6 mph NNW12.2 kmh NNW 9.2 mph14.8 kmh 29.09 in985.1 mb 0.00 in0.0 mm 0.00 in0.0 mm 0.01 in0.3 mm
05:03 PM 40.1°F4.5°C 35.0°F1.7°C 82% 3.8 mph N6.1 kmh N 9.2 mph14.8 kmh 29.09 in985.1 mb 0.00 in0.0 mm 0.00 in0.0 mm 0.01 in0.3 mm
05:04 PM 40.1°F4.5°C 34.7°F1.5°C 81% 5.4 mph N8.7 kmh N 9.2 mph14.8 kmh 29.09 in985.1 mb 0.00 in0.0 mm 0.00 in0.0 mm 0.01 in0.3 mm
05:05 PM 40.1°F4.5°C 34.7°F1.5°C 81% 5.4 mph N8.7 kmh N 9.2 mph14.8 kmh 29.09 in985.1 mb 0.00 in0.0 mm 0.00 in0.0 mm 0.01 in0.3 mm
05:06 PM 40.1°F4.5°C 34.7°F1.5°C 81% 4.5 mph N7.2 kmh N 9.2 mph14.8 kmh 29.09 in985.1 mb 0.00 in0.0 mm 0.00 in0.0 mm 0.01 in0.3 mm
05:07 PM 40.1°F4.5°C 34.7°F1.5°C 81% 3.8 mph N6.1 kmh N 9.2 mph14.8 kmh 29.09 in985.1 mb 0.00 in0.0 mm 0.00 in0.0 mm 0.01 in0.3 mm
05:08 PM 40.1°F4.5°C 34.7°F1.5°C 81% 2.2 mph N3.5 kmh N 9.2 mph14.8 kmh 29.09 in985.1 mb 0.00 in0.0 mm 0.00 in0.0 mm 0.01 in0.3 mm
05:09 PM 40.3°F4.6°C 34.9°F1.6°C 81% 6.0 mph N9.7 kmh N 9.2 mph14.8 kmh 29.09 in985.1 mb 0.00 in0.0 mm 0.00 in0.0 mm 0.01 in0.3 mm
05:10 PM 40.1°F4.5°C 34.7°F1.5°C 81% 7.6 mph N12.2 kmh N 9.2 mph14.8 kmh 29.09 in985.1 mb 0.00 in0.0 mm 0.00 in0.0 mm 0.01 in0.3 mm
05:11 PM 40.1°F4.5°C 34.7°F1.5°C 81% 7.6 mph N12.2 kmh N 10.7 mph17.2 kmh 29.09 in985.1 mb 0.00 in0.0 mm 0.00 in0.0 mm 0.01 in0.3 mm
05:12 PM 40.1°F4.5°C 34.7°F1.5°C 81% 5.4 mph N8.7 kmh N 10.7 mph17.2 kmh 29.09 in985.1 mb 0.00 in0.0 mm 0.00 in0.0 mm 0.01 in0.3 mm
05:13 PM 39.9°F4.4°C 34.2°F1.2°C 80% 7.6 mph NNW12.2 kmh NNW 10.7 mph17.2 kmh 29.09 in985.1 mb 0.00 in0.0 mm 0.00 in0.0 mm 0.01 in0.3 mm
05:14 PM 40.1°F4.5°C 34.4°F1.3°C 80% 3.1 mph N5.0 kmh N 10.7 mph17.2 kmh 29.09 in985.1 mb 0.00 in0.0 mm 0.00 in0.0 mm 0.01 in0.3 mm
05:15 PM 40.1°F4.5°C 34.4°F1.3°C 80% 4.5 mph NNW7.2 kmh NNW 10.7 mph17.2 kmh 29.09 in985.1 mb 0.00 in0.0 mm 0.00 in0.0 mm 0.01 in0.3 mm
05:16 PM 40.1°F4.5°C 34.4°F1.3°C 80% 4.5 mph NNW7.2 kmh NNW 10.7 mph17.2 kmh 29.09 in985.1 mb 0.00 in0.0 mm 0.00 in0.0 mm 0.01 in0.3 mm
05:17 PM 39.9°F4.4°C 34.2°F1.2°C 80% 6.0 mph NNW9.7 kmh NNW 10.7 mph17.2 kmh 29.09 in985.1 mb 0.00 in0.0 mm 0.00 in0.0 mm 0.01 in0.3 mm
05:18 PM 39.9°F4.4°C 34.2°F1.2°C 80% 5.4 mph N8.7 kmh N 10.7 mph17.2 kmh 29.09 in985.1 mb 0.00 in0.0 mm 0.00 in0.0 mm 0.01 in0.3 mm
05:19 PM 39.9°F4.4°C 34.2°F1.2°C 80% 5.4 mph NNW8.7 kmh NNW 10.7 mph17.2 kmh 29.09 in985.1 mb 0.00 in0.0 mm 0.00 in0.0 mm 0.01 in0.3 mm
05:20 PM 39.7°F4.3°C 34.1°F1.2°C 80% 4.5 mph N7.2 kmh N 10.7 mph17.2 kmh 29.09 in985.1 mb 0.00 in0.0 mm 0.00 in0.0 mm 0.01 in0.3 mm
05:21 PM 39.7°F4.3°C 34.1°F1.2°C 80% 3.8 mph N6.1 kmh N 10.7 mph17.2 kmh 29.09 in985.1 mb 0.00 in0.0 mm 0.00 in0.0 mm 0.01 in0.3 mm
05:22 PM 39.7°F4.3°C 34.1°F1.2°C 80% 3.8 mph N6.1 kmh N 10.7 mph17.2 kmh 29.09 in985.1 mb 0.00 in0.0 mm 0.00 in0.0 mm 0.01 in0.3 mm
05:23 PM 39.7°F4.3°C 34.1°F1.2°C 80% 5.4 mph N8.7 kmh N 8.3 mph13.4 kmh 29.09 in985.1 mb 0.00 in0.0 mm 0.00 in0.0 mm 0.01 in0.3 mm
05:24 PM 39.7°F4.3°C 34.1°F1.2°C 80% 5.4 mph NNW8.7 kmh NNW 6.9 mph11.1 kmh 29.09 in985.1 mb 0.00 in0.0 mm 0.00 in0.0 mm 0.01 in0.3 mm
05:25 PM 39.6°F4.2°C 33.9°F1.1°C 80% 7.6 mph NNW12.2 kmh NNW 9.8 mph15.8 kmh 29.09 in985.1 mb 0.00 in0.0 mm 0.00 in0.0 mm 0.01 in0.3 mm
05:26 PM 39.6°F4.2°C 33.9°F1.1°C 80% 4.5 mph NNW7.2 kmh NNW 9.8 mph15.8 kmh 29.09 in985.1 mb 0.00 in0.0 mm 0.00 in0.0 mm 0.01 in0.3 mm
05:27 PM 39.4°F4.1°C 33.7°F0.9°C 80% 3.8 mph NNW6.1 kmh NNW 9.8 mph15.8 kmh 29.09 in985.1 mb 0.00 in0.0 mm 0.00 in0.0 mm 0.01 in0.3 mm
05:28 PM 39.6°F4.2°C 33.9°F1.1°C 80% 3.1 mph NW5.0 kmh NW 9.8 mph15.8 kmh 29.09 in985.1 mb 0.00 in0.0 mm 0.00 in0.0 mm 0.01 in0.3 mm
05:29 PM 39.6°F4.2°C 33.9°F1.1°C 80% 3.1 mph NW5.0 kmh NW 9.8 mph15.8 kmh 29.09 in985.1 mb 0.00 in0.0 mm 0.00 in0.0 mm 0.01 in0.3 mm
05:30 PM 39.7°F4.3°C 34.1°F1.2°C 80% 6.9 mph NW11.1 kmh NW 9.8 mph15.8 kmh 29.10 in985.4 mb 0.00 in0.0 mm 0.00 in0.0 mm 0.01 in0.3 mm
05:31 PM 39.6°F4.2°C 33.9°F1.1°C 80% 6.0 mph NW9.7 kmh NW 9.8 mph15.8 kmh 29.09 in985.1 mb 0.00 in0.0 mm 0.00 in0.0 mm 0.01 in0.3 mm
05:32 PM 39.6°F4.2°C 33.9°F1.1°C 80% 6.0 mph NW9.7 kmh NW 9.8 mph15.8 kmh 29.09 in985.1 mb 0.00 in0.0 mm 0.00 in0.0 mm 0.01 in0.3 mm
05:33 PM 39.6°F4.2°C 33.9°F1.1°C 80% 5.4 mph NNW8.7 kmh NNW 9.8 mph15.8 kmh 29.10 in985.4 mb 0.00 in0.0 mm 0.00 in0.0 mm 0.01 in0.3 mm
05:34 PM 39.4°F4.1°C 33.7°F0.9°C 80% 6.0 mph N9.7 kmh N 9.8 mph15.8 kmh 29.09 in985.1 mb 0.00 in0.0 mm 0.00 in0.0 mm 0.01 in0.3 mm
05:35 PM 39.4°F4.1°C 33.7°F0.9°C 80% 5.4 mph N8.7 kmh N 9.8 mph15.8 kmh 29.10 in985.4 mb 0.00 in0.0 mm 0.00 in0.0 mm 0.01 in0.3 mm
05:36 PM 39.4°F4.1°C 33.7°F0.9°C 80% 3.8 mph N6.1 kmh N 8.3 mph13.4 kmh 29.09 in985.1 mb 0.00 in0.0 mm 0.00 in0.0 mm 0.01 in0.3 mm
05:37 PM 39.4°F4.1°C 33.7°F0.9°C 80% 6.9 mph N11.1 kmh N 8.3 mph13.4 kmh 29.09 in985.1 mb 0.00 in0.0 mm 0.00 in0.0 mm 0.01 in0.3 mm
05:38 PM 39.2°F4.0°C 33.5°F0.8°C 80% 6.9 mph NNW11.1 kmh NNW 8.3 mph13.4 kmh 29.10 in985.4 mb 0.00 in0.0 mm 0.00 in0.0 mm 0.01 in0.3 mm
05:39 PM 39.0°F3.9°C 33.4°F0.8°C 80% 6.0 mph NNW9.7 kmh NNW 9.2 mph14.8 kmh 29.09 in985.1 mb 0.00 in0.0 mm 0.00 in0.0 mm 0.01 in0.3 mm
05:40 PM 38.8°F3.8°C 33.2°F0.7°C 80% 7.6 mph NW12.2 kmh NW 10.7 mph17.2 kmh 29.10 in985.4 mb 0.00 in0.0 mm 0.00 in0.0 mm 0.01 in0.3 mm
05:41 PM 38.7°F3.7°C 33.0°F0.6°C 80% 6.9 mph NW11.1 kmh NW 10.7 mph17.2 kmh 29.10 in985.4 mb 0.00 in0.0 mm 0.00 in0.0 mm 0.01 in0.3 mm
05:42 PM 38.5°F3.6°C 32.8°F0.4°C 80% 4.5 mph NW7.2 kmh NW 11.4 mph18.3 kmh 29.09 in985.1 mb 0.00 in0.0 mm 0.00 in0.0 mm 0.01 in0.3 mm
05:43 PM 38.5°F3.6°C 32.8°F0.4°C 80% 5.4 mph NW8.7 kmh NW 11.4 mph18.3 kmh 29.10 in985.4 mb 0.00 in0.0 mm 0.00 in0.0 mm 0.01 in0.3 mm
05:44 PM 38.5°F3.6°C 32.8°F0.4°C 80% 6.0 mph NW9.7 kmh NW 11.4 mph18.3 kmh 29.10 in985.4 mb 0.00 in0.0 mm 0.00 in0.0 mm 0.01 in0.3 mm
05:45 PM 38.5°F3.6°C 32.8°F0.4°C 80% 7.6 mph NW12.2 kmh NW 11.4 mph18.3 kmh 29.10 in985.4 mb 0.00 in0.0 mm 0.00 in0.0 mm 0.01 in0.3 mm
05:46 PM 38.5°F3.6°C 32.8°F0.4°C 80% 6.9 mph NW11.1 kmh NW 12.1 mph19.5 kmh 29.10 in985.4 mb 0.00 in0.0 mm 0.00 in0.0 mm 0.01 in0.3 mm
05:47 PM 38.3°F3.5°C 32.7°F0.4°C 80% 6.0 mph NW9.7 kmh NW 12.1 mph19.5 kmh 29.10 in985.4 mb 0.00 in0.0 mm 0.00 in0.0 mm 0.01 in0.3 mm
05:48 PM 38.3°F3.5°C 32.7°F0.4°C 80% 6.0 mph NNW9.7 kmh NNW 12.1 mph19.5 kmh 29.10 in985.4 mb 0.00 in0.0 mm 0.00 in0.0 mm 0.01 in0.3 mm
05:49 PM 38.5°F3.6°C 33.2°F0.7°C 81% 3.8 mph NNW6.1 kmh NNW 12.1 mph19.5 kmh 29.10 in985.4 mb 0.00 in0.0 mm 0.00 in0.0 mm 0.01 in0.3 mm
05:50 PM 38.5°F3.6°C 33.2°F0.7°C 81% 4.5 mph NNW7.2 kmh NNW 12.1 mph19.5 kmh 29.10 in985.4 mb 0.00 in0.0 mm 0.00 in0.0 mm 0.01 in0.3 mm
05:51 PM 38.5°F3.6°C 33.2°F0.7°C 81% 4.5 mph NNW7.2 kmh NNW 12.1 mph19.5 kmh 29.10 in985.4 mb 0.00 in0.0 mm 0.00 in0.0 mm 0.01 in0.3 mm
05:52 PM 38.3°F3.5°C 33.0°F0.6°C 81% 6.9 mph N11.1 kmh N 12.1 mph19.5 kmh 29.10 in985.4 mb 0.00 in0.0 mm 0.00 in0.0 mm 0.01 in0.3 mm
05:53 PM 38.3°F3.5°C 33.0°F0.6°C 81% 6.0 mph NNW9.7 kmh NNW 12.1 mph19.5 kmh 29.10 in985.4 mb 0.00 in0.0 mm 0.00 in0.0 mm 0.01 in0.3 mm
05:54 PM 38.1°F3.4°C 32.8°F0.4°C 81% 5.4 mph NNW8.7 kmh NNW 12.1 mph19.5 kmh 29.10 in985.4 mb 0.00 in0.0 mm 0.00 in0.0 mm 0.01 in0.3 mm
05:55 PM 37.9°F3.3°C 32.6°F0.3°C 81% 7.6 mph NNW12.2 kmh NNW 12.1 mph19.5 kmh 29.10 in985.4 mb 0.00 in0.0 mm 0.00 in0.0 mm 0.01 in0.3 mm
05:56 PM 37.9°F3.3°C 32.6°F0.3°C 81% 7.6 mph NNW12.2 kmh NNW 9.8 mph15.8 kmh 29.10 in985.4 mb 0.00 in0.0 mm 0.00 in0.0 mm 0.01 in0.3 mm
05:57 PM 37.9°F3.3°C 32.6°F0.3°C 81% 7.6 mph NNW12.2 kmh NNW 9.8 mph15.8 kmh 29.10 in985.4 mb 0.00 in0.0 mm 0.00 in0.0 mm 0.01 in0.3 mm
05:58 PM 37.9°F3.3°C 32.6°F0.3°C 81% 7.6 mph NNW12.2 kmh NNW 9.8 mph15.8 kmh 29.10 in985.4 mb 0.00 in0.0 mm 0.00 in0.0 mm 0.01 in0.3 mm
05:59 PM 37.9°F3.3°C 32.6°F0.3°C 81% 6.9 mph NNW11.1 kmh NNW 9.8 mph15.8 kmh 29.10 in985.4 mb 0.00 in0.0 mm 0.00 in0.0 mm 0.01 in0.3 mm
06:00 PM 37.8°F3.2°C 32.5°F0.3°C 81% 9.8 mph NNW15.8 kmh NNW 12.1 mph19.5 kmh 29.10 in985.4 mb 0.00 in0.0 mm 0.00 in0.0 mm 0.01 in0.3 mm
06:01 PM 37.8°F3.2°C 32.5°F0.3°C 81% 10.7 mph NNW17.2 kmh NNW 12.1 mph19.5 kmh 29.10 in985.4 mb 0.00 in0.0 mm 0.00 in0.0 mm 0.01 in0.3 mm
06:02 PM 37.8°F3.2°C 32.5°F0.3°C 81% 10.7 mph NNW17.2 kmh NNW 12.1 mph19.5 kmh 29.10 in985.4 mb 0.00 in0.0 mm 0.00 in0.0 mm 0.01 in0.3 mm
06:03 PM 37.8°F3.2°C 32.5°F0.3°C 81% 10.7 mph NNW17.2 kmh NNW 12.1 mph19.5 kmh 29.10 in985.4 mb 0.00 in0.0 mm 0.00 in0.0 mm 0.01 in0.3 mm
06:04 PM 37.8°F3.2°C 32.5°F0.3°C 81% 10.7 mph NNW17.2 kmh NNW 12.1 mph19.5 kmh 29.10 in985.4 mb 0.00 in0.0 mm 0.00 in0.0 mm 0.01 in0.3 mm
06:05 PM 37.8°F3.2°C 32.5°F0.3°C 81% 10.7 mph NNW17.2 kmh NNW 12.1 mph19.5 kmh 29.10 in985.4 mb 0.00 in0.0 mm 0.00 in0.0 mm 0.01 in0.3 mm
06:06 PM 37.8°F3.2°C 32.5°F0.3°C 81% 10.7 mph NW17.2 kmh NW 12.1 mph19.5 kmh 29.10 in985.4 mb 0.00 in0.0 mm 0.00 in0.0 mm 0.01 in0.3 mm
06:07 PM 37.8°F3.2°C 32.5°F0.3°C 81% 10.7 mph NW17.2 kmh NW 12.1 mph19.5 kmh 29.10 in985.4 mb 0.00 in0.0 mm 0.00 in0.0 mm 0.01 in0.3 mm
06:08 PM 37.8°F3.2°C 32.8°F0.4°C 82% 8.3 mph NW13.4 kmh NW 12.1 mph19.5 kmh 29.10 in985.4 mb 0.00 in0.0 mm 0.00 in0.0 mm 0.01 in0.3 mm
06:09 PM 37.8°F3.2°C 32.8°F0.4°C 82% 6.9 mph NW11.1 kmh NW 12.1 mph19.5 kmh 29.10 in985.4 mb 0.00 in0.0 mm 0.00 in0.0 mm 0.01 in0.3 mm
06:10 PM 37.6°F3.1°C 32.6°F0.3°C 82% 5.4 mph NW8.7 kmh NW 12.1 mph19.5 kmh 29.10 in985.4 mb 0.00 in0.0 mm 0.00 in0.0 mm 0.01 in0.3 mm
06:11 PM 37.8°F3.2°C 32.8°F0.4°C 82% 5.4 mph NW8.7 kmh NW 12.1 mph19.5 kmh 29.10 in985.4 mb 0.00 in0.0 mm 0.00 in0.0 mm 0.01 in0.3 mm
06:12 PM 37.8°F3.2°C 32.8°F0.4°C 82% 3.8 mph NW6.1 kmh NW 12.1 mph19.5 kmh 29.10 in985.4 mb 0.00 in0.0 mm 0.00 in0.0 mm 0.01 in0.3 mm
06:13 PM 37.8°F3.2°C 32.8°F0.4°C 82% 8.3 mph NW13.4 kmh NW 12.1 mph19.5 kmh 29.09 in985.1 mb 0.00 in0.0 mm 0.00 in0.0 mm 0.01 in0.3 mm
06:14 PM 37.8°F3.2°C 32.8°F0.4°C 82% 6.0 mph NW9.7 kmh NW 12.1 mph19.5 kmh 29.10 in985.4 mb 0.00 in0.0 mm 0.00 in0.0 mm 0.01 in0.3 mm
06:15 PM 37.8°F3.2°C 32.5°F0.3°C 81% 6.0 mph NW9.7 kmh NW 12.1 mph19.5 kmh 29.10 in985.4 mb 0.00 in0.0 mm 0.00 in0.0 mm 0.01 in0.3 mm
06:16 PM 37.8°F3.2°C 32.5°F0.3°C 81% 6.0 mph NW9.7 kmh NW 12.1 mph19.5 kmh 29.10 in985.4 mb 0.00 in0.0 mm 0.00 in0.0 mm 0.01 in0.3 mm
06:17 PM 37.6°F3.1°C 32.3°F0.2°C 81% 4.5 mph NW7.2 kmh NW 12.1 mph19.5 kmh 29.10 in985.4 mb 0.00 in0.0 mm 0.00 in0.0 mm 0.01 in0.3 mm
06:18 PM 37.6°F3.1°C 32.3°F0.2°C 81% 7.6 mph NW12.2 kmh NW 11.4 mph18.3 kmh 29.10 in985.4 mb 0.00 in0.0 mm 0.00 in0.0 mm 0.01 in0.3 mm
06:19 PM 37.4°F3.0°C 32.1°F0.1°C 81% 9.8 mph NW15.8 kmh NW 11.4 mph18.3 kmh 29.10 in985.4 mb 0.00 in0.0 mm 0.00 in0.0 mm 0.01 in0.3 mm
06:20 PM 37.4°F3.0°C 32.1°F0.1°C 81% 6.0 mph NW9.7 kmh NW 11.4 mph18.3 kmh 29.10 in985.4 mb 0.00 in0.0 mm 0.00 in0.0 mm 0.01 in0.3 mm
06:21 PM 37.4°F3.0°C 32.1°F0.1°C 81% 7.6 mph NW12.2 kmh NW 11.4 mph18.3 kmh 29.10 in985.4 mb 0.00 in0.0 mm 0.00 in0.0 mm 0.01 in0.3 mm
06:22 PM 37.4°F3.0°C 32.1°F0.1°C 81% 6.0 mph NW9.7 kmh NW 11.4 mph18.3 kmh 29.10 in985.4 mb 0.00 in0.0 mm 0.00 in0.0 mm 0.01 in0.3 mm
06:23 PM 37.4°F3.0°C 32.1°F0.1°C 81% 8.3 mph NW13.4 kmh NW 11.4 mph18.3 kmh 29.10 in985.4 mb 0.00 in0.0 mm 0.00 in0.0 mm 0.01 in0.3 mm
06:24 PM 37.4°F3.0°C 32.1°F0.1°C 81% 7.6 mph NNW12.2 kmh NNW 11.4 mph18.3 kmh 29.10 in985.4 mb 0.00 in0.0 mm 0.00 in0.0 mm 0.01 in0.3 mm
06:25 PM 37.4°F3.0°C 32.1°F0.1°C 81% 6.0 mph NNW9.7 kmh NNW 11.4 mph18.3 kmh 29.10 in985.4 mb 0.00 in0.0 mm 0.00 in0.0 mm 0.01 in0.3 mm
06:26 PM 37.4°F3.0°C 32.1°F0.1°C 81% 6.9 mph NNW11.1 kmh NNW 11.4 mph18.3 kmh 29.10 in985.4 mb 0.00 in0.0 mm 0.00 in0.0 mm 0.01 in0.3 mm
06:27 PM 37.4°F3.0°C 32.1°F0.1°C 81% 5.4 mph NNW8.7 kmh NNW 11.4 mph18.3 kmh 29.10 in985.4 mb 0.00 in0.0 mm 0.00 in0.0 mm 0.01 in0.3 mm
06:28 PM 37.4°F3.0°C 32.1°F0.1°C 81% 5.4 mph NNW8.7 kmh NNW 11.4 mph18.3 kmh 29.09 in985.1 mb 0.00 in0.0 mm 0.00 in0.0 mm 0.01 in0.3 mm
06:29 PM 37.4°F3.0°C 32.1°F0.1°C 81% 7.6 mph NNW12.2 kmh NNW 11.4 mph18.3 kmh 29.10 in985.4 mb 0.00 in0.0 mm 0.00 in0.0 mm 0.01 in0.3 mm
06:30 PM 37.6°F3.1°C 32.3°F0.2°C 81% 3.8 mph NW6.1 kmh NW 11.4 mph18.3 kmh 29.10 in985.4 mb 0.00 in0.0 mm 0.00 in0.0 mm 0.01 in0.3 mm
06:31 PM 37.9°F3.3°C 32.9°F0.5°C 82% 3.1 mph NW5.0 kmh NW 11.4 mph18.3 kmh 29.10 in985.4 mb 0.00 in0.0 mm 0.00 in0.0 mm 0.01 in0.3 mm
06:32 PM 38.3°F3.5°C 33.3°F0.7°C 82% 6.9 mph NW11.1 kmh NW 10.7 mph17.2 kmh 29.10 in985.4 mb 0.00 in0.0 mm 0.00 in0.0 mm 0.01 in0.3 mm
06:33 PM 37.9°F3.3°C 32.9°F0.5°C 82% 9.8 mph NW15.8 kmh NW 12.1 mph19.5 kmh 29.10 in985.4 mb 0.00 in0.0 mm 0.00 in0.0 mm 0.01 in0.3 mm
06:34 PM 37.8°F3.2°C 32.8°F0.4°C 82% 6.9 mph NW11.1 kmh NW 12.1 mph19.5 kmh 29.10 in985.4 mb 0.00 in0.0 mm 0.00 in0.0 mm 0.01 in0.3 mm
06:35 PM 37.6°F3.1°C 32.6°F0.3°C 82% 6.9 mph NW11.1 kmh NW 12.1 mph19.5 kmh 29.10 in985.4 mb 0.00 in0.0 mm 0.00 in0.0 mm 0.01 in0.3 mm
06:36 PM 37.6°F3.1°C 32.6°F0.3°C 82% 4.5 mph NW7.2 kmh NW 12.1 mph19.5 kmh 29.10 in985.4 mb 0.00 in0.0 mm 0.00 in0.0 mm 0.01 in0.3 mm
06:37 PM 37.6°F3.1°C 32.6°F0.3°C 82% 6.9 mph NW11.1 kmh NW 12.1 mph19.5 kmh 29.10 in985.4 mb 0.00 in0.0 mm 0.00 in0.0 mm 0.01 in0.3 mm
06:38 PM 37.4°F3.0°C 32.1°F0.1°C 81% 8.3 mph NNW13.4 kmh NNW 12.1 mph19.5 kmh 29.10 in985.4 mb 0.00 in0.0 mm 0.00 in0.0 mm 0.01 in0.3 mm
06:39 PM 37.4°F3.0°C 32.1°F0.1°C 81% 6.0 mph NW9.7 kmh NW 12.1 mph19.5 kmh 29.10 in985.4 mb 0.00 in0.0 mm 0.00 in0.0 mm 0.01 in0.3 mm
06:40 PM 37.4°F3.0°C 32.1°F0.1°C 81% 4.5 mph NNW7.2 kmh NNW 12.1 mph19.5 kmh 29.10 in985.4 mb 0.00 in0.0 mm 0.00 in0.0 mm 0.01 in0.3 mm
06:41 PM 37.4°F3.0°C 32.1°F0.1°C 81% 4.5 mph NNW7.2 kmh NNW 12.1 mph19.5 kmh 29.10 in985.4 mb 0.00 in0.0 mm 0.00 in0.0 mm 0.01 in0.3 mm
06:42 PM 37.2°F2.9°C 31.9°F-0.1°C 81% 8.3 mph NNW13.4 kmh NNW 12.1 mph19.5 kmh 29.10 in985.4 mb 0.00 in0.0 mm 0.00 in0.0 mm 0.01 in0.3 mm
06:43 PM 37.2°F2.9°C 31.9°F-0.1°C 81% 8.3 mph NNW13.4 kmh NNW 11.4 mph18.3 kmh 29.10 in985.4 mb 0.00 in0.0 mm 0.00 in0.0 mm 0.01 in0.3 mm
06:44 PM 37.2°F2.9°C 31.9°F-0.1°C 81% 7.6 mph NNW12.2 kmh NNW 11.4 mph18.3 kmh 29.11 in985.8 mb 0.00 in0.0 mm 0.00 in0.0 mm 0.01 in0.3 mm
06:45 PM 37.2°F2.9°C 31.9°F-0.1°C 81% 7.6 mph NNW12.2 kmh NNW 11.4 mph18.3 kmh 29.10 in985.4 mb 0.00 in0.0 mm 0.00 in0.0 mm 0.01 in0.3 mm
06:46 PM 37.2°F2.9°C 31.9°F-0.1°C 81% 9.2 mph NNW14.8 kmh NNW 11.4 mph18.3 kmh 29.11 in985.8 mb 0.00 in0.0 mm 0.00 in0.0 mm 0.01 in0.3 mm
06:47 PM 37.0°F2.8°C 31.8°F-0.1°C 81% 9.2 mph NNW14.8 kmh NNW 11.4 mph18.3 kmh 29.10 in985.4 mb 0.00 in0.0 mm 0.00 in0.0 mm 0.01 in0.3 mm
06:48 PM 37.0°F2.8°C 31.8°F-0.1°C 81% 7.6 mph NNW12.2 kmh NNW 11.4 mph18.3 kmh 29.11 in985.8 mb 0.00 in0.0 mm 0.00 in0.0 mm 0.01 in0.3 mm
06:49 PM 37.0°F2.8°C 31.8°F-0.1°C 81% 7.6 mph NNW12.2 kmh NNW 11.4 mph18.3 kmh 29.11 in985.8 mb 0.00 in0.0 mm 0.00 in0.0 mm 0.01 in0.3 mm
06:50 PM 36.9°F2.7°C 31.6°F-0.2°C 81% 6.9 mph NNW11.1 kmh NNW 11.4 mph18.3 kmh 29.11 in985.8 mb 0.00 in0.0 mm 0.00 in0.0 mm 0.01 in0.3 mm
06:51 PM 37.0°F2.8°C 31.8°F-0.1°C 81% 5.4 mph NNW8.7 kmh NNW 11.4 mph18.3 kmh 29.11 in985.8 mb 0.00 in0.0 mm 0.00 in0.0 mm 0.01 in0.3 mm
06:52 PM 37.0°F2.8°C 31.8°F-0.1°C 81% 7.6 mph NNW12.2 kmh NNW 11.4 mph18.3 kmh 29.11 in985.8 mb 0.00 in0.0 mm 0.00 in0.0 mm 0.01 in0.3 mm
06:53 PM 37.0°F2.8°C 31.8°F-0.1°C 81% 6.9 mph NW11.1 kmh NW 11.4 mph18.3 kmh 29.11 in985.8 mb 0.00 in0.0 mm 0.00 in0.0 mm 0.01 in0.3 mm
06:54 PM 36.9°F2.7°C 31.6°F-0.2°C 81% 8.3 mph NNW13.4 kmh NNW 11.4 mph18.3 kmh 29.11 in985.8 mb 0.00 in0.0 mm 0.00 in0.0 mm 0.01 in0.3 mm
06:55 PM 36.9°F2.7°C 31.6°F-0.2°C 81% 6.0 mph NNW9.7 kmh NNW 11.4 mph18.3 kmh 29.11 in985.8 mb 0.00 in0.0 mm 0.00 in0.0 mm 0.01 in0.3 mm
06:56 PM 37.0°F2.8°C 31.8°F-0.1°C 81% 3.1 mph NNW5.0 kmh NNW 11.4 mph18.3 kmh 29.11 in985.8 mb 0.00 in0.0 mm 0.00 in0.0 mm 0.01 in0.3 mm
06:57 PM 37.2°F2.9°C 31.9°F-0.1°C 81% 3.8 mph NNW6.1 kmh NNW 11.4 mph18.3 kmh 29.11 in985.8 mb 0.00 in0.0 mm 0.00 in0.0 mm 0.01 in0.3 mm
06:58 PM 37.4°F3.0°C 32.1°F0.1°C 81% 6.0 mph NW9.7 kmh NW 11.4 mph18.3 kmh 29.11 in985.8 mb 0.00 in0.0 mm 0.00 in0.0 mm 0.01 in0.3 mm
06:59 PM 37.2°F2.9°C 31.9°F-0.1°C 81% 6.0 mph NW9.7 kmh NW 11.4 mph18.3 kmh 29.11 in985.8 mb 0.00 in0.0 mm 0.00 in0.0 mm 0.01 in0.3 mm
07:00 PM 37.2°F2.9°C 31.9°F-0.1°C 81% 5.4 mph NW8.7 kmh NW 11.4 mph18.3 kmh 29.11 in985.8 mb 0.00 in0.0 mm 0.00 in0.0 mm 0.01 in0.3 mm
07:01 PM 37.2°F2.9°C 31.9°F-0.1°C 81% 2.2 mph NNW3.5 kmh NNW 11.4 mph18.3 kmh 29.11 in985.8 mb 0.00 in0.0 mm 0.00 in0.0 mm 0.01 in0.3 mm
07:02 PM 37.4°F3.0°C 32.1°F0.1°C 81% 6.9 mph NNW11.1 kmh NNW 11.4 mph18.3 kmh 29.11 in985.8 mb 0.00 in0.0 mm 0.00 in0.0 mm 0.01 in0.3 mm
07:03 PM 37.2°F2.9°C 31.9°F-0.1°C 81% 4.5 mph N7.2 kmh N 11.4 mph18.3 kmh 29.11 in985.8 mb 0.00 in0.0 mm 0.00 in0.0 mm 0.01 in0.3 mm
07:04 PM 37.2°F2.9°C 31.9°F-0.1°C 81% 6.0 mph NNW9.7 kmh NNW 11.4 mph18.3 kmh 29.11 in985.8 mb 0.00 in0.0 mm 0.00 in0.0 mm 0.01 in0.3 mm
07:05 PM 37.2°F2.9°C 31.9°F-0.1°C 81% 4.5 mph NNW7.2 kmh NNW 9.8 mph15.8 kmh 29.11 in985.8 mb 0.00 in0.0 mm 0.00 in0.0 mm 0.01 in0.3 mm
07:06 PM 37.2°F2.9°C 31.9°F-0.1°C 81% 9.8 mph NNW15.8 kmh NNW 11.4 mph18.3 kmh 29.11 in985.8 mb 0.00 in0.0 mm 0.00 in0.0 mm 0.01 in0.3 mm
07:07 PM 37.0°F2.8°C 31.8°F-0.1°C 81% 6.9 mph NNW11.1 kmh NNW 11.4 mph18.3 kmh 29.11 in985.8 mb 0.00 in0.0 mm 0.00 in0.0 mm 0.01 in0.3 mm
07:08 PM 37.0°F2.8°C 31.8°F-0.1°C 81% 6.9 mph NNW11.1 kmh NNW 11.4 mph18.3 kmh 29.11 in985.8 mb 0.00 in0.0 mm 0.00 in0.0 mm 0.01 in0.3 mm
07:09 PM 37.0°F2.8°C 31.8°F-0.1°C 81% 3.8 mph NNW6.1 kmh NNW 11.4 mph18.3 kmh 29.11 in985.8 mb 0.00 in0.0 mm 0.00 in0.0 mm 0.01 in0.3 mm
07:10 PM 37.0°F2.8°C 31.8°F-0.1°C 81% 5.4 mph NNW8.7 kmh NNW 11.4 mph18.3 kmh 29.11 in985.8 mb 0.00 in0.0 mm 0.00 in0.0 mm 0.01 in0.3 mm
07:11 PM 37.0°F2.8°C 31.8°F-0.1°C 81% 5.4 mph NNW8.7 kmh NNW 11.4 mph18.3 kmh 29.11 in985.8 mb 0.00 in0.0 mm 0.00 in0.0 mm 0.01 in0.3 mm
07:12 PM 37.0°F2.8°C 31.8°F-0.1°C 81% 6.0 mph NNW9.7 kmh NNW 11.4 mph18.3 kmh 29.11 in985.8 mb 0.00 in0.0 mm 0.00 in0.0 mm 0.01 in0.3 mm
07:13 PM 37.0°F2.8°C 31.8°F-0.1°C 81% 5.4 mph NW8.7 kmh NW 11.4 mph18.3 kmh 29.11 in985.8 mb 0.00 in0.0 mm 0.00 in0.0 mm 0.01 in0.3 mm
07:14 PM 37.0°F2.8°C 31.8°F-0.1°C 81% 3.8 mph NW6.1 kmh NW 11.4 mph18.3 kmh 29.11 in985.8 mb 0.00 in0.0 mm 0.00 in0.0 mm 0.01 in0.3 mm
07:15 PM 37.0°F2.8°C 31.8°F-0.1°C 81% 6.9 mph NW11.1 kmh NW 11.4 mph18.3 kmh 29.11 in985.8 mb 0.00 in0.0 mm 0.00 in0.0 mm 0.01 in0.3 mm
07:16 PM 37.0°F2.8°C 31.8°F-0.1°C 81% 6.9 mph NW11.1 kmh NW 11.4 mph18.3 kmh 29.11 in985.8 mb 0.00 in0.0 mm 0.00 in0.0 mm 0.01 in0.3 mm
07:17 PM 37.2°F2.9°C 31.9°F-0.1°C 81% 5.4 mph NW8.7 kmh NW 9.8 mph15.8 kmh 29.11 in985.8 mb 0.00 in0.0 mm 0.00 in0.0 mm 0.01 in0.3 mm
07:18 PM 37.4°F3.0°C 32.1°F0.1°C 81% 9.8 mph NW15.8 kmh NW 11.4 mph18.3 kmh 29.11 in985.8 mb 0.00 in0.0 mm 0.00 in0.0 mm 0.01 in0.3 mm
07:19 PM 37.2°F2.9°C 31.9°F-0.1°C 81% 8.3 mph NW13.4 kmh NW 11.4 mph18.3 kmh 29.11 in985.8 mb 0.00 in0.0 mm 0.00 in0.0 mm 0.01 in0.3 mm
07:20 PM 37.2°F2.9°C 31.9°F-0.1°C 81% 7.6 mph NW12.2 kmh NW 11.4 mph18.3 kmh 29.11 in985.8 mb 0.00 in0.0 mm 0.00 in0.0 mm 0.01 in0.3 mm
07:21 PM 37.0°F2.8°C 31.8°F-0.1°C 81% 8.3 mph NW13.4 kmh NW 11.4 mph18.3 kmh 29.11 in985.8 mb 0.00 in0.0 mm 0.00 in0.0 mm 0.01 in0.3 mm
07:22 PM 36.9°F2.7°C 31.6°F-0.2°C 81% 6.0 mph NW9.7 kmh NW 11.4 mph18.3 kmh 29.11 in985.8 mb 0.00 in0.0 mm 0.00 in0.0 mm 0.01 in0.3 mm
07:23 PM 37.0°F2.8°C 31.8°F-0.1°C 81% 7.6 mph NW12.2 kmh NW 11.4 mph18.3 kmh 29.11 in985.8 mb 0.00 in0.0 mm 0.00 in0.0 mm 0.01 in0.3 mm
07:24 PM 37.2°F2.9°C 31.9°F-0.1°C 81% 6.9 mph NW11.1 kmh NW 11.4 mph18.3 kmh 29.11 in985.8 mb 0.00 in0.0 mm 0.00 in0.0 mm 0.01 in0.3 mm
07:25 PM 37.2°F2.9°C 31.9°F-0.1°C 81% 6.9 mph NNW11.1 kmh NNW 11.4 mph18.3 kmh 29.11 in985.8 mb 0.00 in0.0 mm 0.00 in0.0 mm 0.01 in0.3 mm
07:26 PM 37.0°F2.8°C 32.1°F0.1°C 82% 4.5 mph NNW7.2 kmh NNW 11.4 mph18.3 kmh 29.11 in985.8 mb 0.00 in0.0 mm 0.00 in0.0 mm 0.01 in0.3 mm
07:27 PM 37.2°F2.9°C 32.2°F0.1°C 82% 6.0 mph NNW9.7 kmh NNW 11.4 mph18.3 kmh 29.11 in985.8 mb 0.00 in0.0 mm 0.00 in0.0 mm 0.01 in0.3 mm
07:28 PM 37.2°F2.9°C 32.2°F0.1°C 82% 6.9 mph NNW11.1 kmh NNW 11.4 mph18.3 kmh 29.11 in985.8 mb 0.00 in0.0 mm 0.00 in0.0 mm 0.01 in0.3 mm
07:29 PM 37.2°F2.9°C 32.2°F0.1°C 82% 3.8 mph NNW6.1 kmh NNW 10.7 mph17.2 kmh 29.11 in985.8 mb 0.00 in0.0 mm 0.00 in0.0 mm 0.01 in0.3 mm
07:30 PM 37.0°F2.8°C 32.1°F0.1°C 82% 6.0 mph NNW9.7 kmh NNW 10.7 mph17.2 kmh 29.11 in985.8 mb 0.00 in0.0 mm 0.00 in0.0 mm 0.01 in0.3 mm
07:31 PM 37.0°F2.8°C 32.1°F0.1°C 82% 3.1 mph NNW5.0 kmh NNW 9.8 mph15.8 kmh 29.11 in985.8 mb 0.00 in0.0 mm 0.00 in0.0 mm 0.01 in0.3 mm
07:32 PM 37.0°F2.8°C 32.1°F0.1°C 82% 4.5 mph N7.2 kmh N 9.8 mph15.8 kmh 29.11 in985.8 mb 0.00 in0.0 mm 0.00 in0.0 mm 0.01 in0.3 mm
07:33 PM 37.0°F2.8°C 32.1°F0.1°C 82% 3.8 mph N6.1 kmh N 9.8 mph15.8 kmh 29.11 in985.8 mb 0.00 in0.0 mm 0.00 in0.0 mm 0.01 in0.3 mm
07:34 PM 37.0°F2.8°C 32.1°F0.1°C 82% 3.1 mph N5.0 kmh N 9.8 mph15.8 kmh 29.11 in985.8 mb 0.00 in0.0 mm 0.00 in0.0 mm 0.01 in0.3 mm
07:35 PM 37.0°F2.8°C 32.1°F0.1°C 82% 7.6 mph N12.2 kmh N 9.8 mph15.8 kmh 29.11 in985.8 mb 0.00 in0.0 mm 0.00 in0.0 mm 0.01 in0.3 mm
07:36 PM 37.0°F2.8°C 32.1°F0.1°C 82% 5.4 mph NNE8.7 kmh NNE 9.2 mph14.8 kmh 29.11 in985.8 mb 0.00 in0.0 mm 0.00 in0.0 mm 0.01 in0.3 mm
07:37 PM 37.0°F2.8°C 32.1°F0.1°C 82% 5.4 mph NNE8.7 kmh NNE 9.2 mph14.8 kmh 29.11 in985.8 mb 0.00 in0.0 mm 0.00 in0.0 mm 0.01 in0.3 mm
07:38 PM 37.0°F2.8°C 32.1°F0.1°C 82% 5.4 mph NNE8.7 kmh NNE 9.2 mph14.8 kmh 29.11 in985.8 mb 0.00 in0.0 mm 0.00 in0.0 mm 0.01 in0.3 mm
07:39 PM 36.9°F2.7°C 31.6°F-0.2°C 81% 5.4 mph N8.7 kmh N 9.2 mph14.8 kmh 29.11 in985.8 mb 0.00 in0.0 mm 0.00 in0.0 mm 0.01 in0.3 mm
07:40 PM 36.9°F2.7°C 31.6°F-0.2°C 81% 9.2 mph NNE14.8 kmh NNE 10.7 mph17.2 kmh 29.11 in985.8 mb 0.00 in0.0 mm 0.00 in0.0 mm 0.01 in0.3 mm
07:41 PM 36.9°F2.7°C 31.6°F-0.2°C 81% 4.5 mph NNE7.2 kmh NNE 10.7 mph17.2 kmh 29.11 in985.8 mb 0.00 in0.0 mm 0.00 in0.0 mm 0.01 in0.3 mm
07:42 PM 36.7°F2.6°C 31.4°F-0.3°C 81% 6.0 mph N9.7 kmh N 10.7 mph17.2 kmh 29.11 in985.8 mb 0.00 in